Darstellungsparameter: Aktuell verwendete Einstellungen:
Skalierung der Graphiken ... ?
xyx+y,   Skalierungsfaktor:      Skalierung: Modus: x, Faktor: 1
Darstellungszeitraum ... ?
Vom - - bis: - -   Zeitraum: 13.03.2020 - 19.03.2020
Min/Max/Avg-Anzeige ... ?
Zeige MMA aktuell
Zeige MMA Monat
Zeige MMA alles
Zeige --A aktuell
Zeige --A Monat
Zeige --A alles
Keine MMA-Anzeige
MMA:
Keine MMA-Graphiken
MMA-Basis: 13.03.2020 - 19.03.2020
Quicknavigation für Darstellung... ?
Tage:      1T, 2T, 3T, 5T -1T -2T -3T -5T +1T +2T +3T +5T
Wochen: 1W, 2W, 3W -1W -2W -3W +1W +2W +3W
Monate: 1M, 3M, 6M -1M -3M -6M +1M +3M +6M
Jahre:    1J, 3J, 5J, 10J -1J -3J -5J -10J +1J +3J +5J +10J
Nutze für die Darstellung ... ?
Originaldaten oder Mittelwerte auf ...
Stundenbasis Tagesbasis Wochenbasis
Monatsbasis Jahresbasis      Datenbasis: Original-Daten
Darstellen als:
Statistik (Auto) Statistik J:M      Darstellung:
Zur Graphik,    zurück zur Übersicht aller Sensoren.
 
Tabellarische Datenbersicht: ?
 
Sensor: Nr:Datum:Temp:Abs-Feuchte:Windchill:Wind:
Aussen-T/F 1 13-03-2020 00:00:00 7 C 5.58 g/m*3 5.11 C 9.7 km/h
2 13-03-2020 00:05:00 6.9 C 5.39 g/m*3 4.16 C 14.5 km/h
3 13-03-2020 00:10:00 6.9 C 5.39 g/m*3 4.68 C 11.3 km/h
4 13-03-2020 00:15:00 6.9 C 5.39 g/m*3 3.54 C 19.3 km/h
5 13-03-2020 00:20:00 6.9 C 5.39 g/m*3 4.16 C 14.5 km/h
6 13-03-2020 00:25:00 6.9 C 5.39 g/m*3 4.16 C 14.5 km/h
7 13-03-2020 00:30:00 6.8 C 5.43 g/m*3 4.87 C 9.7 km/h
8 13-03-2020 00:35:00 6.7 C 5.47 g/m*3 4.75 C 9.7 km/h
9 13-03-2020 00:40:00 6.6 C 5.44 g/m*3 4.32 C 11.3 km/h
10 13-03-2020 00:45:00 6.4 C 5.44 g/m*3 3.8 C 12.9 km/h
11 13-03-2020 00:50:00 6.4 C 5.44 g/m*3 3.8 C 12.9 km/h
12 13-03-2020 00:55:00 6.3 C 5.4 g/m*3 3.96 C 11.3 km/h
13 13-03-2020 01:00:00 6.2 C 5.44 g/m*3 3.3 C 14.5 km/h
14 13-03-2020 01:05:00 6.1 C 5.41 g/m*3 4.4 C 8.1 km/h
15 13-03-2020 01:10:00 6.1 C 5.41 g/m*3 2.73 C 17.7 km/h
16 13-03-2020 01:15:00 6 C 5.37 g/m*3 3.6 C 11.3 km/h
17 13-03-2020 01:20:00 5.9 C 5.34 g/m*3 3.19 C 12.9 km/h
18 13-03-2020 01:25:00 5.8 C 5.37 g/m*3 2.81 C 14.5 km/h
19 13-03-2020 01:30:00 5.8 C 5.37 g/m*3 3.68 C 9.7 km/h
20 13-03-2020 01:35:00 5.7 C 5.34 g/m*3 3.23 C 11.3 km/h
21 13-03-2020 01:40:00 5.7 C 5.34 g/m*3 2.69 C 14.5 km/h
22 13-03-2020 01:45:00 5.7 C 5.34 g/m*3 3.23 C 11.3 km/h
23 13-03-2020 01:50:00 5.7 C 5.34 g/m*3 3.56 C 9.7 km/h
24 13-03-2020 01:55:00 5.6 C 5.37 g/m*3 2.83 C 12.9 km/h
25 13-03-2020 02:00:00 5.5 C 5.34 g/m*3 3.32 C 9.7 km/h
Sensor: Nr:Datum:Temp:Abs-Feuchte:Windchill:Wind:
Aussen-T/F 26 13-03-2020 02:05:00 5.4 C 5.37 g/m*3 4.06 C 6.4 km/h
27 13-03-2020 02:10:00 5.3 C 5.34 g/m*3 3.46 C 8.1 km/h
28 13-03-2020 02:15:00 5.3 C 5.41 g/m*3 3.94 C 6.4 km/h
29 13-03-2020 02:20:00 5.3 C 5.41 g/m*3 3.46 C 8.1 km/h
30 13-03-2020 02:25:00 5.3 C 5.41 g/m*3 2.75 C 11.3 km/h
31 13-03-2020 02:30:00 5.3 C 5.41 g/m*3 2.2 C 14.5 km/h
32 13-03-2020 02:35:00 5.3 C 5.41 g/m*3 2.2 C 14.5 km/h
33 13-03-2020 02:40:00 5.3 C 5.41 g/m*3 2.75 C 11.3 km/h
34 13-03-2020 02:45:00 5.4 C 5.44 g/m*3 2.32 C 14.5 km/h
35 13-03-2020 02:50:00 5.4 C 5.44 g/m*3 2.32 C 14.5 km/h
36 13-03-2020 02:55:00 5.5 C 5.48 g/m*3 2.7 C 12.9 km/h
37 13-03-2020 03:00:00 5.5 C 5.41 g/m*3 2.44 C 14.5 km/h
38 13-03-2020 03:05:00 5.5 C 5.41 g/m*3 2.99 C 11.3 km/h
39 13-03-2020 03:10:00 5.5 C 5.41 g/m*3 2.7 C 12.9 km/h
40 13-03-2020 03:15:00 5.5 C 5.41 g/m*3 1.99 C 17.7 km/h
41 13-03-2020 03:20:00 5.6 C 5.44 g/m*3 1.22 C 25.7 km/h
42 13-03-2020 03:25:00 5.6 C 5.44 g/m*3 2.83 C 12.9 km/h
43 13-03-2020 03:30:00 5.6 C 5.44 g/m*3 2.33 C 16.1 km/h
44 13-03-2020 03:35:00 5.6 C 5.44 g/m*3 2.57 C 14.5 km/h
45 13-03-2020 03:40:00 5.7 C 5.48 g/m*3 2.24 C 17.7 km/h
46 13-03-2020 03:45:00 5.7 C 5.41 g/m*3 1.05 C 29 km/h
47 13-03-2020 03:50:00 5.8 C 5.44 g/m*3 1.8 C 22.5 km/h
48 13-03-2020 03:55:00 5.8 C 5.44 g/m*3 1.8 C 22.5 km/h
49 13-03-2020 04:00:00 5.8 C 5.52 g/m*3 2.81 C 14.5 km/h
50 13-03-2020 04:05:00 5.7 C 5.48 g/m*3 3.93 C 8.1 km/h
Sensor: Nr:Datum:Temp:Abs-Feuchte:Windchill:Wind:
Aussen-T/F 51 13-03-2020 04:10:00 5.6 C 5.44 g/m*3 3.44 C 9.7 km/h
52 13-03-2020 04:15:00 5.6 C 5.51 g/m*3 2.57 C 14.5 km/h
53 13-03-2020 04:20:00 5.6 C 5.51 g/m*3 3.11 C 11.3 km/h
54 13-03-2020 04:25:00 5.6 C 5.51 g/m*3 3.11 C 11.3 km/h
55 13-03-2020 04:30:00 5.5 C 5.48 g/m*3 2.44 C 14.5 km/h
56 13-03-2020 04:35:00 5.5 C 5.48 g/m*3 2.7 C 12.9 km/h
57 13-03-2020 04:40:00 5.5 C 5.48 g/m*3 2.44 C 14.5 km/h
58 13-03-2020 04:45:00 5.5 C 5.48 g/m*3 2.7 C 12.9 km/h
59 13-03-2020 04:50:00 5.5 C 5.41 g/m*3 2.7 C 12.9 km/h
60 13-03-2020 04:55:00 5.5 C 5.41 g/m*3 1.42 C 22.5 km/h
61 13-03-2020 05:00:00 5.6 C 5.44 g/m*3 1.72 C 20.9 km/h
62 13-03-2020 05:05:00 5.6 C 5.44 g/m*3 2.33 C 16.1 km/h
63 13-03-2020 05:10:00 5.6 C 5.44 g/m*3 3.44 C 9.7 km/h
64 13-03-2020 05:15:00 5.7 C 5.41 g/m*3 2.45 C 16.1 km/h
65 13-03-2020 05:20:00 5.8 C 5.44 g/m*3 2.81 C 14.5 km/h
66 13-03-2020 05:25:00 5.8 C 5.44 g/m*3 3.07 C 12.9 km/h
67 13-03-2020 05:30:00 5.8 C 5.44 g/m*3 3.36 C 11.3 km/h
68 13-03-2020 05:35:00 5.8 C 5.44 g/m*3 3.36 C 11.3 km/h
69 13-03-2020 05:40:00 5.8 C 5.44 g/m*3 3.07 C 12.9 km/h
70 13-03-2020 05:45:00 5.8 C 5.44 g/m*3 3.36 C 11.3 km/h
71 13-03-2020 05:50:00 5.8 C 5.44 g/m*3 3.07 C 12.9 km/h
72 13-03-2020 05:55:00 5.8 C 5.52 g/m*3 4.05 C 8.1 km/h
73 13-03-2020 06:00:00 5.8 C 5.52 g/m*3 3.07 C 12.9 km/h
74 13-03-2020 06:05:00 5.8 C 5.52 g/m*3 4.05 C 8.1 km/h
75 13-03-2020 06:10:00 5.8 C 5.52 g/m*3 3.68 C 9.7 km/h
Sensor: Nr:Datum:Temp:Abs-Feuchte:Windchill:Wind:
Aussen-T/F 76 13-03-2020 06:15:00 5.8 C 5.52 g/m*3 3.36 C 11.3 km/h
77 13-03-2020 06:20:00 5.9 C 5.55 g/m*3 2.93 C 14.5 km/h
78 13-03-2020 06:25:00 6 C 5.59 g/m*3 3.92 C 9.7 km/h
79 13-03-2020 06:30:00 6 C 5.59 g/m*3 4.28 C 8.1 km/h
80 13-03-2020 06:35:00 5.9 C 5.55 g/m*3 2.93 C 14.5 km/h
81 13-03-2020 06:40:00 5.9 C 5.55 g/m*3 2.93 C 14.5 km/h
82 13-03-2020 06:45:00 5.9 C 5.55 g/m*3 3.19 C 12.9 km/h
83 13-03-2020 06:50:00 5.9 C 5.55 g/m*3 1.76 C 24.1 km/h
84 13-03-2020 06:55:00 5.8 C 5.52 g/m*3 3.36 C 11.3 km/h
85 13-03-2020 07:00:00 5.8 C 5.59 g/m*3 2.81 C 14.5 km/h
86 13-03-2020 07:05:00 5.8 C 5.59 g/m*3 2.81 C 14.5 km/h
87 13-03-2020 07:10:00 5.8 C 5.59 g/m*3 3.36 C 11.3 km/h
88 13-03-2020 07:15:00 5.8 C 5.59 g/m*3 3.07 C 12.9 km/h
89 13-03-2020 07:20:00 5.8 C 5.59 g/m*3 2.81 C 14.5 km/h
90 13-03-2020 07:25:00 5.9 C 5.62 g/m*3 2.29 C 19.3 km/h
91 13-03-2020 07:30:00 6 C 5.66 g/m*3 3.6 C 11.3 km/h
92 13-03-2020 07:35:00 6.1 C 5.7 g/m*3 3.72 C 11.3 km/h
93 13-03-2020 07:40:00 6.1 C 5.77 g/m*3 4.4 C 8.1 km/h
94 13-03-2020 07:45:00 6.1 C 5.77 g/m*3 3.72 C 11.3 km/h
95 13-03-2020 07:50:00 6.1 C 5.77 g/m*3 4.04 C 9.7 km/h
96 13-03-2020 07:55:00 6.2 C 5.81 g/m*3 4.52 C 8.1 km/h
97 13-03-2020 08:00:00 6.2 C 5.81 g/m*3 4.52 C 8.1 km/h
98 13-03-2020 08:05:00 6.2 C 5.81 g/m*3 4.15 C 9.7 km/h
99 13-03-2020 08:10:00 6.2 C 5.88 g/m*3 3.84 C 11.3 km/h
100 13-03-2020 08:15:00 6.3 C 5.92 g/m*3 3.43 C 14.5 km/h
Sensor: Nr:Datum:Temp:Abs-Feuchte:Windchill:Wind:
Aussen-T/F 101 13-03-2020 08:20:00 6.3 C 5.85 g/m*3 3.68 C 12.9 km/h
102 13-03-2020 08:25:00 6.3 C 5.92 g/m*3 4.27 C 9.7 km/h
103 13-03-2020 08:30:00 6.3 C 5.92 g/m*3 5.1 C 6.4 km/h
104 13-03-2020 08:35:00 6.4 C 5.89 g/m*3 3.8 C 12.9 km/h
105 13-03-2020 08:40:00 6.4 C 5.89 g/m*3 4.39 C 9.7 km/h
106 13-03-2020 08:45:00 6.4 C 5.89 g/m*3 3.55 C 14.5 km/h
107 13-03-2020 08:50:00 6.5 C 6 g/m*3 4.2 C 11.3 km/h
108 13-03-2020 08:55:00 6.6 C 5.96 g/m*3 4.32 C 11.3 km/h
109 13-03-2020 09:00:00 6.7 C 6.08 g/m*3 5.11 C 8.1 km/h
110 13-03-2020 09:05:00 6.7 C 6 g/m*3 5.11 C 8.1 km/h
111 13-03-2020 09:10:00 6.8 C 6.04 g/m*3 4.87 C 9.7 km/h
112 13-03-2020 09:15:00 6.9 C 6.08 g/m*3 4.99 C 9.7 km/h
113 13-03-2020 09:20:00 7 C 6.12 g/m*3 5.11 C 9.7 km/h
114 13-03-2020 09:25:00 7.2 C 6.12 g/m*3 4.77 C 12.9 km/h
115 13-03-2020 09:30:00 7.3 C 6.16 g/m*3 5.81 C 8.1 km/h
116 13-03-2020 09:35:00 7.4 C 6.04 g/m*3 4.56 C 16.1 km/h
117 13-03-2020 09:40:00 7.4 C 6.12 g/m*3 4.56 C 16.1 km/h
118 13-03-2020 09:45:00 7.4 C 6.04 g/m*3 4.78 C 14.5 km/h
119 13-03-2020 09:50:00 7.4 C 6.12 g/m*3 5.02 C 12.9 km/h
120 13-03-2020 09:55:00 7.4 C 6.12 g/m*3 4.36 C 17.7 km/h
121 13-03-2020 10:00:00 7.4 C 6.12 g/m*3 4.17 C 19.3 km/h
122 13-03-2020 10:05:00 7.5 C 6.08 g/m*3 4.68 C 16.1 km/h
123 13-03-2020 10:10:00 7.6 C 6.12 g/m*3 5.02 C 14.5 km/h
124 13-03-2020 10:15:00 7.8 C 6.2 g/m*3 4.68 C 19.3 km/h
125 13-03-2020 10:20:00 8.1 C 6.24 g/m*3 6.13 C 11.3 km/h
Sensor: Nr:Datum:Temp:Abs-Feuchte:Windchill:Wind:
Aussen-T/F 126 13-03-2020 10:25:00 8.3 C 6.24 g/m*3 5.48 C 17.7 km/h
127 13-03-2020 10:30:00 8.3 C 6.15 g/m*3 5.68 C 16.1 km/h
128 13-03-2020 10:35:00 8.4 C 6.28 g/m*3 6.24 C 12.9 km/h
129 13-03-2020 10:40:00 8.3 C 6.24 g/m*3 6.37 C 11.3 km/h
130 13-03-2020 10:45:00 8.3 C 6.41 g/m*3 5.68 C 16.1 km/h
131 13-03-2020 10:50:00 8.2 C 6.45 g/m*3 5.76 C 14.5 km/h
132 13-03-2020 10:55:00 8.2 C 6.62 g/m*3 5.76 C 14.5 km/h
133 13-03-2020 11:00:00 8.1 C 6.66 g/m*3 5.64 C 14.5 km/h
134 13-03-2020 11:05:00 8.3 C 6.74 g/m*3 6.37 C 11.3 km/h
135 13-03-2020 11:10:00 8.6 C 6.62 g/m*3 6.05 C 16.1 km/h
136 13-03-2020 11:15:00 8.8 C 6.44 g/m*3 6.5 C 14.5 km/h
137 13-03-2020 11:20:00 9.1 C 6.48 g/m*3 6.31 C 19.3 km/h
138 13-03-2020 11:25:00 9.1 C 6.57 g/m*3 6.48 C 17.7 km/h
139 13-03-2020 11:30:00 8.9 C 6.57 g/m*3 6.42 C 16.1 km/h
140 13-03-2020 11:35:00 8.6 C 6.7 g/m*3 5.68 C 19.3 km/h
141 13-03-2020 11:40:00 8.3 C 6.66 g/m*3 5.14 C 20.9 km/h
142 13-03-2020 11:45:00 8.1 C 6.49 g/m*3 5.64 C 14.5 km/h
143 13-03-2020 11:50:00 8.1 C 6.49 g/m*3 5.23 C 17.7 km/h
144 13-03-2020 11:55:00 8.2 C 6.53 g/m*3 5.18 C 19.3 km/h
145 13-03-2020 12:00:00 8.2 C 6.53 g/m*3 5.01 C 20.9 km/h
146 13-03-2020 12:05:00 8.3 C 6.41 g/m*3 5.31 C 19.3 km/h
147 13-03-2020 12:10:00 8.5 C 6.4 g/m*3 6.13 C 14.5 km/h
148 13-03-2020 12:15:00 8.7 C 6.4 g/m*3 7.13 C 9.7 km/h
149 13-03-2020 12:20:00 9.1 C 6.3 g/m*3 6.48 C 17.7 km/h
150 13-03-2020 12:25:00 9.3 C 6.38 g/m*3 6.92 C 16.1 km/h
Sensor: Nr:Datum:Temp:Abs-Feuchte:Windchill:Wind:
Aussen-T/F 151 13-03-2020 12:30:00 9.3 C 6.29 g/m*3 6.56 C 19.3 km/h
152 13-03-2020 12:35:00 9.2 C 6.25 g/m*3 6.13 C 22.5 km/h
153 13-03-2020 12:40:00 9.3 C 6.29 g/m*3 6.26 C 22.5 km/h
154 13-03-2020 12:45:00 9.4 C 6.42 g/m*3 7.04 C 16.1 km/h
155 13-03-2020 12:50:00 9.4 C 6.6 g/m*3 7.7 C 11.3 km/h
156 13-03-2020 12:55:00 9.3 C 6.56 g/m*3 7.58 C 11.3 km/h
157 13-03-2020 13:00:00 9.4 C 6.6 g/m*3 6.53 C 20.9 km/h
158 13-03-2020 13:05:00 9.3 C 6.56 g/m*3 6.92 C 16.1 km/h
159 13-03-2020 13:10:00 9.2 C 6.61 g/m*3 6.99 C 14.5 km/h
160 13-03-2020 13:15:00 9.1 C 6.74 g/m*3 7.33 C 11.3 km/h
161 13-03-2020 13:20:00 9 C 6.79 g/m*3 7.21 C 11.3 km/h
162 13-03-2020 13:25:00 9 C 6.88 g/m*3 6.97 C 12.9 km/h
163 13-03-2020 13:30:00 9.1 C 6.57 g/m*3 6.48 C 17.7 km/h
164 13-03-2020 13:35:00 9.3 C 6.56 g/m*3 7.33 C 12.9 km/h
165 13-03-2020 13:40:00 9.4 C 6.6 g/m*3 7.7 C 11.3 km/h
166 13-03-2020 13:45:00 9.6 C 6.5 g/m*3 6.79 C 20.9 km/h
167 13-03-2020 13:50:00 9.7 C 6.55 g/m*3 6.91 C 20.9 km/h
168 13-03-2020 13:55:00 9.8 C 6.59 g/m*3 7.54 C 16.1 km/h
169 13-03-2020 14:00:00 9.8 C 6.68 g/m*3 7.94 C 12.9 km/h
170 13-03-2020 14:05:00 9.7 C 6.64 g/m*3 8.06 C 11.3 km/h
171 13-03-2020 14:10:00 9.7 C 6.64 g/m*3 8.06 C 11.3 km/h
172 13-03-2020 14:15:00 9.7 C 6.45 g/m*3 6.5 C 25.7 km/h
173 13-03-2020 14:20:00 9.6 C 6.41 g/m*3 7.11 C 17.7 km/h
174 13-03-2020 14:25:00 9.6 C 6.5 g/m*3 7.94 C 11.3 km/h
175 13-03-2020 14:30:00 9.7 C 6.82 g/m*3 8.06 C 11.3 km/h
Sensor: Nr:Datum:Temp:Abs-Feuchte:Windchill:Wind:
Aussen-T/F 176 13-03-2020 14:35:00 9.6 C 6.78 g/m*3 7.94 C 11.3 km/h
177 13-03-2020 14:40:00 9.7 C 6.64 g/m*3 7.61 C 14.5 km/h
178 13-03-2020 14:45:00 9.8 C 6.59 g/m*3 7.73 C 14.5 km/h
179 13-03-2020 14:50:00 9.9 C 6.54 g/m*3 8.3 C 11.3 km/h
180 13-03-2020 14:55:00 10.1 C 6.24 g/m*3 8.54 C 11.3 km/h
181 13-03-2020 15:00:00 10.2 C 6.38 g/m*3 8.92 C 9.7 km/h
182 13-03-2020 15:05:00 10.1 C 6.24 g/m*3 8.31 C 12.9 km/h
183 13-03-2020 15:10:00 10 C 6.2 g/m*3 7.61 C 17.7 km/h
184 13-03-2020 15:15:00 10 C 6.3 g/m*3 8.42 C 11.3 km/h
185 13-03-2020 15:20:00 9.9 C 6.16 g/m*3 8.56 C 9.7 km/h
186 13-03-2020 15:25:00 9.9 C 6.16 g/m*3 8.3 C 11.3 km/h
187 13-03-2020 15:30:00 10 C 6.11 g/m*3 8.68 C 9.7 km/h
188 13-03-2020 15:35:00 10.1 C 6.05 g/m*3 8.8 C 9.7 km/h
189 13-03-2020 15:40:00 10.2 C 6.09 g/m*3 8.66 C 11.3 km/h
190 13-03-2020 15:45:00 10.3 C 6.22 g/m*3 8.55 C 12.9 km/h
191 13-03-2020 15:50:00 10.3 C 6.32 g/m*3 8.55 C 12.9 km/h
192 13-03-2020 15:55:00 10.4 C 6.26 g/m*3 8.47 C 14.5 km/h
193 13-03-2020 16:00:00 10.3 C 6.22 g/m*3 8.55 C 12.9 km/h
194 13-03-2020 16:05:00 10.3 C 6.22 g/m*3 8.78 C 11.3 km/h
195 13-03-2020 16:10:00 10.2 C 6.09 g/m*3 8.92 C 9.7 km/h
196 13-03-2020 16:15:00 10.2 C 6 g/m*3 7.86 C 17.7 km/h
197 13-03-2020 16:20:00 10.1 C 5.96 g/m*3 7.57 C 19.3 km/h
198 13-03-2020 16:25:00 10.1 C 5.96 g/m*3 7.91 C 16.1 km/h
199 13-03-2020 16:30:00 10 C 6.3 g/m*3 7.98 C 14.5 km/h
200 13-03-2020 16:35:00 9.9 C 6.44 g/m*3 8.56 C 9.7 km/h
Sensor: Nr:Datum:Temp:Abs-Feuchte:Windchill:Wind:
Aussen-T/F 201 13-03-2020 16:40:00 9.8 C 6.4 g/m*3 8.45 C 9.7 km/h
202 13-03-2020 16:45:00 9.6 C 6.32 g/m*3 8.21 C 9.7 km/h
203 13-03-2020 16:50:00 9.7 C 6.36 g/m*3 7.41 C 16.1 km/h
204 13-03-2020 16:55:00 9.7 C 6.36 g/m*3 8.63 C 8.1 km/h
205 13-03-2020 17:00:00 9.7 C 6.45 g/m*3 7.41 C 16.1 km/h
206 13-03-2020 17:05:00 9.6 C 6.5 g/m*3 8.52 C 8.1 km/h
207 13-03-2020 17:10:00 9.4 C 6.33 g/m*3 8.68 C 6.4 km/h
208 13-03-2020 17:15:00 9.4 C 6.42 g/m*3 7.97 C 9.7 km/h
209 13-03-2020 17:20:00 9.4 C 6.42 g/m*3 7.97 C 9.7 km/h
210 13-03-2020 17:25:00 9.4 C 6.42 g/m*3 7.97 C 9.7 km/h
211 13-03-2020 17:30:00 9.4 C 6.42 g/m*3 7.7 C 11.3 km/h
212 13-03-2020 17:35:00 9.4 C 6.42 g/m*3 9.4 C 4.8 km/h
213 13-03-2020 17:40:00 9.6 C 6.32 g/m*3 7.94 C 11.3 km/h
214 13-03-2020 17:45:00 9.6 C 6.41 g/m*3 8.91 C 6.4 km/h
215 13-03-2020 17:50:00 9.8 C 6.59 g/m*3 8.45 C 9.7 km/h
216 13-03-2020 17:55:00 9.8 C 6.59 g/m*3 8.18 C 11.3 km/h
217 13-03-2020 18:00:00 9.8 C 6.68 g/m*3 9.8 C 4.8 km/h
218 13-03-2020 18:05:00 9.6 C 6.6 g/m*3 7.7 C 12.9 km/h
219 13-03-2020 18:10:00 9.3 C 6.56 g/m*3 7.33 C 12.9 km/h
220 13-03-2020 18:15:00 9.2 C 6.52 g/m*3 8.45 C 6.4 km/h
221 13-03-2020 18:20:00 9.1 C 6.48 g/m*3 7.93 C 8.1 km/h
222 13-03-2020 18:25:00 8.9 C 6.48 g/m*3 7.09 C 11.3 km/h
223 13-03-2020 18:30:00 8.8 C 6.44 g/m*3 6.72 C 12.9 km/h
224 13-03-2020 18:35:00 8.7 C 6.4 g/m*3 8.7 C 4.8 km/h
225 13-03-2020 18:40:00 8.6 C 6.36 g/m*3 8.6 C 4.8 km/h
Sensor: Nr:Datum:Temp:Abs-Feuchte:Windchill:Wind:
Aussen-T/F 226 13-03-2020 18:45:00 8.5 C 6.32 g/m*3 6.9 C 9.7 km/h
227 13-03-2020 18:50:00 8.4 C 6.36 g/m*3 7.52 C 6.4 km/h
228 13-03-2020 18:55:00 8.3 C 6.24 g/m*3 7.41 C 6.4 km/h
229 13-03-2020 19:00:00 8.3 C 6.32 g/m*3 8.3 C 3.2 km/h
230 13-03-2020 19:05:00 8.3 C 6.32 g/m*3 7.41 C 6.4 km/h
231 13-03-2020 19:10:00 8.2 C 6.45 g/m*3 8.2 C 4.8 km/h
232 13-03-2020 19:15:00 8.2 C 6.45 g/m*3 8.2 C 4.8 km/h
233 13-03-2020 19:20:00 8.1 C 6.57 g/m*3 8.1 C 4.8 km/h
234 13-03-2020 19:25:00 8 C 6.53 g/m*3 8 C 4.8 km/h
235 13-03-2020 19:30:00 7.9 C 6.49 g/m*3 6.94 C 6.4 km/h
236 13-03-2020 19:35:00 7.8 C 6.37 g/m*3 6.83 C 6.4 km/h
237 13-03-2020 19:40:00 7.8 C 6.37 g/m*3 7.8 C 4.8 km/h
238 13-03-2020 19:45:00 7.7 C 6.41 g/m*3 7.7 C 0 km/h
239 13-03-2020 19:50:00 7.7 C 6.41 g/m*3 7.7 C 3.2 km/h
240 13-03-2020 19:55:00 7.7 C 6.49 g/m*3 7.7 C 3.2 km/h
241 13-03-2020 20:00:00 7.7 C 6.49 g/m*3 7.7 C 3.2 km/h
242 13-03-2020 20:05:00 7.6 C 6.44 g/m*3 7.6 C 3.2 km/h
243 13-03-2020 20:10:00 7.4 C 6.44 g/m*3 7.4 C 4.8 km/h
244 13-03-2020 20:15:00 7.4 C 6.44 g/m*3 7.4 C 3.2 km/h
245 13-03-2020 20:20:00 7.3 C 6.4 g/m*3 5.81 C 8.1 km/h
246 13-03-2020 20:25:00 7.2 C 6.44 g/m*3 7.2 C 4.8 km/h
247 13-03-2020 20:30:00 7.1 C 6.32 g/m*3 6.02 C 6.4 km/h
248 13-03-2020 20:35:00 7.1 C 6.32 g/m*3 6.02 C 6.4 km/h
249 13-03-2020 20:40:00 7.1 C 6.4 g/m*3 7.1 C 3.2 km/h
250 13-03-2020 20:45:00 7 C 6.43 g/m*3 5.9 C 6.4 km/h
Sensor: Nr:Datum:Temp:Abs-Feuchte:Windchill:Wind:
Aussen-T/F 251 13-03-2020 20:50:00 6.9 C 6.39 g/m*3 6.9 C 4.8 km/h
252 13-03-2020 20:55:00 6.9 C 6.39 g/m*3 6.9 C 4.8 km/h
253 13-03-2020 21:00:00 6.8 C 6.35 g/m*3 6.8 C 4.8 km/h
254 13-03-2020 21:05:00 6.8 C 6.35 g/m*3 5.22 C 8.1 km/h
255 13-03-2020 21:10:00 6.7 C 6.38 g/m*3 6.7 C 4.8 km/h
256 13-03-2020 21:15:00 6.6 C 6.34 g/m*3 5.44 C 6.4 km/h
257 13-03-2020 21:20:00 6.5 C 6.3 g/m*3 4.87 C 8.1 km/h
258 13-03-2020 21:25:00 6.4 C 6.26 g/m*3 6.4 C 4.8 km/h
259 13-03-2020 21:30:00 6.4 C 6.26 g/m*3 6.4 C 4.8 km/h
260 13-03-2020 21:35:00 6.4 C 6.33 g/m*3 6.4 C 3.2 km/h
261 13-03-2020 21:40:00 6.3 C 6.29 g/m*3 5.1 C 6.4 km/h
262 13-03-2020 21:45:00 6.3 C 6.29 g/m*3 6.3 C 4.8 km/h
263 13-03-2020 21:50:00 6.3 C 6.29 g/m*3 5.1 C 6.4 km/h
264 13-03-2020 21:55:00 6.2 C 6.32 g/m*3 6.2 C 4.8 km/h
265 13-03-2020 22:00:00 6.2 C 6.25 g/m*3 6.2 C 4.8 km/h
266 13-03-2020 22:05:00 6.1 C 6.28 g/m*3 6.1 C 4.8 km/h
267 13-03-2020 22:10:00 6.1 C 6.28 g/m*3 6.1 C 3.2 km/h
268 13-03-2020 22:15:00 5.9 C 6.27 g/m*3 5.9 C 3.2 km/h
269 13-03-2020 22:20:00 5.9 C 6.27 g/m*3 5.9 C 4.8 km/h
270 13-03-2020 22:25:00 5.9 C 6.27 g/m*3 5.9 C 3.2 km/h
271 13-03-2020 22:30:00 5.9 C 6.27 g/m*3 5.9 C 1.6 km/h
272 13-03-2020 22:35:00 5.8 C 6.23 g/m*3 5.8 C 1.6 km/h
273 13-03-2020 22:40:00 5.8 C 6.23 g/m*3 5.8 C 3.2 km/h
274 13-03-2020 22:45:00 5.8 C 6.3 g/m*3 5.8 C 4.8 km/h
275 13-03-2020 22:50:00 5.8 C 6.3 g/m*3 5.8 C 1.6 km/h
Sensor: Nr:Datum:Temp:Abs-Feuchte:Windchill:Wind:
Aussen-T/F 276 13-03-2020 22:55:00 5.9 C 6.35 g/m*3 5.9 C 3.2 km/h
277 13-03-2020 23:00:00 5.9 C 6.35 g/m*3 5.9 C 1.6 km/h
278 13-03-2020 23:05:00 6 C 6.39 g/m*3 6 C 4.8 km/h
279 13-03-2020 23:10:00 6.1 C 6.36 g/m*3 6.1 C 3.2 km/h
280 13-03-2020 23:15:00 6.1 C 6.36 g/m*3 6.1 C 3.2 km/h
281 13-03-2020 23:20:00 6.2 C 6.4 g/m*3 6.2 C 0 km/h
282 13-03-2020 23:25:00 6.1 C 6.36 g/m*3 6.1 C 0 km/h
283 13-03-2020 23:30:00 6.1 C 6.36 g/m*3 6.1 C 1.6 km/h
284 13-03-2020 23:35:00 6.1 C 6.36 g/m*3 6.1 C 0 km/h
285 13-03-2020 23:40:00 6 C 6.31 g/m*3 6 C 1.6 km/h
286 13-03-2020 23:45:00 6 C 6.39 g/m*3 6 C 0 km/h
287 13-03-2020 23:50:00 5.9 C 6.35 g/m*3 5.9 C 0 km/h
288 13-03-2020 23:55:00 5.9 C 6.35 g/m*3 5.9 C 0 km/h
289 14-03-2020 00:00:00 5.8 C 6.3 g/m*3 5.8 C 0 km/h
290 14-03-2020 00:05:00 5.8 C 6.3 g/m*3 5.8 C 1.6 km/h
291 14-03-2020 00:10:00 5.7 C 6.26 g/m*3 5.7 C 1.6 km/h
292 14-03-2020 00:15:00 5.6 C 6.22 g/m*3 5.6 C 1.6 km/h
293 14-03-2020 00:20:00 5.4 C 6.14 g/m*3 5.4 C 4.8 km/h
294 14-03-2020 00:25:00 5.3 C 6.1 g/m*3 5.3 C 1.6 km/h
295 14-03-2020 00:30:00 5.3 C 6.1 g/m*3 5.3 C 1.6 km/h
296 14-03-2020 00:35:00 5.2 C 6.13 g/m*3 5.2 C 3.2 km/h
297 14-03-2020 00:40:00 5.1 C 6.02 g/m*3 5.1 C 3.2 km/h
298 14-03-2020 00:45:00 4.9 C 6.01 g/m*3 4.9 C 3.2 km/h
299 14-03-2020 00:50:00 4.7 C 5.93 g/m*3 4.7 C 3.2 km/h
300 14-03-2020 00:55:00 4.6 C 5.89 g/m*3 4.6 C 3.2 km/h
Sensor: Nr:Datum:Temp:Abs-Feuchte:Windchill:Wind:
Aussen-T/F 301 14-03-2020 01:00:00 4.4 C 5.81 g/m*3 4.4 C 0 km/h
302 14-03-2020 01:05:00 4.3 C 5.77 g/m*3 4.3 C 0 km/h
303 14-03-2020 01:10:00 4.1 C 5.7 g/m*3 4.1 C 0 km/h
304 14-03-2020 01:15:00 3.9 C 5.68 g/m*3 3.9 C 0 km/h
305 14-03-2020 01:20:00 3.8 C 5.65 g/m*3 3.8 C 0 km/h
306 14-03-2020 01:25:00 3.7 C 5.61 g/m*3 3.7 C 0 km/h
307 14-03-2020 01:30:00 3.6 C 5.63 g/m*3 3.6 C 0 km/h
308 14-03-2020 01:35:00 3.5 C 5.6 g/m*3 3.5 C 0 km/h
309 14-03-2020 01:40:00 3.4 C 5.56 g/m*3 3.4 C 0 km/h
310 14-03-2020 01:45:00 3.4 C 5.62 g/m*3 3.4 C 0 km/h
311 14-03-2020 01:50:00 3.3 C 5.58 g/m*3 3.3 C 0 km/h
312 14-03-2020 01:55:00 3.3 C 5.58 g/m*3 3.3 C 0 km/h
313 14-03-2020 02:00:00 3.4 C 5.68 g/m*3 3.4 C 0 km/h
314 14-03-2020 02:05:00 3.6 C 5.76 g/m*3 3.6 C 0 km/h
315 14-03-2020 02:10:00 3.7 C 5.8 g/m*3 3.7 C 0 km/h
316 14-03-2020 02:15:00 3.8 C 5.83 g/m*3 3.8 C 0 km/h
317 14-03-2020 02:20:00 3.8 C 5.83 g/m*3 3.8 C 3.2 km/h
318 14-03-2020 02:25:00 3.9 C 5.94 g/m*3 3.9 C 0 km/h
319 14-03-2020 02:30:00 3.9 C 5.94 g/m*3 3.9 C 0 km/h
320 14-03-2020 02:35:00 3.9 C 5.87 g/m*3 3.9 C 0 km/h
321 14-03-2020 02:40:00 3.9 C 5.87 g/m*3 3.9 C 4.8 km/h
322 14-03-2020 02:45:00 3.9 C 5.87 g/m*3 3.9 C 1.6 km/h
323 14-03-2020 02:50:00 3.8 C 5.83 g/m*3 3.8 C 0 km/h
324 14-03-2020 02:55:00 3.6 C 5.69 g/m*3 3.6 C 0 km/h
325 14-03-2020 03:00:00 3.5 C 5.72 g/m*3 3.5 C 1.6 km/h
Sensor: Nr:Datum:Temp:Abs-Feuchte:Windchill:Wind:
Aussen-T/F 326 14-03-2020 03:05:00 3.4 C 5.68 g/m*3 3.4 C 0 km/h
327 14-03-2020 03:10:00 3.4 C 5.68 g/m*3 3.4 C 0 km/h
328 14-03-2020 03:15:00 3.2 C 5.54 g/m*3 3.2 C 0 km/h
329 14-03-2020 03:20:00 3 C 5.47 g/m*3 3 C 0 km/h
330 14-03-2020 03:25:00 2.8 C 5.4 g/m*3 2.8 C 0 km/h
331 14-03-2020 03:30:00 2.7 C 5.36 g/m*3 2.7 C 0 km/h
332 14-03-2020 03:35:00 2.5 C 5.29 g/m*3 2.5 C 0 km/h
333 14-03-2020 03:40:00 2.4 C 5.31 g/m*3 2.4 C 0 km/h
334 14-03-2020 03:45:00 2.4 C 5.31 g/m*3 2.4 C 0 km/h
335 14-03-2020 03:50:00 2.4 C 5.31 g/m*3 2.4 C 0 km/h
336 14-03-2020 03:55:00 2.3 C 5.27 g/m*3 2.3 C 0 km/h
337 14-03-2020 04:00:00 2.4 C 5.31 g/m*3 2.4 C 0 km/h
338 14-03-2020 04:05:00 2.5 C 5.4 g/m*3 2.5 C 0 km/h
339 14-03-2020 04:10:00 2.6 C 5.44 g/m*3 2.6 C 0 km/h
340 14-03-2020 04:15:00 2.6 C 5.44 g/m*3 2.6 C 0 km/h
341 14-03-2020 04:20:00 2.6 C 5.44 g/m*3 2.6 C 0 km/h
342 14-03-2020 04:25:00 2.6 C 5.44 g/m*3 2.6 C 0 km/h
343 14-03-2020 04:30:00 2.5 C 5.4 g/m*3 2.5 C 0 km/h
344 14-03-2020 04:35:00 2.5 C 5.4 g/m*3 2.5 C 0 km/h
345 14-03-2020 04:40:00 2.5 C 5.4 g/m*3 2.5 C 0 km/h
346 14-03-2020 04:45:00 2.4 C 5.37 g/m*3 2.4 C 0 km/h
347 14-03-2020 04:50:00 2.3 C 5.33 g/m*3 2.3 C 0 km/h
348 14-03-2020 04:55:00 2.3 C 5.33 g/m*3 2.3 C 0 km/h
349 14-03-2020 05:00:00 2.3 C 5.33 g/m*3 2.3 C 0 km/h
350 14-03-2020 05:05:00 2.2 C 5.29 g/m*3 2.2 C 0 km/h
Sensor: Nr:Datum:Temp:Abs-Feuchte:Windchill:Wind:
Aussen-T/F 351 14-03-2020 05:10:00 2.2 C 5.29 g/m*3 2.2 C 0 km/h
352 14-03-2020 05:15:00 2.2 C 5.29 g/m*3 2.2 C 0 km/h
353 14-03-2020 05:20:00 2.1 C 5.26 g/m*3 2.1 C 0 km/h
354 14-03-2020 05:25:00 2 C 5.22 g/m*3 2 C 0 km/h
355 14-03-2020 05:30:00 1.9 C 5.19 g/m*3 1.9 C 0 km/h
356 14-03-2020 05:35:00 1.8 C 5.15 g/m*3 1.8 C 0 km/h
357 14-03-2020 05:40:00 1.8 C 5.15 g/m*3 1.8 C 0 km/h
358 14-03-2020 05:45:00 1.8 C 5.15 g/m*3 1.8 C 0 km/h
359 14-03-2020 05:50:00 1.8 C 5.21 g/m*3 1.8 C 1.6 km/h
360 14-03-2020 05:55:00 1.8 C 5.21 g/m*3 1.8 C 0 km/h
361 14-03-2020 06:00:00 1.8 C 5.15 g/m*3 1.8 C 0 km/h
362 14-03-2020 06:05:00 1.7 C 5.12 g/m*3 1.7 C 0 km/h
363 14-03-2020 06:10:00 1.6 C 5.08 g/m*3 1.6 C 0 km/h
364 14-03-2020 06:15:00 1.5 C 5.05 g/m*3 1.5 C 0 km/h
365 14-03-2020 06:20:00 1.5 C 5.05 g/m*3 1.5 C 0 km/h
366 14-03-2020 06:25:00 1.5 C 5.1 g/m*3 1.5 C 0 km/h
367 14-03-2020 06:30:00 1.5 C 5.1 g/m*3 1.5 C 0 km/h
368 14-03-2020 06:35:00 1.4 C 5.07 g/m*3 1.4 C 0 km/h
369 14-03-2020 06:40:00 1.5 C 5.1 g/m*3 1.5 C 0 km/h
370 14-03-2020 06:45:00 1.6 C 5.14 g/m*3 1.6 C 0 km/h
371 14-03-2020 06:50:00 1.7 C 5.17 g/m*3 1.7 C 1.6 km/h
372 14-03-2020 06:55:00 1.8 C 5.21 g/m*3 1.8 C 0 km/h
373 14-03-2020 07:00:00 1.8 C 5.21 g/m*3 1.8 C 0 km/h
374 14-03-2020 07:05:00 1.7 C 5.17 g/m*3 1.7 C 0 km/h
375 14-03-2020 07:10:00 1.6 C 5.14 g/m*3 1.6 C 0 km/h
Sensor: Nr:Datum:Temp:Abs-Feuchte:Windchill:Wind:
Aussen-T/F 376 14-03-2020 07:15:00 1.6 C 5.14 g/m*3 1.6 C 0 km/h
377 14-03-2020 07:20:00 1.5 C 5.1 g/m*3 1.5 C 0 km/h
378 14-03-2020 07:25:00 1.5 C 5.1 g/m*3 1.5 C 0 km/h
379 14-03-2020 07:30:00 1.5 C 5.1 g/m*3 1.5 C 0 km/h
380 14-03-2020 07:35:00 1.5 C 5.1 g/m*3 1.5 C 0 km/h
381 14-03-2020 07:40:00 1.5 C 5.1 g/m*3 1.5 C 0 km/h
382 14-03-2020 07:45:00 1.6 C 5.14 g/m*3 1.6 C 0 km/h
383 14-03-2020 07:50:00 1.6 C 5.14 g/m*3 1.6 C 0 km/h
384 14-03-2020 07:55:00 1.6 C 5.14 g/m*3 1.6 C 0 km/h
385 14-03-2020 08:00:00 1.6 C 5.19 g/m*3 1.6 C 0 km/h
386 14-03-2020 08:05:00 1.7 C 5.17 g/m*3 1.7 C 0 km/h
387 14-03-2020 08:10:00 1.7 C 5.17 g/m*3 1.7 C 0 km/h
388 14-03-2020 08:15:00 1.8 C 5.26 g/m*3 1.8 C 0 km/h
389 14-03-2020 08:20:00 1.9 C 5.3 g/m*3 1.9 C 0 km/h
390 14-03-2020 08:25:00 2 C 5.33 g/m*3 2 C 0 km/h
391 14-03-2020 08:30:00 2.1 C 5.37 g/m*3 2.1 C 0 km/h
392 14-03-2020 08:35:00 2.2 C 5.41 g/m*3 2.2 C 0 km/h
393 14-03-2020 08:40:00 2.3 C 5.44 g/m*3 2.3 C 0 km/h
394 14-03-2020 08:45:00 2.4 C 5.48 g/m*3 2.4 C 0 km/h
395 14-03-2020 08:50:00 2.5 C 5.52 g/m*3 2.5 C 0 km/h
396 14-03-2020 08:55:00 2.6 C 5.56 g/m*3 2.6 C 0 km/h
397 14-03-2020 09:00:00 2.7 C 5.59 g/m*3 2.7 C 0 km/h
398 14-03-2020 09:05:00 2.8 C 5.63 g/m*3 2.8 C 0 km/h
399 14-03-2020 09:10:00 3 C 5.71 g/m*3 3 C 0 km/h
400 14-03-2020 09:15:00 3.2 C 5.79 g/m*3 3.2 C 0 km/h
Sensor: Nr:Datum:Temp:Abs-Feuchte:Windchill:Wind:
Aussen-T/F 401 14-03-2020 09:20:00 3.3 C 5.82 g/m*3 3.3 C 0 km/h
402 14-03-2020 09:25:00 3.4 C 5.86 g/m*3 3.4 C 0 km/h
403 14-03-2020 09:30:00 3.7 C 5.98 g/m*3 3.7 C 0 km/h
404 14-03-2020 09:35:00 3.8 C 6.02 g/m*3 3.8 C 0 km/h
405 14-03-2020 09:40:00 3.9 C 6.06 g/m*3 3.9 C 1.6 km/h
406 14-03-2020 09:45:00 4.2 C 6.19 g/m*3 4.2 C 4.8 km/h
407 14-03-2020 09:50:00 4.3 C 6.23 g/m*3 4.3 C 1.6 km/h
408 14-03-2020 09:55:00 4.4 C 6.27 g/m*3 4.4 C 0 km/h
409 14-03-2020 10:00:00 4.6 C 6.35 g/m*3 4.6 C 0 km/h
410 14-03-2020 10:05:00 4.8 C 6.44 g/m*3 4.8 C 0 km/h
411 14-03-2020 10:10:00 4.9 C 6.41 g/m*3 4.9 C 0 km/h
412 14-03-2020 10:15:00 5.1 C 6.43 g/m*3 5.1 C 0 km/h
413 14-03-2020 10:20:00 5.2 C 6.4 g/m*3 5.2 C 0 km/h
414 14-03-2020 10:25:00 5.4 C 6.49 g/m*3 5.4 C 0 km/h
415 14-03-2020 10:30:00 5.6 C 6.57 g/m*3 5.6 C 0 km/h
416 14-03-2020 10:35:00 5.8 C 6.59 g/m*3 5.8 C 0 km/h
417 14-03-2020 10:40:00 6.2 C 6.77 g/m*3 6.2 C 0 km/h
418 14-03-2020 10:45:00 6.6 C 6.87 g/m*3 6.6 C 3.2 km/h
419 14-03-2020 10:50:00 6.9 C 6.93 g/m*3 6.9 C 0 km/h
420 14-03-2020 10:55:00 7.1 C 6.86 g/m*3 7.1 C 3.2 km/h
421 14-03-2020 11:00:00 7.3 C 6.87 g/m*3 7.3 C 3.2 km/h
422 14-03-2020 11:05:00 7.5 C 6.96 g/m*3 7.5 C 1.6 km/h
423 14-03-2020 11:10:00 7.8 C 6.94 g/m*3 7.8 C 1.6 km/h
424 14-03-2020 11:15:00 8.1 C 6.99 g/m*3 8.1 C 0 km/h
425 14-03-2020 11:20:00 8.3 C 7 g/m*3 8.3 C 1.6 km/h
Sensor: Nr:Datum:Temp:Abs-Feuchte:Windchill:Wind:
Aussen-T/F 426 14-03-2020 11:25:00 8.5 C 7 g/m*3 8.5 C 1.6 km/h
427 14-03-2020 11:30:00 8.7 C 7.09 g/m*3 8.7 C 0 km/h
428 14-03-2020 11:35:00 8.8 C 6.96 g/m*3 8.8 C 3.2 km/h
429 14-03-2020 11:40:00 8.9 C 6.83 g/m*3 8.9 C 0 km/h
430 14-03-2020 11:45:00 8.9 C 6.92 g/m*3 8.9 C 3.2 km/h
431 14-03-2020 11:50:00 8.9 C 6.92 g/m*3 8.9 C 3.2 km/h
432 14-03-2020 11:55:00 8.9 C 6.83 g/m*3 8.9 C 3.2 km/h
433 14-03-2020 12:00:00 9.1 C 6.92 g/m*3 9.1 C 1.6 km/h
434 14-03-2020 12:05:00 9.2 C 6.97 g/m*3 9.2 C 0 km/h
435 14-03-2020 12:10:00 9.6 C 7.05 g/m*3 9.6 C 0 km/h
436 14-03-2020 12:15:00 9.8 C 7.05 g/m*3 9.8 C 1.6 km/h
437 14-03-2020 12:20:00 10.1 C 7 g/m*3 9.48 C 6.4 km/h
438 14-03-2020 12:25:00 10.3 C 6.9 g/m*3 10.3 C 4.8 km/h
439 14-03-2020 12:30:00 10.5 C 6.89 g/m*3 9.95 C 6.4 km/h
440 14-03-2020 12:35:00 10.7 C 6.88 g/m*3 10.7 C 4.8 km/h
441 14-03-2020 12:40:00 10.8 C 6.72 g/m*3 10.29 C 6.4 km/h
442 14-03-2020 12:45:00 10.7 C 6.68 g/m*3 9.81 C 8.1 km/h
443 14-03-2020 12:50:00 10.6 C 6.73 g/m*3 10.6 C 4.8 km/h
444 14-03-2020 12:55:00 10.5 C 6.79 g/m*3 10.5 C 0 km/h
445 14-03-2020 13:00:00 10.6 C 6.73 g/m*3 9.69 C 8.1 km/h
446 14-03-2020 13:05:00 10.7 C 6.68 g/m*3 10.18 C 6.4 km/h
447 14-03-2020 13:10:00 10.9 C 6.66 g/m*3 10.9 C 4.8 km/h
448 14-03-2020 13:15:00 11 C 6.51 g/m*3 11 C 4.8 km/h
449 14-03-2020 13:20:00 10.9 C 6.37 g/m*3 10.9 C 3.2 km/h
450 14-03-2020 13:25:00 10.8 C 6.42 g/m*3 10.8 C 4.8 km/h
Sensor: Nr:Datum:Temp:Abs-Feuchte:Windchill:Wind:
Aussen-T/F 451 14-03-2020 13:30:00 10.8 C 6.52 g/m*3 10.8 C 3.2 km/h
452 14-03-2020 13:35:00 11 C 6.61 g/m*3 11 C 4.8 km/h
453 14-03-2020 13:40:00 11.2 C 6.59 g/m*3 11.2 C 9.7 km/h
454 14-03-2020 13:45:00 11.1 C 6.45 g/m*3 11.1 C 6.4 km/h
455 14-03-2020 13:50:00 11 C 6.41 g/m*3 11 C 4.8 km/h
456 14-03-2020 13:55:00 11.2 C 6.49 g/m*3 11.2 C 4.8 km/h
457 14-03-2020 14:00:00 11.4 C 6.26 g/m*3 11.4 C 8.1 km/h
458 14-03-2020 14:05:00 11.4 C 6.26 g/m*3 11.4 C 4.8 km/h
459 14-03-2020 14:10:00 11.3 C 6.32 g/m*3 11.3 C 9.7 km/h
460 14-03-2020 14:15:00 11.3 C 6.53 g/m*3 11.3 C 8.1 km/h
461 14-03-2020 14:20:00 11.4 C 6.36 g/m*3 11.4 C 4.8 km/h
462 14-03-2020 14:25:00 11.7 C 6.48 g/m*3 11.7 C 8.1 km/h
463 14-03-2020 14:30:00 12 C 6.61 g/m*3 12 C 8.1 km/h
464 14-03-2020 14:35:00 12.2 C 6.58 g/m*3 12.2 C 14.5 km/h
465 14-03-2020 14:40:00 12.3 C 6.41 g/m*3 12.3 C 12.9 km/h
466 14-03-2020 14:45:00 12.1 C 6.33 g/m*3 12.1 C 12.9 km/h
467 14-03-2020 14:50:00 11.8 C 6.1 g/m*3 11.8 C 8.1 km/h
468 14-03-2020 14:55:00 11.6 C 6.03 g/m*3 11.6 C 8.1 km/h
469 14-03-2020 15:00:00 11.4 C 6.16 g/m*3 11.4 C 8.1 km/h
470 14-03-2020 15:05:00 11.3 C 6.12 g/m*3 11.3 C 9.7 km/h
471 14-03-2020 15:10:00 11.2 C 6.08 g/m*3 11.2 C 4.8 km/h
472 14-03-2020 15:15:00 11.1 C 6.04 g/m*3 11.1 C 3.2 km/h
473 14-03-2020 15:20:00 11.1 C 6.25 g/m*3 11.1 C 3.2 km/h
474 14-03-2020 15:25:00 11.2 C 6.08 g/m*3 11.2 C 8.1 km/h
475 14-03-2020 15:30:00 11.2 C 5.98 g/m*3 11.2 C 1.6 km/h
Sensor: Nr:Datum:Temp:Abs-Feuchte:Windchill:Wind:
Aussen-T/F 476 14-03-2020 15:35:00 11.2 C 5.98 g/m*3 11.2 C 8.1 km/h
477 14-03-2020 15:40:00 11.1 C 5.94 g/m*3 11.1 C 6.4 km/h
478 14-03-2020 15:45:00 11.1 C 5.94 g/m*3 11.1 C 6.4 km/h
479 14-03-2020 15:50:00 11.2 C 6.08 g/m*3 11.2 C 6.4 km/h
480 14-03-2020 15:55:00 11.2 C 5.88 g/m*3 11.2 C 6.4 km/h
481 14-03-2020 16:00:00 11.2 C 5.98 g/m*3 11.2 C 3.2 km/h
482 14-03-2020 16:05:00 11.2 C 6.08 g/m*3 11.2 C 0 km/h
483 14-03-2020 16:10:00 11.1 C 5.94 g/m*3 11.1 C 4.8 km/h
484 14-03-2020 16:15:00 11 C 6.11 g/m*3 11 C 1.6 km/h
485 14-03-2020 16:20:00 10.9 C 6.27 g/m*3 10.41 C 6.4 km/h
486 14-03-2020 16:25:00 10.8 C 6.33 g/m*3 10.29 C 6.4 km/h
487 14-03-2020 16:30:00 10.7 C 6.38 g/m*3 9.26 C 11.3 km/h
488 14-03-2020 16:35:00 10.6 C 6.25 g/m*3 9.4 C 9.7 km/h
489 14-03-2020 16:40:00 10.5 C 6.11 g/m*3 9.95 C 6.4 km/h
490 14-03-2020 16:45:00 10.4 C 6.17 g/m*3 9.46 C 8.1 km/h
491 14-03-2020 16:50:00 10.3 C 6.13 g/m*3 10.3 C 4.8 km/h
492 14-03-2020 16:55:00 10.3 C 6.13 g/m*3 10.3 C 1.6 km/h
493 14-03-2020 17:00:00 10.3 C 6.22 g/m*3 10.3 C 1.6 km/h
494 14-03-2020 17:05:00 10.3 C 6.22 g/m*3 10.3 C 4.8 km/h
495 14-03-2020 17:10:00 10.3 C 6.32 g/m*3 10.3 C 4.8 km/h
496 14-03-2020 17:15:00 10.3 C 6.42 g/m*3 9.72 C 6.4 km/h
497 14-03-2020 17:20:00 10.3 C 6.32 g/m*3 10.3 C 1.6 km/h
498 14-03-2020 17:25:00 10.3 C 6.42 g/m*3 10.3 C 0 km/h
499 14-03-2020 17:30:00 10.6 C 6.44 g/m*3 10.6 C 0 km/h
500 14-03-2020 17:35:00 10.7 C 6.29 g/m*3 10.7 C 0 km/h
Sensor: Nr:Datum:Temp:Abs-Feuchte:Windchill:Wind:
Aussen-T/F 501 14-03-2020 17:40:00 10.6 C 6.25 g/m*3 10.6 C 0 km/h
502 14-03-2020 17:45:00 10.4 C 6.26 g/m*3 10.4 C 3.2 km/h
503 14-03-2020 17:50:00 10.3 C 6.32 g/m*3 10.3 C 3.2 km/h
504 14-03-2020 17:55:00 10.2 C 6.19 g/m*3 10.2 C 4.8 km/h
505 14-03-2020 18:00:00 10 C 6.2 g/m*3 10 C 0 km/h
506 14-03-2020 18:05:00 9.8 C 6.22 g/m*3 9.8 C 0 km/h
507 14-03-2020 18:10:00 9.5 C 6.28 g/m*3 9.5 C 3.2 km/h
508 14-03-2020 18:15:00 9.2 C 6.25 g/m*3 9.2 C 3.2 km/h
509 14-03-2020 18:20:00 8.8 C 6.18 g/m*3 8.8 C 0 km/h
510 14-03-2020 18:25:00 8.5 C 6.15 g/m*3 8.5 C 4.8 km/h
511 14-03-2020 18:30:00 8.4 C 6.19 g/m*3 8.4 C 4.8 km/h
512 14-03-2020 18:35:00 8.3 C 6.32 g/m*3 8.3 C 0 km/h
513 14-03-2020 18:40:00 7.9 C 6.16 g/m*3 7.9 C 0 km/h
514 14-03-2020 18:45:00 7.7 C 6.24 g/m*3 7.7 C 0 km/h
515 14-03-2020 18:50:00 7.3 C 6.16 g/m*3 7.3 C 0 km/h
516 14-03-2020 18:55:00 7 C 6.12 g/m*3 7 C 0 km/h
517 14-03-2020 19:00:00 6.7 C 6.08 g/m*3 6.7 C 4.8 km/h
518 14-03-2020 19:05:00 6.5 C 6.07 g/m*3 6.5 C 4.8 km/h
519 14-03-2020 19:10:00 6.3 C 6.07 g/m*3 6.3 C 4.8 km/h
520 14-03-2020 19:15:00 6.2 C 6.1 g/m*3 6.2 C 1.6 km/h
521 14-03-2020 19:20:00 6 C 6.02 g/m*3 6 C 4.8 km/h
522 14-03-2020 19:25:00 5.8 C 6.02 g/m*3 5.8 C 4.8 km/h
523 14-03-2020 19:30:00 5.8 C 6.02 g/m*3 5.8 C 0 km/h
524 14-03-2020 19:35:00 5.7 C 6.05 g/m*3 5.7 C 4.8 km/h
525 14-03-2020 19:40:00 5.7 C 6.05 g/m*3 5.7 C 4.8 km/h
Sensor: Nr:Datum:Temp:Abs-Feuchte:Windchill:Wind:
Aussen-T/F 526 14-03-2020 19:45:00 5.6 C 6.08 g/m*3 5.6 C 4.8 km/h
527 14-03-2020 19:50:00 5.6 C 6.08 g/m*3 4.29 C 6.4 km/h
528 14-03-2020 19:55:00 5.6 C 6.08 g/m*3 4.29 C 6.4 km/h
529 14-03-2020 20:00:00 5.5 C 6.04 g/m*3 5.5 C 4.8 km/h
530 14-03-2020 20:05:00 5.4 C 6 g/m*3 4.06 C 6.4 km/h
531 14-03-2020 20:10:00 5.4 C 6 g/m*3 5.4 C 4.8 km/h
532 14-03-2020 20:15:00 5.4 C 6.07 g/m*3 5.4 C 3.2 km/h
533 14-03-2020 20:20:00 5.3 C 6.03 g/m*3 5.3 C 4.8 km/h
534 14-03-2020 20:25:00 5.3 C 6.03 g/m*3 5.3 C 4.8 km/h
535 14-03-2020 20:30:00 5.3 C 6.03 g/m*3 5.3 C 4.8 km/h
536 14-03-2020 20:35:00 5.3 C 6.03 g/m*3 5.3 C 4.8 km/h
537 14-03-2020 20:40:00 5.4 C 6.07 g/m*3 5.4 C 4.8 km/h
538 14-03-2020 20:45:00 5.6 C 6.15 g/m*3 5.6 C 1.6 km/h
539 14-03-2020 20:50:00 5.6 C 6.15 g/m*3 5.6 C 1.6 km/h
540 14-03-2020 20:55:00 5.7 C 6.19 g/m*3 5.7 C 0 km/h
541 14-03-2020 21:00:00 5.8 C 6.23 g/m*3 5.8 C 0 km/h
542 14-03-2020 21:05:00 5.9 C 6.27 g/m*3 5.9 C 0 km/h
543 14-03-2020 21:10:00 5.9 C 6.27 g/m*3 5.9 C 0 km/h
544 14-03-2020 21:15:00 6 C 6.24 g/m*3 6 C 0 km/h
545 14-03-2020 21:20:00 6 C 6.24 g/m*3 6 C 0 km/h
546 14-03-2020 21:25:00 6.1 C 6.28 g/m*3 6.1 C 0 km/h
547 14-03-2020 21:30:00 6.1 C 6.28 g/m*3 6.1 C 3.2 km/h
548 14-03-2020 21:35:00 6 C 6.17 g/m*3 6 C 3.2 km/h
549 14-03-2020 21:40:00 5.9 C 6.13 g/m*3 5.9 C 3.2 km/h
550 14-03-2020 21:45:00 5.8 C 6.09 g/m*3 5.8 C 3.2 km/h
Sensor: Nr:Datum:Temp:Abs-Feuchte:Windchill:Wind:
Aussen-T/F 551 14-03-2020 21:50:00 5.8 C 6.09 g/m*3 5.8 C 4.8 km/h
552 14-03-2020 21:55:00 5.7 C 6.12 g/m*3 5.7 C 1.6 km/h
553 14-03-2020 22:00:00 5.6 C 6.08 g/m*3 5.6 C 4.8 km/h
554 14-03-2020 22:05:00 5.6 C 6.15 g/m*3 5.6 C 4.8 km/h
555 14-03-2020 22:10:00 5.6 C 6.08 g/m*3 5.6 C 4.8 km/h
556 14-03-2020 22:15:00 5.6 C 6.15 g/m*3 5.6 C 4.8 km/h
557 14-03-2020 22:20:00 5.5 C 6.11 g/m*3 5.5 C 3.2 km/h
558 14-03-2020 22:25:00 5.5 C 6.11 g/m*3 5.5 C 1.6 km/h
559 14-03-2020 22:30:00 5.5 C 6.11 g/m*3 5.5 C 1.6 km/h
560 14-03-2020 22:35:00 5.5 C 6.11 g/m*3 5.5 C 0 km/h
561 14-03-2020 22:40:00 5.5 C 6.11 g/m*3 5.5 C 3.2 km/h
562 14-03-2020 22:45:00 5.6 C 6.15 g/m*3 5.6 C 4.8 km/h
563 14-03-2020 22:50:00 5.6 C 6.15 g/m*3 5.6 C 1.6 km/h
564 14-03-2020 22:55:00 5.5 C 6.11 g/m*3 5.5 C 4.8 km/h
565 14-03-2020 23:00:00 5.6 C 6.15 g/m*3 5.6 C 3.2 km/h
566 14-03-2020 23:05:00 5.6 C 6.15 g/m*3 5.6 C 0 km/h
567 14-03-2020 23:10:00 5.7 C 6.19 g/m*3 5.7 C 0 km/h
568 14-03-2020 23:15:00 5.8 C 6.23 g/m*3 5.8 C 0 km/h
569 14-03-2020 23:20:00 5.8 C 6.23 g/m*3 5.8 C 0 km/h
570 14-03-2020 23:25:00 5.9 C 6.27 g/m*3 5.9 C 1.6 km/h
571 14-03-2020 23:30:00 6 C 6.31 g/m*3 6 C 0 km/h
572 14-03-2020 23:35:00 6.1 C 6.36 g/m*3 6.1 C 0 km/h
573 14-03-2020 23:40:00 6.1 C 6.36 g/m*3 6.1 C 0 km/h
574 14-03-2020 23:45:00 6.1 C 6.36 g/m*3 6.1 C 0 km/h
575 14-03-2020 23:50:00 6.2 C 6.4 g/m*3 6.2 C 0 km/h
Sensor: Nr:Datum:Temp:Abs-Feuchte:Windchill:Wind:
Aussen-T/F 576 14-03-2020 23:55:00 6.2 C 6.4 g/m*3 6.2 C 0 km/h
577 15-03-2020 00:00:00 6.2 C 6.4 g/m*3 6.2 C 0 km/h
578 15-03-2020 00:05:00 6.2 C 6.4 g/m*3 6.2 C 1.6 km/h
579 15-03-2020 00:10:00 6.3 C 6.37 g/m*3 6.3 C 1.6 km/h
580 15-03-2020 00:15:00 6.3 C 6.37 g/m*3 6.3 C 1.6 km/h
581 15-03-2020 00:20:00 6.3 C 6.37 g/m*3 6.3 C 0 km/h
582 15-03-2020 00:25:00 6.3 C 6.29 g/m*3 6.3 C 1.6 km/h
583 15-03-2020 00:30:00 6.3 C 6.22 g/m*3 6.3 C 0 km/h
584 15-03-2020 00:35:00 6.4 C 6.26 g/m*3 6.4 C 0 km/h
585 15-03-2020 00:40:00 6.4 C 6.33 g/m*3 6.4 C 0 km/h
586 15-03-2020 00:45:00 6.4 C 6.26 g/m*3 6.4 C 0 km/h
587 15-03-2020 00:50:00 6.4 C 6.26 g/m*3 6.4 C 0 km/h
588 15-03-2020 00:55:00 6.3 C 6.29 g/m*3 6.3 C 0 km/h
589 15-03-2020 01:00:00 6.2 C 6.18 g/m*3 6.2 C 0 km/h
590 15-03-2020 01:05:00 6.2 C 6.25 g/m*3 6.2 C 0 km/h
591 15-03-2020 01:10:00 6.1 C 6.21 g/m*3 6.1 C 0 km/h
592 15-03-2020 01:15:00 6.1 C 6.28 g/m*3 6.1 C 0 km/h
593 15-03-2020 01:20:00 6 C 6.24 g/m*3 6 C 0 km/h
594 15-03-2020 01:25:00 5.9 C 6.2 g/m*3 5.9 C 0 km/h
595 15-03-2020 01:30:00 5.8 C 6.16 g/m*3 5.8 C 0 km/h
596 15-03-2020 01:35:00 5.8 C 6.23 g/m*3 5.8 C 0 km/h
597 15-03-2020 01:40:00 5.8 C 6.23 g/m*3 5.8 C 0 km/h
598 15-03-2020 01:45:00 5.7 C 6.19 g/m*3 5.7 C 0 km/h
599 15-03-2020 01:50:00 5.7 C 6.19 g/m*3 5.7 C 0 km/h
600 15-03-2020 01:55:00 5.7 C 6.19 g/m*3 5.7 C 0 km/h
Sensor: Nr:Datum:Temp:Abs-Feuchte:Windchill:Wind:
Aussen-T/F 601 15-03-2020 02:00:00 5.6 C 6.15 g/m*3 5.6 C 0 km/h
602 15-03-2020 02:05:00 5.6 C 6.22 g/m*3 5.6 C 0 km/h
603 15-03-2020 02:10:00 5.6 C 6.22 g/m*3 5.6 C 0 km/h
604 15-03-2020 02:15:00 5.6 C 6.22 g/m*3 5.6 C 0 km/h
605 15-03-2020 02:20:00 5.6 C 6.22 g/m*3 5.6 C 1.6 km/h
606 15-03-2020 02:25:00 5.6 C 6.22 g/m*3 5.6 C 0 km/h
607 15-03-2020 02:30:00 5.6 C 6.22 g/m*3 5.6 C 1.6 km/h
608 15-03-2020 02:35:00 5.5 C 6.18 g/m*3 5.5 C 3.2 km/h
609 15-03-2020 02:40:00 5.4 C 6.14 g/m*3 5.4 C 0 km/h
610 15-03-2020 02:45:00 5.4 C 6.07 g/m*3 5.4 C 3.2 km/h
611 15-03-2020 02:50:00 5.3 C 6.1 g/m*3 5.3 C 3.2 km/h
612 15-03-2020 02:55:00 5.3 C 6.1 g/m*3 5.3 C 3.2 km/h
613 15-03-2020 03:00:00 5.3 C 6.1 g/m*3 5.3 C 3.2 km/h
614 15-03-2020 03:05:00 5.4 C 6.14 g/m*3 5.4 C 3.2 km/h
615 15-03-2020 03:10:00 5.3 C 6.1 g/m*3 5.3 C 3.2 km/h
616 15-03-2020 03:15:00 5.3 C 6.1 g/m*3 5.3 C 3.2 km/h
617 15-03-2020 03:20:00 5.2 C 5.99 g/m*3 5.2 C 4.8 km/h
618 15-03-2020 03:25:00 5.1 C 5.95 g/m*3 5.1 C 4.8 km/h
619 15-03-2020 03:30:00 4.9 C 5.87 g/m*3 4.9 C 3.2 km/h
620 15-03-2020 03:35:00 4.8 C 5.83 g/m*3 4.8 C 4.8 km/h
621 15-03-2020 03:40:00 4.7 C 5.8 g/m*3 4.7 C 4.8 km/h
622 15-03-2020 03:45:00 4.6 C 5.82 g/m*3 3.13 C 6.4 km/h
623 15-03-2020 03:50:00 4.5 C 5.78 g/m*3 4.5 C 4.8 km/h
624 15-03-2020 03:55:00 4.4 C 5.75 g/m*3 4.4 C 4.8 km/h
625 15-03-2020 04:00:00 4.4 C 5.81 g/m*3 4.4 C 4.8 km/h
Sensor: Nr:Datum:Temp:Abs-Feuchte:Windchill:Wind:
Aussen-T/F 626 15-03-2020 04:05:00 4.3 C 5.77 g/m*3 4.3 C 4.8 km/h
627 15-03-2020 04:10:00 4.3 C 5.77 g/m*3 4.3 C 4.8 km/h
628 15-03-2020 04:15:00 4.3 C 5.77 g/m*3 4.3 C 3.2 km/h
629 15-03-2020 04:20:00 4.3 C 5.77 g/m*3 4.3 C 4.8 km/h
630 15-03-2020 04:25:00 4.3 C 5.77 g/m*3 4.3 C 4.8 km/h
631 15-03-2020 04:30:00 4.3 C 5.77 g/m*3 4.3 C 3.2 km/h
632 15-03-2020 04:35:00 4.2 C 5.73 g/m*3 4.2 C 4.8 km/h
633 15-03-2020 04:40:00 4.2 C 5.73 g/m*3 2.67 C 6.4 km/h
634 15-03-2020 04:45:00 4.2 C 5.73 g/m*3 4.2 C 4.8 km/h
635 15-03-2020 04:50:00 4.2 C 5.73 g/m*3 2.67 C 6.4 km/h
636 15-03-2020 04:55:00 4.2 C 5.73 g/m*3 4.2 C 3.2 km/h
637 15-03-2020 05:00:00 4.2 C 5.73 g/m*3 4.2 C 3.2 km/h
638 15-03-2020 05:05:00 4.2 C 5.73 g/m*3 4.2 C 4.8 km/h
639 15-03-2020 05:10:00 4.1 C 5.7 g/m*3 4.1 C 3.2 km/h
640 15-03-2020 05:15:00 4.1 C 5.7 g/m*3 4.1 C 4.8 km/h
641 15-03-2020 05:20:00 4.1 C 5.7 g/m*3 4.1 C 4.8 km/h
642 15-03-2020 05:25:00 4.1 C 5.7 g/m*3 4.1 C 1.6 km/h
643 15-03-2020 05:30:00 4.1 C 5.7 g/m*3 4.1 C 4.8 km/h
644 15-03-2020 05:35:00 4 C 5.66 g/m*3 4 C 4.8 km/h
645 15-03-2020 05:40:00 4 C 5.66 g/m*3 4 C 1.6 km/h
646 15-03-2020 05:45:00 3.9 C 5.62 g/m*3 3.9 C 0 km/h
647 15-03-2020 05:50:00 3.9 C 5.62 g/m*3 3.9 C 0 km/h
648 15-03-2020 05:55:00 3.9 C 5.62 g/m*3 3.9 C 0 km/h
649 15-03-2020 06:00:00 3.9 C 5.62 g/m*3 3.9 C 0 km/h
650 15-03-2020 06:05:00 3.8 C 5.58 g/m*3 3.8 C 4.8 km/h
Sensor: Nr:Datum:Temp:Abs-Feuchte:Windchill:Wind:
Aussen-T/F 651 15-03-2020 06:10:00 3.8 C 5.58 g/m*3 3.8 C 3.2 km/h
652 15-03-2020 06:15:00 3.8 C 5.52 g/m*3 3.8 C 3.2 km/h
653 15-03-2020 06:20:00 3.7 C 5.55 g/m*3 3.7 C 1.6 km/h
654 15-03-2020 06:25:00 3.8 C 5.58 g/m*3 3.8 C 4.8 km/h
655 15-03-2020 06:30:00 3.7 C 5.55 g/m*3 3.7 C 0 km/h
656 15-03-2020 06:35:00 3.8 C 5.58 g/m*3 3.8 C 3.2 km/h
657 15-03-2020 06:40:00 4 C 5.59 g/m*3 4 C 3.2 km/h
658 15-03-2020 06:45:00 4.1 C 5.63 g/m*3 4.1 C 4.8 km/h
659 15-03-2020 06:50:00 4.1 C 5.63 g/m*3 4.1 C 4.8 km/h
660 15-03-2020 06:55:00 4.1 C 5.63 g/m*3 4.1 C 3.2 km/h
661 15-03-2020 07:00:00 4 C 5.59 g/m*3 4 C 3.2 km/h
662 15-03-2020 07:05:00 3.9 C 5.56 g/m*3 3.9 C 3.2 km/h
663 15-03-2020 07:10:00 3.8 C 5.52 g/m*3 3.8 C 1.6 km/h
664 15-03-2020 07:15:00 3.7 C 5.55 g/m*3 3.7 C 4.8 km/h
665 15-03-2020 07:20:00 3.7 C 5.55 g/m*3 3.7 C 4.8 km/h
666 15-03-2020 07:25:00 3.7 C 5.55 g/m*3 3.7 C 4.8 km/h
667 15-03-2020 07:30:00 3.6 C 5.57 g/m*3 3.6 C 4.8 km/h
668 15-03-2020 07:35:00 3.7 C 5.61 g/m*3 2.09 C 6.4 km/h
669 15-03-2020 07:40:00 3.8 C 5.65 g/m*3 3.8 C 3.2 km/h
670 15-03-2020 07:45:00 3.8 C 5.71 g/m*3 3.8 C 3.2 km/h
671 15-03-2020 07:50:00 3.9 C 5.75 g/m*3 3.9 C 3.2 km/h
672 15-03-2020 07:55:00 3.9 C 5.75 g/m*3 3.9 C 1.6 km/h
673 15-03-2020 08:00:00 4.1 C 5.82 g/m*3 4.1 C 0 km/h
674 15-03-2020 08:05:00 4.2 C 5.86 g/m*3 4.2 C 3.2 km/h
675 15-03-2020 08:10:00 4.3 C 5.9 g/m*3 4.3 C 0 km/h
Sensor: Nr:Datum:Temp:Abs-Feuchte:Windchill:Wind:
Aussen-T/F 676 15-03-2020 08:15:00 4.6 C 6.02 g/m*3 4.6 C 0 km/h
677 15-03-2020 08:20:00 4.7 C 6.06 g/m*3 4.7 C 0 km/h
678 15-03-2020 08:25:00 5 C 6.18 g/m*3 5 C 0 km/h
679 15-03-2020 08:30:00 5.2 C 6.27 g/m*3 5.2 C 0 km/h
680 15-03-2020 08:35:00 5.4 C 6.35 g/m*3 5.4 C 0 km/h
681 15-03-2020 08:40:00 5.6 C 6.29 g/m*3 5.6 C 0 km/h
682 15-03-2020 08:45:00 5.8 C 6.3 g/m*3 5.8 C 0 km/h
683 15-03-2020 08:50:00 5.9 C 6.35 g/m*3 5.9 C 0 km/h
684 15-03-2020 08:55:00 6.2 C 6.47 g/m*3 6.2 C 0 km/h
685 15-03-2020 09:00:00 6.4 C 6.56 g/m*3 6.4 C 0 km/h
686 15-03-2020 09:05:00 6.6 C 6.57 g/m*3 6.6 C 0 km/h
687 15-03-2020 09:10:00 6.7 C 6.53 g/m*3 6.7 C 0 km/h
688 15-03-2020 09:15:00 6.9 C 6.62 g/m*3 6.9 C 0 km/h
689 15-03-2020 09:20:00 7 C 6.66 g/m*3 7 C 0 km/h
690 15-03-2020 09:25:00 7.1 C 6.71 g/m*3 7.1 C 0 km/h
691 15-03-2020 09:30:00 7.2 C 6.67 g/m*3 7.2 C 0 km/h
692 15-03-2020 09:35:00 7.3 C 6.72 g/m*3 7.3 C 0 km/h
693 15-03-2020 09:40:00 7.5 C 6.72 g/m*3 7.5 C 0 km/h
694 15-03-2020 09:45:00 7.7 C 6.73 g/m*3 7.7 C 3.2 km/h
695 15-03-2020 09:50:00 8.1 C 6.66 g/m*3 8.1 C 3.2 km/h
696 15-03-2020 09:55:00 8.6 C 6.79 g/m*3 8.6 C 3.2 km/h
697 15-03-2020 10:00:00 9 C 6.7 g/m*3 9 C 1.6 km/h
698 15-03-2020 10:05:00 9.3 C 6.65 g/m*3 9.3 C 1.6 km/h
699 15-03-2020 10:10:00 9.5 C 6.64 g/m*3 9.5 C 0 km/h
700 15-03-2020 10:15:00 9.6 C 6.78 g/m*3 9.6 C 0 km/h
Sensor: Nr:Datum:Temp:Abs-Feuchte:Windchill:Wind:
Aussen-T/F 701 15-03-2020 10:20:00 9.7 C 6.82 g/m*3 9.7 C 0 km/h
702 15-03-2020 10:25:00 9.8 C 6.87 g/m*3 9.8 C 0 km/h
703 15-03-2020 10:30:00 10 C 6.95 g/m*3 10 C 0 km/h
704 15-03-2020 10:35:00 10.1 C 7 g/m*3 10.1 C 0 km/h
705 15-03-2020 10:40:00 10.3 C 6.7 g/m*3 10.3 C 4.8 km/h
706 15-03-2020 10:45:00 10.7 C 6.88 g/m*3 10.7 C 4.8 km/h
707 15-03-2020 10:50:00 11 C 6.71 g/m*3 10.52 C 6.4 km/h
708 15-03-2020 10:55:00 11.3 C 6.83 g/m*3 11.3 C 6.4 km/h
709 15-03-2020 11:00:00 11.6 C 6.86 g/m*3 11.6 C 3.2 km/h
710 15-03-2020 11:05:00 11.7 C 7.01 g/m*3 11.7 C 4.8 km/h
711 15-03-2020 11:10:00 12 C 6.71 g/m*3 12 C 4.8 km/h
712 15-03-2020 11:15:00 12.2 C 6.91 g/m*3 12.2 C 1.6 km/h
713 15-03-2020 11:20:00 12.6 C 6.75 g/m*3 12.6 C 16.1 km/h
714 15-03-2020 11:25:00 12.9 C 6.88 g/m*3 12.9 C 16.1 km/h
715 15-03-2020 11:30:00 13.1 C 6.73 g/m*3 13.1 C 11.3 km/h
716 15-03-2020 11:35:00 13.4 C 6.97 g/m*3 13.4 C 12.9 km/h
717 15-03-2020 11:40:00 13.7 C 6.99 g/m*3 13.7 C 12.9 km/h
718 15-03-2020 11:45:00 13.8 C 7.03 g/m*3 13.8 C 16.1 km/h
719 15-03-2020 11:50:00 13.9 C 6.83 g/m*3 13.9 C 9.7 km/h
720 15-03-2020 11:55:00 13.9 C 6.83 g/m*3 13.9 C 9.7 km/h
721 15-03-2020 12:00:00 13.8 C 6.79 g/m*3 13.8 C 8.1 km/h
722 15-03-2020 12:05:00 13.8 C 6.91 g/m*3 13.8 C 9.7 km/h
723 15-03-2020 12:10:00 13.8 C 6.67 g/m*3 13.8 C 8.1 km/h
724 15-03-2020 12:15:00 13.8 C 6.79 g/m*3 13.8 C 11.3 km/h
725 15-03-2020 12:20:00 13.7 C 6.63 g/m*3 13.7 C 16.1 km/h
Sensor: Nr:Datum:Temp:Abs-Feuchte:Windchill:Wind:
Aussen-T/F 726 15-03-2020 12:25:00 13.7 C 6.51 g/m*3 13.7 C 6.4 km/h
727 15-03-2020 12:30:00 13.9 C 6.83 g/m*3 13.9 C 14.5 km/h
728 15-03-2020 12:35:00 13.9 C 6.47 g/m*3 13.9 C 19.3 km/h
729 15-03-2020 12:40:00 14.1 C 6.8 g/m*3 14.1 C 14.5 km/h
730 15-03-2020 12:45:00 14.1 C 6.67 g/m*3 14.1 C 11.3 km/h
731 15-03-2020 12:50:00 14.1 C 6.8 g/m*3 14.1 C 4.8 km/h
732 15-03-2020 12:55:00 14.1 C 6.55 g/m*3 14.1 C 11.3 km/h
733 15-03-2020 13:00:00 14.1 C 6.55 g/m*3 14.1 C 6.4 km/h
734 15-03-2020 13:05:00 14.2 C 6.59 g/m*3 14.2 C 11.3 km/h
735 15-03-2020 13:10:00 14.3 C 6.76 g/m*3 14.3 C 11.3 km/h
736 15-03-2020 13:15:00 14.3 C 6.63 g/m*3 14.3 C 9.7 km/h
737 15-03-2020 13:20:00 14.6 C 6.76 g/m*3 14.6 C 14.5 km/h
738 15-03-2020 13:25:00 14.8 C 6.71 g/m*3 14.8 C 9.7 km/h
739 15-03-2020 13:30:00 15.2 C 7.01 g/m*3 15.2 C 8.1 km/h
740 15-03-2020 13:35:00 15.2 C 6.88 g/m*3 15.2 C 12.9 km/h
741 15-03-2020 13:40:00 15.1 C 6.58 g/m*3 15.1 C 12.9 km/h
742 15-03-2020 13:45:00 15.1 C 6.71 g/m*3 15.1 C 11.3 km/h
743 15-03-2020 13:50:00 15.3 C 6.66 g/m*3 15.3 C 12.9 km/h
744 15-03-2020 13:55:00 15.4 C 6.7 g/m*3 15.4 C 16.1 km/h
745 15-03-2020 14:00:00 15.4 C 6.7 g/m*3 15.4 C 4.8 km/h
746 15-03-2020 14:05:00 15.1 C 6.58 g/m*3 15.1 C 9.7 km/h
747 15-03-2020 14:10:00 15 C 6.67 g/m*3 15 C 8.1 km/h
748 15-03-2020 14:15:00 14.9 C 6.63 g/m*3 14.9 C 11.3 km/h
749 15-03-2020 14:20:00 15.1 C 6.58 g/m*3 15.1 C 9.7 km/h
750 15-03-2020 14:25:00 15.2 C 6.75 g/m*3 15.2 C 8.1 km/h
Sensor: Nr:Datum:Temp:Abs-Feuchte:Windchill:Wind:
Aussen-T/F 751 15-03-2020 14:30:00 15.2 C 6.75 g/m*3 15.2 C 11.3 km/h
752 15-03-2020 14:35:00 15.2 C 6.62 g/m*3 15.2 C 12.9 km/h
753 15-03-2020 14:40:00 15.2 C 6.75 g/m*3 15.2 C 6.4 km/h
754 15-03-2020 14:45:00 15.3 C 6.66 g/m*3 15.3 C 12.9 km/h
755 15-03-2020 14:50:00 15.4 C 6.57 g/m*3 15.4 C 17.7 km/h
756 15-03-2020 14:55:00 15.3 C 6.53 g/m*3 15.3 C 16.1 km/h
757 15-03-2020 15:00:00 15.3 C 6.53 g/m*3 15.3 C 14.5 km/h
758 15-03-2020 15:05:00 15.2 C 6.62 g/m*3 15.2 C 6.4 km/h
759 15-03-2020 15:10:00 15.3 C 6.66 g/m*3 15.3 C 9.7 km/h
760 15-03-2020 15:15:00 15.4 C 6.44 g/m*3 15.4 C 4.8 km/h
761 15-03-2020 15:20:00 15.6 C 6.65 g/m*3 15.6 C 9.7 km/h
762 15-03-2020 15:25:00 15.6 C 6.65 g/m*3 15.6 C 1.6 km/h
763 15-03-2020 15:30:00 15.8 C 6.6 g/m*3 15.8 C 9.7 km/h
764 15-03-2020 15:35:00 15.8 C 6.87 g/m*3 15.8 C 9.7 km/h
765 15-03-2020 15:40:00 15.8 C 6.6 g/m*3 15.8 C 14.5 km/h
766 15-03-2020 15:45:00 15.8 C 6.6 g/m*3 15.8 C 11.3 km/h
767 15-03-2020 15:50:00 15.9 C 6.37 g/m*3 15.9 C 11.3 km/h
768 15-03-2020 15:55:00 16 C 6.54 g/m*3 16 C 8.1 km/h
769 15-03-2020 16:00:00 16.1 C 6.58 g/m*3 16.1 C 8.1 km/h
770 15-03-2020 16:05:00 16 C 6.54 g/m*3 16 C 8.1 km/h
771 15-03-2020 16:10:00 16 C 6.54 g/m*3 16 C 8.1 km/h
772 15-03-2020 16:15:00 16.1 C 6.31 g/m*3 16.1 C 16.1 km/h
773 15-03-2020 16:20:00 16.1 C 6.58 g/m*3 16.1 C 8.1 km/h
774 15-03-2020 16:25:00 16.2 C 6.62 g/m*3 16.2 C 8.1 km/h
775 15-03-2020 16:30:00 16.4 C 6.7 g/m*3 16.4 C 8.1 km/h
Sensor: Nr:Datum:Temp:Abs-Feuchte:Windchill:Wind:
Aussen-T/F 776 15-03-2020 16:35:00 16.6 C 6.78 g/m*3 16.6 C 1.6 km/h
777 15-03-2020 16:40:00 16.7 C 6.54 g/m*3 16.7 C 6.4 km/h
778 15-03-2020 16:45:00 16.5 C 6.46 g/m*3 16.5 C 9.7 km/h
779 15-03-2020 16:50:00 16.4 C 6.56 g/m*3 16.4 C 3.2 km/h
780 15-03-2020 16:55:00 16.4 C 6.42 g/m*3 16.4 C 4.8 km/h
781 15-03-2020 17:00:00 16.4 C 6.56 g/m*3 16.4 C 4.8 km/h
782 15-03-2020 17:05:00 16.3 C 6.38 g/m*3 16.3 C 8.1 km/h
783 15-03-2020 17:10:00 16.2 C 6.48 g/m*3 16.2 C 9.7 km/h
784 15-03-2020 17:15:00 16.2 C 6.62 g/m*3 16.2 C 3.2 km/h
785 15-03-2020 17:20:00 16.3 C 6.66 g/m*3 16.3 C 6.4 km/h
786 15-03-2020 17:25:00 16.3 C 6.66 g/m*3 16.3 C 3.2 km/h
787 15-03-2020 17:30:00 16.4 C 6.56 g/m*3 16.4 C 8.1 km/h
788 15-03-2020 17:35:00 16.3 C 6.94 g/m*3 16.3 C 3.2 km/h
789 15-03-2020 17:40:00 16.1 C 7.26 g/m*3 16.1 C 3.2 km/h
790 15-03-2020 17:45:00 15.8 C 7 g/m*3 15.8 C 8.1 km/h
791 15-03-2020 17:50:00 15.4 C 7.23 g/m*3 15.4 C 3.2 km/h
792 15-03-2020 17:55:00 15.1 C 7.1 g/m*3 15.1 C 0 km/h
793 15-03-2020 18:00:00 14.6 C 7.13 g/m*3 14.6 C 1.6 km/h
794 15-03-2020 18:05:00 14.1 C 6.92 g/m*3 14.1 C 3.2 km/h
795 15-03-2020 18:10:00 13.6 C 6.94 g/m*3 13.6 C 3.2 km/h
796 15-03-2020 18:15:00 13.2 C 7.12 g/m*3 13.2 C 4.8 km/h
797 15-03-2020 18:20:00 12.8 C 7.17 g/m*3 12.8 C 4.8 km/h
798 15-03-2020 18:25:00 12.4 C 6.88 g/m*3 12.4 C 6.4 km/h
799 15-03-2020 18:30:00 12.1 C 6.97 g/m*3 12.1 C 4.8 km/h
800 15-03-2020 18:35:00 11.8 C 7.05 g/m*3 11.8 C 4.8 km/h
Sensor: Nr:Datum:Temp:Abs-Feuchte:Windchill:Wind:
Aussen-T/F 801 15-03-2020 18:40:00 11.4 C 6.88 g/m*3 11.4 C 6.4 km/h
802 15-03-2020 18:45:00 11.1 C 6.85 g/m*3 11.1 C 4.8 km/h
803 15-03-2020 18:50:00 10.7 C 6.78 g/m*3 10.7 C 4.8 km/h
804 15-03-2020 18:55:00 10.4 C 6.75 g/m*3 9.83 C 6.4 km/h
805 15-03-2020 19:00:00 10.2 C 6.66 g/m*3 9.6 C 6.4 km/h
806 15-03-2020 19:05:00 10 C 6.67 g/m*3 9.37 C 6.4 km/h
807 15-03-2020 19:10:00 9.8 C 6.68 g/m*3 9.14 C 6.4 km/h
808 15-03-2020 19:15:00 9.6 C 6.6 g/m*3 8.91 C 6.4 km/h
809 15-03-2020 19:20:00 9.4 C 6.6 g/m*3 8.68 C 6.4 km/h
810 15-03-2020 19:25:00 9.2 C 6.61 g/m*3 8.45 C 6.4 km/h
811 15-03-2020 19:30:00 9.1 C 6.57 g/m*3 8.33 C 6.4 km/h
812 15-03-2020 19:35:00 8.9 C 6.57 g/m*3 8.1 C 6.4 km/h
813 15-03-2020 19:40:00 8.8 C 6.53 g/m*3 7.98 C 6.4 km/h
814 15-03-2020 19:45:00 8.7 C 6.57 g/m*3 7.87 C 6.4 km/h
815 15-03-2020 19:50:00 8.6 C 6.53 g/m*3 7.75 C 6.4 km/h
816 15-03-2020 19:55:00 8.5 C 6.49 g/m*3 7.64 C 6.4 km/h
817 15-03-2020 20:00:00 8.4 C 6.53 g/m*3 7.52 C 6.4 km/h
818 15-03-2020 20:05:00 8.4 C 6.53 g/m*3 7.52 C 6.4 km/h
819 15-03-2020 20:10:00 8.3 C 6.49 g/m*3 7.41 C 6.4 km/h
820 15-03-2020 20:15:00 8.3 C 6.57 g/m*3 7.41 C 6.4 km/h
821 15-03-2020 20:20:00 8.2 C 6.53 g/m*3 7.29 C 6.4 km/h
822 15-03-2020 20:25:00 8.2 C 6.53 g/m*3 7.29 C 6.4 km/h
823 15-03-2020 20:30:00 8.1 C 6.49 g/m*3 7.17 C 6.4 km/h
824 15-03-2020 20:35:00 8.1 C 6.49 g/m*3 8.1 C 4.8 km/h
825 15-03-2020 20:40:00 8 C 6.45 g/m*3 8 C 4.8 km/h
Sensor: Nr:Datum:Temp:Abs-Feuchte:Windchill:Wind:
Aussen-T/F 826 15-03-2020 20:45:00 7.9 C 6.41 g/m*3 7.9 C 4.8 km/h
827 15-03-2020 20:50:00 7.8 C 6.37 g/m*3 7.8 C 4.8 km/h
828 15-03-2020 20:55:00 7.8 C 6.45 g/m*3 7.8 C 4.8 km/h
829 15-03-2020 21:00:00 7.7 C 6.41 g/m*3 7.7 C 4.8 km/h
830 15-03-2020 21:05:00 7.6 C 6.36 g/m*3 7.6 C 3.2 km/h
831 15-03-2020 21:10:00 7.5 C 6.4 g/m*3 7.5 C 4.8 km/h
832 15-03-2020 21:15:00 7.4 C 6.36 g/m*3 7.4 C 4.8 km/h
833 15-03-2020 21:20:00 7.3 C 6.4 g/m*3 7.3 C 4.8 km/h
834 15-03-2020 21:25:00 7.2 C 6.36 g/m*3 7.2 C 4.8 km/h
835 15-03-2020 21:30:00 7.2 C 6.36 g/m*3 6.13 C 6.4 km/h
836 15-03-2020 21:35:00 7.1 C 6.32 g/m*3 6.02 C 6.4 km/h
837 15-03-2020 21:40:00 7.1 C 6.32 g/m*3 6.02 C 6.4 km/h
838 15-03-2020 21:45:00 7.1 C 6.32 g/m*3 7.1 C 4.8 km/h
839 15-03-2020 21:50:00 7.1 C 6.32 g/m*3 7.1 C 3.2 km/h
840 15-03-2020 21:55:00 7.1 C 6.32 g/m*3 7.1 C 3.2 km/h
841 15-03-2020 22:00:00 6.9 C 6.24 g/m*3 6.9 C 0 km/h
842 15-03-2020 22:05:00 6.8 C 6.19 g/m*3 6.8 C 0 km/h
843 15-03-2020 22:10:00 6.7 C 6.15 g/m*3 6.7 C 0 km/h
844 15-03-2020 22:15:00 6.6 C 6.04 g/m*3 6.6 C 0 km/h
845 15-03-2020 22:20:00 6.4 C 6.04 g/m*3 6.4 C 0 km/h
846 15-03-2020 22:25:00 6.2 C 5.96 g/m*3 6.2 C 0 km/h
847 15-03-2020 22:30:00 6 C 5.95 g/m*3 6 C 0 km/h
848 15-03-2020 22:35:00 5.8 C 5.95 g/m*3 5.8 C 0 km/h
849 15-03-2020 22:40:00 5.7 C 5.98 g/m*3 5.7 C 0 km/h
850 15-03-2020 22:45:00 5.6 C 5.94 g/m*3 5.6 C 0 km/h
Sensor: Nr:Datum:Temp:Abs-Feuchte:Windchill:Wind:
Aussen-T/F 851 15-03-2020 22:50:00 5.6 C 5.94 g/m*3 5.6 C 0 km/h
852 15-03-2020 22:55:00 5.5 C 5.9 g/m*3 5.5 C 1.6 km/h
853 15-03-2020 23:00:00 5.4 C 5.93 g/m*3 5.4 C 1.6 km/h
854 15-03-2020 23:05:00 5.4 C 5.93 g/m*3 5.4 C 0 km/h
855 15-03-2020 23:10:00 5.4 C 6 g/m*3 5.4 C 0 km/h
856 15-03-2020 23:15:00 5.4 C 6 g/m*3 5.4 C 0 km/h
857 15-03-2020 23:20:00 5.4 C 6.07 g/m*3 5.4 C 0 km/h
858 15-03-2020 23:25:00 5.4 C 6 g/m*3 5.4 C 0 km/h
859 15-03-2020 23:30:00 5.3 C 5.96 g/m*3 5.3 C 0 km/h
860 15-03-2020 23:35:00 5.2 C 5.92 g/m*3 5.2 C 0 km/h
861 15-03-2020 23:40:00 5.2 C 5.92 g/m*3 5.2 C 0 km/h
862 15-03-2020 23:45:00 5.1 C 5.88 g/m*3 5.1 C 0 km/h
863 15-03-2020 23:50:00 5 C 5.84 g/m*3 5 C 0 km/h
864 15-03-2020 23:55:00 4.9 C 5.87 g/m*3 4.9 C 0 km/h
865 16-03-2020 00:00:00 4.8 C 5.83 g/m*3 4.8 C 0 km/h
866 16-03-2020 00:05:00 4.8 C 5.83 g/m*3 4.8 C 0 km/h
867 16-03-2020 00:10:00 4.8 C 5.83 g/m*3 4.8 C 0 km/h
868 16-03-2020 00:15:00 4.7 C 5.73 g/m*3 4.7 C 0 km/h
869 16-03-2020 00:20:00 4.7 C 5.8 g/m*3 4.7 C 0 km/h
870 16-03-2020 00:25:00 4.6 C 5.69 g/m*3 4.6 C 0 km/h
871 16-03-2020 00:30:00 4.5 C 5.72 g/m*3 4.5 C 0 km/h
872 16-03-2020 00:35:00 4.4 C 5.68 g/m*3 4.4 C 0 km/h
873 16-03-2020 00:40:00 4.3 C 5.71 g/m*3 4.3 C 0 km/h
874 16-03-2020 00:45:00 4.2 C 5.67 g/m*3 4.2 C 0 km/h
875 16-03-2020 00:50:00 4.1 C 5.63 g/m*3 4.1 C 0 km/h
Sensor: Nr:Datum:Temp:Abs-Feuchte:Windchill:Wind:
Aussen-T/F 876 16-03-2020 00:55:00 4.1 C 5.63 g/m*3 4.1 C 0 km/h
877 16-03-2020 01:00:00 4 C 5.66 g/m*3 4 C 0 km/h
878 16-03-2020 01:05:00 4 C 5.66 g/m*3 4 C 0 km/h
879 16-03-2020 01:10:00 3.9 C 5.62 g/m*3 3.9 C 0 km/h
880 16-03-2020 01:15:00 3.8 C 5.58 g/m*3 3.8 C 0 km/h
881 16-03-2020 01:20:00 3.8 C 5.58 g/m*3 3.8 C 0 km/h
882 16-03-2020 01:25:00 3.7 C 5.55 g/m*3 3.7 C 0 km/h
883 16-03-2020 01:30:00 3.8 C 5.65 g/m*3 3.8 C 0 km/h
884 16-03-2020 01:35:00 3.8 C 5.65 g/m*3 3.8 C 0 km/h
885 16-03-2020 01:40:00 3.8 C 5.58 g/m*3 3.8 C 0 km/h
886 16-03-2020 01:45:00 3.7 C 5.55 g/m*3 3.7 C 0 km/h
887 16-03-2020 01:50:00 3.7 C 5.55 g/m*3 3.7 C 0 km/h
888 16-03-2020 01:55:00 3.7 C 5.61 g/m*3 3.7 C 0 km/h
889 16-03-2020 02:00:00 3.6 C 5.57 g/m*3 3.6 C 0 km/h
890 16-03-2020 02:05:00 3.6 C 5.57 g/m*3 3.6 C 0 km/h
891 16-03-2020 02:10:00 3.5 C 5.53 g/m*3 3.5 C 0 km/h
892 16-03-2020 02:15:00 3.5 C 5.53 g/m*3 3.5 C 0 km/h
893 16-03-2020 02:20:00 3.6 C 5.63 g/m*3 3.6 C 0 km/h
894 16-03-2020 02:25:00 3.5 C 5.53 g/m*3 3.5 C 0 km/h
895 16-03-2020 02:30:00 3.4 C 5.5 g/m*3 3.4 C 0 km/h
896 16-03-2020 02:35:00 3.3 C 5.46 g/m*3 3.3 C 0 km/h
897 16-03-2020 02:40:00 3.3 C 5.52 g/m*3 3.3 C 0 km/h
898 16-03-2020 02:45:00 3.4 C 5.56 g/m*3 3.4 C 0 km/h
899 16-03-2020 02:50:00 3.6 C 5.63 g/m*3 3.6 C 0 km/h
900 16-03-2020 02:55:00 3.8 C 5.71 g/m*3 3.8 C 0 km/h
Sensor: Nr:Datum:Temp:Abs-Feuchte:Windchill:Wind:
Aussen-T/F 901 16-03-2020 03:00:00 3.8 C 5.71 g/m*3 3.8 C 0 km/h
902 16-03-2020 03:05:00 3.8 C 5.65 g/m*3 3.8 C 0 km/h
903 16-03-2020 03:10:00 3.6 C 5.51 g/m*3 3.6 C 0 km/h
904 16-03-2020 03:15:00 3.5 C 5.53 g/m*3 3.5 C 0 km/h
905 16-03-2020 03:20:00 3.5 C 5.53 g/m*3 3.5 C 0 km/h
906 16-03-2020 03:25:00 3.4 C 5.5 g/m*3 3.4 C 0 km/h
907 16-03-2020 03:30:00 3.3 C 5.46 g/m*3 3.3 C 0 km/h
908 16-03-2020 03:35:00 3.3 C 5.46 g/m*3 3.3 C 0 km/h
909 16-03-2020 03:40:00 3.2 C 5.42 g/m*3 3.2 C 0 km/h
910 16-03-2020 03:45:00 3 C 5.35 g/m*3 3 C 0 km/h
911 16-03-2020 03:50:00 2.8 C 5.28 g/m*3 2.8 C 0 km/h
912 16-03-2020 03:55:00 2.8 C 5.34 g/m*3 2.8 C 0 km/h
913 16-03-2020 04:00:00 2.8 C 5.34 g/m*3 2.8 C 0 km/h
914 16-03-2020 04:05:00 2.8 C 5.34 g/m*3 2.8 C 0 km/h
915 16-03-2020 04:10:00 2.8 C 5.4 g/m*3 2.8 C 0 km/h
916 16-03-2020 04:15:00 2.7 C 5.36 g/m*3 2.7 C 0 km/h
917 16-03-2020 04:20:00 2.7 C 5.36 g/m*3 2.7 C 0 km/h
918 16-03-2020 04:25:00 2.7 C 5.36 g/m*3 2.7 C 0 km/h
919 16-03-2020 04:30:00 2.8 C 5.4 g/m*3 2.8 C 0 km/h
920 16-03-2020 04:35:00 2.8 C 5.4 g/m*3 2.8 C 0 km/h
921 16-03-2020 04:40:00 2.8 C 5.4 g/m*3 2.8 C 0 km/h
922 16-03-2020 04:45:00 2.7 C 5.36 g/m*3 2.7 C 0 km/h
923 16-03-2020 04:50:00 2.7 C 5.36 g/m*3 2.7 C 0 km/h
924 16-03-2020 04:55:00 2.6 C 5.32 g/m*3 2.6 C 0 km/h
925 16-03-2020 05:00:00 2.6 C 5.32 g/m*3 2.6 C 0 km/h
Sensor: Nr:Datum:Temp:Abs-Feuchte:Windchill:Wind:
Aussen-T/F 926 16-03-2020 05:05:00 2.5 C 5.29 g/m*3 2.5 C 0 km/h
927 16-03-2020 05:10:00 2.4 C 5.25 g/m*3 2.4 C 0 km/h
928 16-03-2020 05:15:00 2.6 C 5.38 g/m*3 2.6 C 0 km/h
929 16-03-2020 05:20:00 2.6 C 5.32 g/m*3 2.6 C 0 km/h
930 16-03-2020 05:25:00 2.6 C 5.32 g/m*3 2.6 C 0 km/h
931 16-03-2020 05:30:00 2.4 C 5.25 g/m*3 2.4 C 0 km/h
932 16-03-2020 05:35:00 2.3 C 5.22 g/m*3 2.3 C 0 km/h
933 16-03-2020 05:40:00 2.3 C 5.22 g/m*3 2.3 C 0 km/h
934 16-03-2020 05:45:00 2.3 C 5.22 g/m*3 2.3 C 0 km/h
935 16-03-2020 05:50:00 2.3 C 5.27 g/m*3 2.3 C 0 km/h
936 16-03-2020 05:55:00 2.2 C 5.24 g/m*3 2.2 C 0 km/h
937 16-03-2020 06:00:00 2.2 C 5.18 g/m*3 2.2 C 0 km/h
938 16-03-2020 06:05:00 2.1 C 5.2 g/m*3 2.1 C 0 km/h
939 16-03-2020 06:10:00 2 C 5.17 g/m*3 2 C 0 km/h
940 16-03-2020 06:15:00 1.9 C 5.13 g/m*3 1.9 C 0 km/h
941 16-03-2020 06:20:00 1.9 C 5.13 g/m*3 1.9 C 0 km/h
942 16-03-2020 06:25:00 1.8 C 5.1 g/m*3 1.8 C 0 km/h
943 16-03-2020 06:30:00 1.8 C 5.1 g/m*3 1.8 C 0 km/h
944 16-03-2020 06:35:00 1.8 C 5.1 g/m*3 1.8 C 0 km/h
945 16-03-2020 06:40:00 1.8 C 5.1 g/m*3 1.8 C 0 km/h
946 16-03-2020 06:45:00 1.7 C 5.06 g/m*3 1.7 C 0 km/h
947 16-03-2020 06:50:00 1.7 C 5.06 g/m*3 1.7 C 0 km/h
948 16-03-2020 06:55:00 1.7 C 5.06 g/m*3 1.7 C 0 km/h
949 16-03-2020 07:00:00 1.7 C 5.12 g/m*3 1.7 C 0 km/h
950 16-03-2020 07:05:00 1.9 C 5.19 g/m*3 1.9 C 0 km/h
Sensor: Nr:Datum:Temp:Abs-Feuchte:Windchill:Wind:
Aussen-T/F 951 16-03-2020 07:10:00 2.2 C 5.29 g/m*3 2.2 C 0 km/h
952 16-03-2020 07:15:00 2.2 C 5.29 g/m*3 2.2 C 0 km/h
953 16-03-2020 07:20:00 2.2 C 5.29 g/m*3 2.2 C 0 km/h
954 16-03-2020 07:25:00 2.1 C 5.26 g/m*3 2.1 C 0 km/h
955 16-03-2020 07:30:00 2.1 C 5.26 g/m*3 2.1 C 0 km/h
956 16-03-2020 07:35:00 2 C 5.22 g/m*3 2 C 0 km/h
957 16-03-2020 07:40:00 2 C 5.22 g/m*3 2 C 0 km/h
958 16-03-2020 07:45:00 2.1 C 5.26 g/m*3 2.1 C 0 km/h
959 16-03-2020 07:50:00 2.1 C 5.26 g/m*3 2.1 C 0 km/h
960 16-03-2020 07:55:00 2.2 C 5.29 g/m*3 2.2 C 0 km/h
961 16-03-2020 08:00:00 2.3 C 5.39 g/m*3 2.3 C 0 km/h
962 16-03-2020 08:05:00 2.4 C 5.42 g/m*3 2.4 C 0 km/h
963 16-03-2020 08:10:00 2.6 C 5.5 g/m*3 2.6 C 0 km/h
964 16-03-2020 08:15:00 2.6 C 5.5 g/m*3 2.6 C 0 km/h
965 16-03-2020 08:20:00 2.8 C 5.57 g/m*3 2.8 C 0 km/h
966 16-03-2020 08:25:00 2.9 C 5.61 g/m*3 2.9 C 0 km/h
967 16-03-2020 08:30:00 3 C 5.65 g/m*3 3 C 0 km/h
968 16-03-2020 08:35:00 3.1 C 5.69 g/m*3 3.1 C 0 km/h
969 16-03-2020 08:40:00 3.1 C 5.63 g/m*3 3.1 C 0 km/h
970 16-03-2020 08:45:00 3.2 C 5.72 g/m*3 3.2 C 0 km/h
971 16-03-2020 08:50:00 3.2 C 5.72 g/m*3 3.2 C 0 km/h
972 16-03-2020 08:55:00 3.2 C 5.72 g/m*3 3.2 C 0 km/h
973 16-03-2020 09:00:00 3.3 C 5.76 g/m*3 3.3 C 0 km/h
974 16-03-2020 09:05:00 3.5 C 5.84 g/m*3 3.5 C 0 km/h
975 16-03-2020 09:10:00 3.7 C 5.92 g/m*3 3.7 C 0 km/h
Sensor: Nr:Datum:Temp:Abs-Feuchte:Windchill:Wind:
Aussen-T/F 976 16-03-2020 09:15:00 3.8 C 5.96 g/m*3 3.8 C 0 km/h
977 16-03-2020 09:20:00 3.9 C 6 g/m*3 3.9 C 0 km/h
978 16-03-2020 09:25:00 4.1 C 6.08 g/m*3 4.1 C 0 km/h
979 16-03-2020 09:30:00 4.3 C 6.16 g/m*3 4.3 C 0 km/h
980 16-03-2020 09:35:00 4.4 C 6.2 g/m*3 4.4 C 0 km/h
981 16-03-2020 09:40:00 4.6 C 6.29 g/m*3 4.6 C 0 km/h
982 16-03-2020 09:45:00 4.8 C 6.37 g/m*3 4.8 C 0 km/h
983 16-03-2020 09:50:00 5 C 6.46 g/m*3 5 C 0 km/h
984 16-03-2020 09:55:00 5.2 C 6.47 g/m*3 5.2 C 0 km/h
985 16-03-2020 10:00:00 5.5 C 6.67 g/m*3 5.5 C 0 km/h
986 16-03-2020 10:05:00 5.8 C 6.73 g/m*3 5.8 C 0 km/h
987 16-03-2020 10:10:00 6 C 6.82 g/m*3 6 C 0 km/h
988 16-03-2020 10:15:00 6.3 C 6.88 g/m*3 6.3 C 0 km/h
989 16-03-2020 10:20:00 6.4 C 6.85 g/m*3 6.4 C 0 km/h
990 16-03-2020 10:25:00 6.7 C 6.99 g/m*3 6.7 C 0 km/h
991 16-03-2020 10:30:00 7.1 C 7.1 g/m*3 7.1 C 0 km/h
992 16-03-2020 10:35:00 7.3 C 7.11 g/m*3 7.3 C 0 km/h
993 16-03-2020 10:40:00 7.8 C 7.26 g/m*3 7.8 C 0 km/h
994 16-03-2020 10:45:00 8.2 C 7.45 g/m*3 8.2 C 0 km/h
995 16-03-2020 10:50:00 8.7 C 7.61 g/m*3 8.7 C 0 km/h
996 16-03-2020 10:55:00 9.1 C 7.63 g/m*3 9.1 C 0 km/h
997 16-03-2020 11:00:00 9.6 C 7.79 g/m*3 9.6 C 0 km/h
998 16-03-2020 11:05:00 9.9 C 7.75 g/m*3 9.9 C 0 km/h
999 16-03-2020 11:10:00 10.4 C 7.9 g/m*3 10.4 C 0 km/h
1000 16-03-2020 11:15:00 10.9 C 7.96 g/m*3 10.9 C 0 km/h
Sensor: Nr:Datum:Temp:Abs-Feuchte:Windchill:Wind:
Aussen-T/F 1001 16-03-2020 11:20:00 11.6 C 8.21 g/m*3 11.6 C 3.2 km/h
1002 16-03-2020 11:25:00 12.1 C 8.26 g/m*3 12.1 C 1.6 km/h
1003 16-03-2020 11:30:00 12.6 C 8.3 g/m*3 12.6 C 3.2 km/h
1004 16-03-2020 11:35:00 13.1 C 8.33 g/m*3 13.1 C 6.4 km/h
1005 16-03-2020 11:40:00 13.4 C 8.25 g/m*3 13.4 C 6.4 km/h
1006 16-03-2020 11:45:00 13.7 C 8.29 g/m*3 13.7 C 6.4 km/h
1007 16-03-2020 11:50:00 13.9 C 8.39 g/m*3 13.9 C 6.4 km/h
1008 16-03-2020 11:55:00 14.1 C 8.37 g/m*3 14.1 C 6.4 km/h
1009 16-03-2020 12:00:00 14.3 C 8.6 g/m*3 14.3 C 4.8 km/h
1010 16-03-2020 12:05:00 14.6 C 8.51 g/m*3 14.6 C 8.1 km/h
1011 16-03-2020 12:10:00 14.7 C 8.31 g/m*3 14.7 C 6.4 km/h
1012 16-03-2020 12:15:00 14.9 C 8.28 g/m*3 14.9 C 6.4 km/h
1013 16-03-2020 12:20:00 15.1 C 8.51 g/m*3 15.1 C 6.4 km/h
1014 16-03-2020 12:25:00 15.2 C 8.44 g/m*3 15.2 C 4.8 km/h
1015 16-03-2020 12:30:00 15.3 C 8.23 g/m*3 15.3 C 4.8 km/h
1016 16-03-2020 12:35:00 15.4 C 8.28 g/m*3 15.4 C 8.1 km/h
1017 16-03-2020 12:40:00 15.6 C 8.38 g/m*3 15.6 C 4.8 km/h
1018 16-03-2020 12:45:00 15.7 C 8.43 g/m*3 15.7 C 3.2 km/h
1019 16-03-2020 12:50:00 15.8 C 8.48 g/m*3 15.8 C 4.8 km/h
1020 16-03-2020 12:55:00 15.8 C 8.62 g/m*3 15.8 C 0 km/h
1021 16-03-2020 13:00:00 15.9 C 8.53 g/m*3 15.9 C 0 km/h
1022 16-03-2020 13:05:00 16.1 C 8.5 g/m*3 16.1 C 3.2 km/h
1023 16-03-2020 13:10:00 16.3 C 8.6 g/m*3 16.3 C 3.2 km/h
1024 16-03-2020 13:15:00 16.4 C 8.65 g/m*3 16.4 C 3.2 km/h
1025 16-03-2020 13:20:00 16.4 C 8.23 g/m*3 16.4 C 6.4 km/h
Sensor: Nr:Datum:Temp:Abs-Feuchte:Windchill:Wind:
Aussen-T/F 1026 16-03-2020 13:25:00 16.3 C 8.46 g/m*3 16.3 C 6.4 km/h
1027 16-03-2020 13:30:00 16.4 C 8.37 g/m*3 16.4 C 1.6 km/h
1028 16-03-2020 13:35:00 16.5 C 8.43 g/m*3 16.5 C 4.8 km/h
1029 16-03-2020 13:40:00 16.7 C 8.67 g/m*3 16.7 C 3.2 km/h
1030 16-03-2020 13:45:00 16.9 C 8.63 g/m*3 16.9 C 1.6 km/h
1031 16-03-2020 13:50:00 17.2 C 8.64 g/m*3 17.2 C 3.2 km/h
1032 16-03-2020 13:55:00 17.2 C 8.64 g/m*3 17.2 C 6.4 km/h
1033 16-03-2020 14:00:00 17.2 C 8.64 g/m*3 17.2 C 4.8 km/h
1034 16-03-2020 14:05:00 17.3 C 8.69 g/m*3 17.3 C 6.4 km/h
1035 16-03-2020 14:10:00 17.4 C 8.6 g/m*3 17.4 C 3.2 km/h
1036 16-03-2020 14:15:00 17.5 C 8.65 g/m*3 17.5 C 6.4 km/h
1037 16-03-2020 14:20:00 17.5 C 8.65 g/m*3 17.5 C 6.4 km/h
1038 16-03-2020 14:25:00 17.3 C 8.69 g/m*3 17.3 C 9.7 km/h
1039 16-03-2020 14:30:00 17.3 C 8.84 g/m*3 17.3 C 6.4 km/h
1040 16-03-2020 14:35:00 17.3 C 8.84 g/m*3 17.3 C 1.6 km/h
1041 16-03-2020 14:40:00 17.3 C 8.69 g/m*3 17.3 C 4.8 km/h
1042 16-03-2020 14:45:00 17.5 C 8.8 g/m*3 17.5 C 8.1 km/h
1043 16-03-2020 14:50:00 17.6 C 8.7 g/m*3 17.6 C 6.4 km/h
1044 16-03-2020 14:55:00 17.6 C 8.85 g/m*3 17.6 C 4.8 km/h
1045 16-03-2020 15:00:00 17.7 C 8.75 g/m*3 17.7 C 6.4 km/h
1046 16-03-2020 15:05:00 17.8 C 8.8 g/m*3 17.8 C 9.7 km/h
1047 16-03-2020 15:10:00 17.8 C 8.8 g/m*3 17.8 C 8.1 km/h
1048 16-03-2020 15:15:00 17.8 C 8.8 g/m*3 17.8 C 9.7 km/h
1049 16-03-2020 15:20:00 17.7 C 8.9 g/m*3 17.7 C 8.1 km/h
1050 16-03-2020 15:25:00 17.7 C 8.9 g/m*3 17.7 C 6.4 km/h
Sensor: Nr:Datum:Temp:Abs-Feuchte:Windchill:Wind:
Aussen-T/F 1051 16-03-2020 15:30:00 17.7 C 8.75 g/m*3 17.7 C 8.1 km/h
1052 16-03-2020 15:35:00 17.8 C 8.95 g/m*3 17.8 C 6.4 km/h
1053 16-03-2020 15:40:00 17.9 C 8.7 g/m*3 17.9 C 9.7 km/h
1054 16-03-2020 15:45:00 17.9 C 8.7 g/m*3 17.9 C 8.1 km/h
1055 16-03-2020 15:50:00 17.9 C 8.7 g/m*3 17.9 C 9.7 km/h
1056 16-03-2020 15:55:00 17.9 C 8.86 g/m*3 17.9 C 6.4 km/h
1057 16-03-2020 16:00:00 17.9 C 8.86 g/m*3 17.9 C 9.7 km/h
1058 16-03-2020 16:05:00 18 C 8.91 g/m*3 18 C 6.4 km/h
1059 16-03-2020 16:10:00 18 C 8.91 g/m*3 18 C 8.1 km/h
1060 16-03-2020 16:15:00 18 C 8.75 g/m*3 18 C 8.1 km/h
1061 16-03-2020 16:20:00 18.1 C 8.65 g/m*3 18.1 C 11.3 km/h
1062 16-03-2020 16:25:00 18.2 C 8.86 g/m*3 18.2 C 8.1 km/h
1063 16-03-2020 16:30:00 18.5 C 9.18 g/m*3 18.5 C 6.4 km/h
1064 16-03-2020 16:35:00 18.7 C 8.81 g/m*3 18.7 C 8.1 km/h
1065 16-03-2020 16:40:00 18.9 C 8.59 g/m*3 18.9 C 6.4 km/h
1066 16-03-2020 16:45:00 19 C 8.8 g/m*3 19 C 6.4 km/h
1067 16-03-2020 16:50:00 19.1 C 8.69 g/m*3 19.1 C 9.7 km/h
1068 16-03-2020 16:55:00 19 C 8.64 g/m*3 19 C 8.1 km/h
1069 16-03-2020 17:00:00 18.9 C 8.75 g/m*3 18.9 C 6.4 km/h
1070 16-03-2020 17:05:00 18.9 C 8.59 g/m*3 18.9 C 9.7 km/h
1071 16-03-2020 17:10:00 18.9 C 8.75 g/m*3 18.9 C 12.9 km/h
1072 16-03-2020 17:15:00 18.9 C 8.75 g/m*3 18.9 C 9.7 km/h
1073 16-03-2020 17:20:00 18.9 C 8.91 g/m*3 18.9 C 8.1 km/h
1074 16-03-2020 17:25:00 18.7 C 8.81 g/m*3 18.7 C 11.3 km/h
1075 16-03-2020 17:30:00 18.5 C 8.7 g/m*3 18.5 C 8.1 km/h
Sensor: Nr:Datum:Temp:Abs-Feuchte:Windchill:Wind:
Aussen-T/F 1076 16-03-2020 17:35:00 18.4 C 8.81 g/m*3 18.4 C 4.8 km/h
1077 16-03-2020 17:40:00 18.2 C 8.7 g/m*3 18.2 C 8.1 km/h
1078 16-03-2020 17:45:00 18 C 8.75 g/m*3 18 C 9.7 km/h
1079 16-03-2020 17:50:00 17.9 C 9.01 g/m*3 17.9 C 6.4 km/h
1080 16-03-2020 17:55:00 17.8 C 8.95 g/m*3 17.8 C 6.4 km/h
1081 16-03-2020 18:00:00 17.7 C 9.05 g/m*3 17.7 C 3.2 km/h
1082 16-03-2020 18:05:00 17.4 C 9.04 g/m*3 17.4 C 4.8 km/h
1083 16-03-2020 18:10:00 16.9 C 8.77 g/m*3 16.9 C 4.8 km/h
1084 16-03-2020 18:15:00 16.5 C 8.99 g/m*3 16.5 C 4.8 km/h
1085 16-03-2020 18:20:00 16.1 C 8.91 g/m*3 16.1 C 4.8 km/h
1086 16-03-2020 18:25:00 15.6 C 8.91 g/m*3 15.6 C 6.4 km/h
1087 16-03-2020 18:30:00 15.1 C 8.77 g/m*3 15.1 C 6.4 km/h
1088 16-03-2020 18:35:00 14.6 C 8.76 g/m*3 14.6 C 6.4 km/h
1089 16-03-2020 18:40:00 14.2 C 8.67 g/m*3 14.2 C 6.4 km/h
1090 16-03-2020 18:45:00 13.9 C 8.63 g/m*3 13.9 C 6.4 km/h
1091 16-03-2020 18:50:00 13.6 C 8.59 g/m*3 13.6 C 6.4 km/h
1092 16-03-2020 18:55:00 13.4 C 8.6 g/m*3 13.4 C 6.4 km/h
1093 16-03-2020 19:00:00 13.2 C 8.61 g/m*3 13.2 C 4.8 km/h
1094 16-03-2020 19:05:00 12.9 C 8.57 g/m*3 12.9 C 6.4 km/h
1095 16-03-2020 19:10:00 12.7 C 8.46 g/m*3 12.7 C 6.4 km/h
1096 16-03-2020 19:15:00 12.6 C 8.52 g/m*3 12.6 C 6.4 km/h
1097 16-03-2020 19:20:00 12.4 C 8.52 g/m*3 12.4 C 6.4 km/h
1098 16-03-2020 19:25:00 12.3 C 8.47 g/m*3 12.3 C 6.4 km/h
1099 16-03-2020 19:30:00 12.2 C 8.52 g/m*3 12.2 C 6.4 km/h
1100 16-03-2020 19:35:00 12.1 C 8.47 g/m*3 12.1 C 6.4 km/h
Sensor: Nr:Datum:Temp:Abs-Feuchte:Windchill:Wind:
Aussen-T/F 1101 16-03-2020 19:40:00 12.1 C 8.47 g/m*3 12.1 C 6.4 km/h
1102 16-03-2020 19:45:00 11.9 C 8.47 g/m*3 11.9 C 6.4 km/h
1103 16-03-2020 19:50:00 11.8 C 8.42 g/m*3 11.8 C 6.4 km/h
1104 16-03-2020 19:55:00 11.7 C 8.37 g/m*3 11.7 C 4.8 km/h
1105 16-03-2020 20:00:00 11.6 C 8.42 g/m*3 11.6 C 4.8 km/h
1106 16-03-2020 20:05:00 11.6 C 8.42 g/m*3 11.6 C 4.8 km/h
1107 16-03-2020 20:10:00 11.4 C 8.31 g/m*3 11.4 C 4.8 km/h
1108 16-03-2020 20:15:00 11.4 C 8.42 g/m*3 11.4 C 0 km/h
1109 16-03-2020 20:20:00 11.3 C 8.26 g/m*3 11.3 C 6.4 km/h
1110 16-03-2020 20:25:00 11.3 C 8.36 g/m*3 11.3 C 4.8 km/h
1111 16-03-2020 20:30:00 11.3 C 8.36 g/m*3 11.3 C 4.8 km/h
1112 16-03-2020 20:35:00 11.2 C 8.31 g/m*3 11.2 C 4.8 km/h
1113 16-03-2020 20:40:00 11.1 C 8.16 g/m*3 11.1 C 0 km/h
1114 16-03-2020 20:45:00 10.8 C 8.11 g/m*3 10.8 C 0 km/h
1115 16-03-2020 20:50:00 10.6 C 8.1 g/m*3 10.6 C 0 km/h
1116 16-03-2020 20:55:00 10.4 C 8.1 g/m*3 9.83 C 6.4 km/h
1117 16-03-2020 21:00:00 10.3 C 8.04 g/m*3 10.3 C 4.8 km/h
1118 16-03-2020 21:05:00 10.3 C 8.14 g/m*3 10.3 C 3.2 km/h
1119 16-03-2020 21:10:00 10.3 C 8.14 g/m*3 10.3 C 0 km/h
1120 16-03-2020 21:15:00 10.3 C 8.14 g/m*3 10.3 C 0 km/h
1121 16-03-2020 21:20:00 10.3 C 8.14 g/m*3 10.3 C 4.8 km/h
1122 16-03-2020 21:25:00 10.3 C 8.14 g/m*3 9.72 C 6.4 km/h
1123 16-03-2020 21:30:00 10.2 C 8.09 g/m*3 10.2 C 0 km/h
1124 16-03-2020 21:35:00 10.2 C 8.18 g/m*3 10.2 C 0 km/h
1125 16-03-2020 21:40:00 10.1 C 8.13 g/m*3 10.1 C 3.2 km/h
Sensor: Nr:Datum:Temp:Abs-Feuchte:Windchill:Wind:
Aussen-T/F 1126 16-03-2020 21:45:00 10.1 C 8.13 g/m*3 10.1 C 4.8 km/h
1127 16-03-2020 21:50:00 10.2 C 8.18 g/m*3 9.6 C 6.4 km/h
1128 16-03-2020 21:55:00 10.2 C 8.18 g/m*3 10.2 C 1.6 km/h
1129 16-03-2020 22:00:00 10.2 C 8.18 g/m*3 10.2 C 0 km/h
1130 16-03-2020 22:05:00 10.2 C 8.18 g/m*3 10.2 C 1.6 km/h
1131 16-03-2020 22:10:00 10.2 C 8.18 g/m*3 10.2 C 3.2 km/h
1132 16-03-2020 22:15:00 10.2 C 8.18 g/m*3 10.2 C 0 km/h
1133 16-03-2020 22:20:00 10.1 C 8.13 g/m*3 10.1 C 0 km/h
1134 16-03-2020 22:25:00 10 C 8.08 g/m*3 10 C 1.6 km/h
1135 16-03-2020 22:30:00 9.9 C 8.03 g/m*3 9.25 C 6.4 km/h
1136 16-03-2020 22:35:00 9.9 C 8.12 g/m*3 9.9 C 3.2 km/h
1137 16-03-2020 22:40:00 9.8 C 7.98 g/m*3 9.8 C 0 km/h
1138 16-03-2020 22:45:00 9.7 C 8.02 g/m*3 9.7 C 0 km/h
1139 16-03-2020 22:50:00 9.6 C 7.97 g/m*3 9.6 C 0 km/h
1140 16-03-2020 22:55:00 9.6 C 7.97 g/m*3 9.6 C 4.8 km/h
1141 16-03-2020 23:00:00 9.6 C 8.06 g/m*3 9.6 C 0 km/h
1142 16-03-2020 23:05:00 9.6 C 8.06 g/m*3 9.6 C 3.2 km/h
1143 16-03-2020 23:10:00 9.6 C 8.06 g/m*3 9.6 C 1.6 km/h
1144 16-03-2020 23:15:00 9.7 C 8.11 g/m*3 9.7 C 0 km/h
1145 16-03-2020 23:20:00 9.7 C 8.11 g/m*3 9.7 C 0 km/h
1146 16-03-2020 23:25:00 9.7 C 8.11 g/m*3 9.7 C 0 km/h
1147 16-03-2020 23:30:00 9.7 C 8.11 g/m*3 9.7 C 0 km/h
1148 16-03-2020 23:35:00 9.8 C 8.16 g/m*3 9.8 C 0 km/h
1149 16-03-2020 23:40:00 9.8 C 8.26 g/m*3 9.8 C 0 km/h
1150 16-03-2020 23:45:00 9.8 C 8.26 g/m*3 9.8 C 0 km/h
Sensor: Nr:Datum:Temp:Abs-Feuchte:Windchill:Wind:
Aussen-T/F 1151 16-03-2020 23:50:00 9.8 C 8.26 g/m*3 9.8 C 0 km/h
1152 16-03-2020 23:55:00 9.8 C 8.16 g/m*3 9.8 C 0 km/h
1153 17-03-2020 00:00:00 9.8 C 8.16 g/m*3 9.8 C 0 km/h
1154 17-03-2020 00:05:00 9.8 C 8.16 g/m*3 9.8 C 0 km/h
1155 17-03-2020 00:10:00 9.8 C 8.16 g/m*3 9.8 C 0 km/h
1156 17-03-2020 00:15:00 9.7 C 8.11 g/m*3 9.7 C 0 km/h
1157 17-03-2020 00:20:00 9.8 C 8.26 g/m*3 9.8 C 0 km/h
1158 17-03-2020 00:25:00 9.8 C 8.26 g/m*3 9.8 C 0 km/h
1159 17-03-2020 00:30:00 9.8 C 8.26 g/m*3 9.8 C 0 km/h
1160 17-03-2020 00:35:00 9.8 C 8.26 g/m*3 9.8 C 0 km/h
1161 17-03-2020 00:40:00 9.8 C 8.16 g/m*3 9.8 C 0 km/h
1162 17-03-2020 00:45:00 9.7 C 8.11 g/m*3 9.7 C 0 km/h
1163 17-03-2020 00:50:00 9.7 C 8.2 g/m*3 9.7 C 0 km/h
1164 17-03-2020 00:55:00 9.6 C 8.15 g/m*3 9.6 C 0 km/h
1165 17-03-2020 01:00:00 9.6 C 8.15 g/m*3 9.6 C 0 km/h
1166 17-03-2020 01:05:00 9.5 C 8.1 g/m*3 9.5 C 0 km/h
1167 17-03-2020 01:10:00 9.5 C 8.1 g/m*3 9.5 C 0 km/h
1168 17-03-2020 01:15:00 9.5 C 8.19 g/m*3 9.5 C 0 km/h
1169 17-03-2020 01:20:00 9.5 C 8.19 g/m*3 9.5 C 0 km/h
1170 17-03-2020 01:25:00 9.4 C 8.14 g/m*3 9.4 C 0 km/h
1171 17-03-2020 01:30:00 9.4 C 8.14 g/m*3 9.4 C 0 km/h
1172 17-03-2020 01:35:00 9.3 C 8.09 g/m*3 9.3 C 0 km/h
1173 17-03-2020 01:40:00 9.3 C 8.09 g/m*3 9.3 C 0 km/h
1174 17-03-2020 01:45:00 9.3 C 8.09 g/m*3 9.3 C 0 km/h
1175 17-03-2020 01:50:00 9.3 C 8.09 g/m*3 9.3 C 0 km/h
Sensor: Nr:Datum:Temp:Abs-Feuchte:Windchill:Wind:
Aussen-T/F 1176 17-03-2020 01:55:00 9.3 C 8.09 g/m*3 9.3 C 0 km/h
1177 17-03-2020 02:00:00 9.3 C 8.09 g/m*3 9.3 C 0 km/h
1178 17-03-2020 02:05:00 9.2 C 8.04 g/m*3 9.2 C 0 km/h
1179 17-03-2020 02:10:00 9.2 C 8.04 g/m*3 9.2 C 0 km/h
1180 17-03-2020 02:15:00 9.2 C 8.13 g/m*3 9.2 C 0 km/h
1181 17-03-2020 02:20:00 9.2 C 8.13 g/m*3 9.2 C 0 km/h
1182 17-03-2020 02:25:00 9.2 C 8.13 g/m*3 9.2 C 0 km/h
1183 17-03-2020 02:30:00 9.2 C 8.13 g/m*3 9.2 C 0 km/h
1184 17-03-2020 02:35:00 9.2 C 8.13 g/m*3 9.2 C 0 km/h
1185 17-03-2020 02:40:00 9.3 C 8.18 g/m*3 9.3 C 0 km/h
1186 17-03-2020 02:45:00 9.3 C 8.18 g/m*3 9.3 C 0 km/h
1187 17-03-2020 02:50:00 9.3 C 8.18 g/m*3 9.3 C 0 km/h
1188 17-03-2020 02:55:00 9.3 C 8.18 g/m*3 9.3 C 0 km/h
1189 17-03-2020 03:00:00 9.2 C 8.13 g/m*3 9.2 C 0 km/h
1190 17-03-2020 03:05:00 9.2 C 8.13 g/m*3 9.2 C 0 km/h
1191 17-03-2020 03:10:00 9.2 C 8.13 g/m*3 9.2 C 0 km/h
1192 17-03-2020 03:15:00 9.1 C 8.07 g/m*3 9.1 C 0 km/h
1193 17-03-2020 03:20:00 9.1 C 8.07 g/m*3 9.1 C 0 km/h
1194 17-03-2020 03:25:00 9 C 8.02 g/m*3 9 C 0 km/h
1195 17-03-2020 03:30:00 8.9 C 7.97 g/m*3 8.9 C 0 km/h
1196 17-03-2020 03:35:00 8.9 C 7.97 g/m*3 8.9 C 0 km/h
1197 17-03-2020 03:40:00 8.9 C 8.06 g/m*3 8.9 C 0 km/h
1198 17-03-2020 03:45:00 8.9 C 7.97 g/m*3 8.9 C 0 km/h
1199 17-03-2020 03:50:00 8.8 C 7.92 g/m*3 8.8 C 0 km/h
1200 17-03-2020 03:55:00 8.7 C 7.87 g/m*3 8.7 C 0 km/h
Sensor: Nr:Datum:Temp:Abs-Feuchte:Windchill:Wind:
Aussen-T/F 1201 17-03-2020 04:00:00 8.6 C 7.82 g/m*3 8.6 C 0 km/h
1202 17-03-2020 04:05:00 8.6 C 7.91 g/m*3 8.6 C 4.8 km/h
1203 17-03-2020 04:10:00 8.7 C 7.96 g/m*3 8.7 C 0 km/h
1204 17-03-2020 04:15:00 8.8 C 8.09 g/m*3 8.8 C 0 km/h
1205 17-03-2020 04:20:00 9 C 8.2 g/m*3 9 C 0 km/h
1206 17-03-2020 04:25:00 9.1 C 8.25 g/m*3 9.1 C 0 km/h
1207 17-03-2020 04:30:00 9.2 C 8.3 g/m*3 9.2 C 0 km/h
1208 17-03-2020 04:35:00 9.2 C 8.22 g/m*3 9.2 C 0 km/h
1209 17-03-2020 04:40:00 9.2 C 8.22 g/m*3 9.2 C 0 km/h
1210 17-03-2020 04:45:00 9.2 C 8.22 g/m*3 9.2 C 0 km/h
1211 17-03-2020 04:50:00 9.2 C 8.22 g/m*3 9.2 C 0 km/h
1212 17-03-2020 04:55:00 9.2 C 8.22 g/m*3 9.2 C 0 km/h
1213 17-03-2020 05:00:00 9.1 C 8.16 g/m*3 9.1 C 0 km/h
1214 17-03-2020 05:05:00 9.1 C 8.16 g/m*3 9.1 C 0 km/h
1215 17-03-2020 05:10:00 9.1 C 8.16 g/m*3 9.1 C 3.2 km/h
1216 17-03-2020 05:15:00 9.1 C 8.16 g/m*3 9.1 C 1.6 km/h
1217 17-03-2020 05:20:00 9.2 C 8.13 g/m*3 9.2 C 0 km/h
1218 17-03-2020 05:25:00 9.2 C 8.13 g/m*3 9.2 C 0 km/h
1219 17-03-2020 05:30:00 9.2 C 8.13 g/m*3 9.2 C 0 km/h
1220 17-03-2020 05:35:00 9.1 C 8.07 g/m*3 9.1 C 0 km/h
1221 17-03-2020 05:40:00 9 C 8.02 g/m*3 9 C 0 km/h
1222 17-03-2020 05:45:00 9 C 8.02 g/m*3 9 C 1.6 km/h
1223 17-03-2020 05:50:00 8.9 C 7.97 g/m*3 8.9 C 3.2 km/h
1224 17-03-2020 05:55:00 8.8 C 7.92 g/m*3 8.8 C 1.6 km/h
1225 17-03-2020 06:00:00 8.8 C 7.92 g/m*3 8.8 C 0 km/h
Sensor: Nr:Datum:Temp:Abs-Feuchte:Windchill:Wind:
Aussen-T/F 1226 17-03-2020 06:05:00 8.8 C 7.92 g/m*3 8.8 C 0 km/h
1227 17-03-2020 06:10:00 8.8 C 7.92 g/m*3 8.8 C 0 km/h
1228 17-03-2020 06:15:00 8.7 C 7.87 g/m*3 8.7 C 0 km/h
1229 17-03-2020 06:20:00 8.7 C 7.87 g/m*3 8.7 C 1.6 km/h
1230 17-03-2020 06:25:00 8.6 C 7.82 g/m*3 8.6 C 0 km/h
1231 17-03-2020 06:30:00 8.6 C 7.82 g/m*3 8.6 C 0 km/h
1232 17-03-2020 06:35:00 8.6 C 7.82 g/m*3 8.6 C 0 km/h
1233 17-03-2020 06:40:00 8.6 C 7.91 g/m*3 8.6 C 0 km/h
1234 17-03-2020 06:45:00 8.6 C 7.91 g/m*3 8.6 C 0 km/h
1235 17-03-2020 06:50:00 8.6 C 7.91 g/m*3 8.6 C 0 km/h
1236 17-03-2020 06:55:00 8.6 C 7.91 g/m*3 8.6 C 0 km/h
1237 17-03-2020 07:00:00 8.6 C 7.91 g/m*3 8.6 C 3.2 km/h
1238 17-03-2020 07:05:00 8.6 C 7.91 g/m*3 8.6 C 1.6 km/h
1239 17-03-2020 07:10:00 8.8 C 8.01 g/m*3 8.8 C 3.2 km/h
1240 17-03-2020 07:15:00 8.8 C 8.01 g/m*3 8.8 C 1.6 km/h
1241 17-03-2020 07:20:00 8.9 C 7.97 g/m*3 8.9 C 1.6 km/h
1242 17-03-2020 07:25:00 9.1 C 8.07 g/m*3 9.1 C 1.6 km/h
1243 17-03-2020 07:30:00 9.2 C 8.13 g/m*3 9.2 C 0 km/h
1244 17-03-2020 07:35:00 9.3 C 8.18 g/m*3 9.3 C 0 km/h
1245 17-03-2020 07:40:00 9.4 C 8.14 g/m*3 9.4 C 1.6 km/h
1246 17-03-2020 07:45:00 9.5 C 8.19 g/m*3 9.5 C 0 km/h
1247 17-03-2020 07:50:00 9.6 C 8.15 g/m*3 9.6 C 1.6 km/h
1248 17-03-2020 07:55:00 9.6 C 8.15 g/m*3 9.6 C 0 km/h
1249 17-03-2020 08:00:00 9.7 C 8.2 g/m*3 9.7 C 0 km/h
1250 17-03-2020 08:05:00 9.8 C 8.16 g/m*3 9.8 C 1.6 km/h
Sensor: Nr:Datum:Temp:Abs-Feuchte:Windchill:Wind:
Aussen-T/F 1251 17-03-2020 08:10:00 9.8 C 8.16 g/m*3 9.8 C 1.6 km/h
1252 17-03-2020 08:15:00 9.9 C 8.12 g/m*3 9.9 C 0 km/h
1253 17-03-2020 08:20:00 10 C 8.17 g/m*3 10 C 1.6 km/h
1254 17-03-2020 08:25:00 10 C 8.08 g/m*3 9.37 C 6.4 km/h
1255 17-03-2020 08:30:00 10.1 C 8.13 g/m*3 10.1 C 0 km/h
1256 17-03-2020 08:35:00 10.1 C 8.23 g/m*3 10.1 C 0 km/h
1257 17-03-2020 08:40:00 10.1 C 8.23 g/m*3 10.1 C 0 km/h
1258 17-03-2020 08:45:00 10.1 C 8.13 g/m*3 10.1 C 0 km/h
1259 17-03-2020 08:50:00 10.1 C 8.13 g/m*3 10.1 C 4.8 km/h
1260 17-03-2020 08:55:00 10.1 C 8.13 g/m*3 10.1 C 1.6 km/h
1261 17-03-2020 09:00:00 10.1 C 8.04 g/m*3 10.1 C 0 km/h
1262 17-03-2020 09:05:00 10.2 C 8.09 g/m*3 10.2 C 1.6 km/h
1263 17-03-2020 09:10:00 10.2 C 8.09 g/m*3 10.2 C 0 km/h
1264 17-03-2020 09:15:00 10.2 C 8.09 g/m*3 10.2 C 0 km/h
1265 17-03-2020 09:20:00 10.3 C 8.14 g/m*3 10.3 C 0 km/h
1266 17-03-2020 09:25:00 10.3 C 8.14 g/m*3 10.3 C 0 km/h
1267 17-03-2020 09:30:00 10.3 C 8.04 g/m*3 10.3 C 0 km/h
1268 17-03-2020 09:35:00 10.4 C 8.1 g/m*3 10.4 C 0 km/h
1269 17-03-2020 09:40:00 10.4 C 8.19 g/m*3 10.4 C 0 km/h
1270 17-03-2020 09:45:00 10.4 C 8.1 g/m*3 10.4 C 3.2 km/h
1271 17-03-2020 09:50:00 10.4 C 8.1 g/m*3 10.4 C 0 km/h
1272 17-03-2020 09:55:00 10.5 C 8.15 g/m*3 10.5 C 0 km/h
1273 17-03-2020 10:00:00 10.6 C 8.2 g/m*3 10.6 C 1.6 km/h
1274 17-03-2020 10:05:00 10.6 C 8.2 g/m*3 10.6 C 1.6 km/h
1275 17-03-2020 10:10:00 10.6 C 8.2 g/m*3 10.6 C 1.6 km/h
Sensor: Nr:Datum:Temp:Abs-Feuchte:Windchill:Wind:
Aussen-T/F 1276 17-03-2020 10:15:00 10.7 C 8.15 g/m*3 10.7 C 1.6 km/h
1277 17-03-2020 10:20:00 10.7 C 8.25 g/m*3 10.7 C 0 km/h
1278 17-03-2020 10:25:00 10.8 C 8.2 g/m*3 10.8 C 0 km/h
1279 17-03-2020 10:30:00 10.9 C 8.36 g/m*3 10.9 C 0 km/h
1280 17-03-2020 10:35:00 11 C 8.31 g/m*3 11 C 1.6 km/h
1281 17-03-2020 10:40:00 11.1 C 8.26 g/m*3 11.1 C 0 km/h
1282 17-03-2020 10:45:00 11.2 C 8.31 g/m*3 11.2 C 1.6 km/h
1283 17-03-2020 10:50:00 11.3 C 8.26 g/m*3 11.3 C 0 km/h
1284 17-03-2020 10:55:00 11.3 C 8.26 g/m*3 11.3 C 4.8 km/h
1285 17-03-2020 11:00:00 11.4 C 8.31 g/m*3 11.4 C 3.2 km/h
1286 17-03-2020 11:05:00 11.6 C 8.32 g/m*3 11.6 C 1.6 km/h
1287 17-03-2020 11:10:00 11.7 C 8.26 g/m*3 11.7 C 3.2 km/h
1288 17-03-2020 11:15:00 11.8 C 8.31 g/m*3 11.8 C 3.2 km/h
1289 17-03-2020 11:20:00 11.8 C 8.42 g/m*3 11.8 C 3.2 km/h
1290 17-03-2020 11:25:00 11.9 C 8.37 g/m*3 11.9 C 3.2 km/h
1291 17-03-2020 11:30:00 12.1 C 8.47 g/m*3 12.1 C 1.6 km/h
1292 17-03-2020 11:35:00 12.2 C 8.42 g/m*3 12.2 C 4.8 km/h
1293 17-03-2020 11:40:00 12.4 C 8.52 g/m*3 12.4 C 3.2 km/h
1294 17-03-2020 11:45:00 12.6 C 8.52 g/m*3 12.6 C 3.2 km/h
1295 17-03-2020 11:50:00 12.6 C 8.41 g/m*3 12.6 C 0 km/h
1296 17-03-2020 11:55:00 12.6 C 8.41 g/m*3 12.6 C 3.2 km/h
1297 17-03-2020 12:00:00 12.7 C 8.46 g/m*3 12.7 C 1.6 km/h
1298 17-03-2020 12:05:00 12.9 C 8.57 g/m*3 12.9 C 1.6 km/h
1299 17-03-2020 12:10:00 13.1 C 8.44 g/m*3 13.1 C 4.8 km/h
1300 17-03-2020 12:15:00 13.3 C 8.43 g/m*3 13.3 C 4.8 km/h
Sensor: Nr:Datum:Temp:Abs-Feuchte:Windchill:Wind:
Aussen-T/F 1301 17-03-2020 12:20:00 13.5 C 8.42 g/m*3 13.5 C 3.2 km/h
1302 17-03-2020 12:25:00 13.7 C 8.41 g/m*3 13.7 C 3.2 km/h
1303 17-03-2020 12:30:00 14.1 C 8.62 g/m*3 14.1 C 8.1 km/h
1304 17-03-2020 12:35:00 14.1 C 8.5 g/m*3 14.1 C 6.4 km/h
1305 17-03-2020 12:40:00 14.2 C 8.43 g/m*3 14.2 C 6.4 km/h
1306 17-03-2020 12:45:00 14.3 C 8.48 g/m*3 14.3 C 8.1 km/h
1307 17-03-2020 12:50:00 14.5 C 8.58 g/m*3 14.5 C 6.4 km/h
1308 17-03-2020 12:55:00 14.6 C 8.63 g/m*3 14.6 C 4.8 km/h
1309 17-03-2020 13:00:00 14.6 C 8.51 g/m*3 14.6 C 3.2 km/h
1310 17-03-2020 13:05:00 14.7 C 8.56 g/m*3 14.7 C 0 km/h
1311 17-03-2020 13:10:00 14.8 C 8.74 g/m*3 14.8 C 6.4 km/h
1312 17-03-2020 13:15:00 14.9 C 8.67 g/m*3 14.9 C 4.8 km/h
1313 17-03-2020 13:20:00 15.1 C 8.64 g/m*3 15.1 C 4.8 km/h
1314 17-03-2020 13:25:00 15.2 C 8.57 g/m*3 15.2 C 8.1 km/h
1315 17-03-2020 13:30:00 15.1 C 8.51 g/m*3 15.1 C 8.1 km/h
1316 17-03-2020 13:35:00 15.1 C 8.64 g/m*3 15.1 C 6.4 km/h
1317 17-03-2020 13:40:00 15.1 C 8.39 g/m*3 15.1 C 4.8 km/h
1318 17-03-2020 13:45:00 15.1 C 8.51 g/m*3 15.1 C 6.4 km/h
1319 17-03-2020 13:50:00 15.2 C 8.31 g/m*3 15.2 C 6.4 km/h
1320 17-03-2020 13:55:00 15.4 C 8.67 g/m*3 15.4 C 1.6 km/h
1321 17-03-2020 14:00:00 15.7 C 8.7 g/m*3 15.7 C 3.2 km/h
1322 17-03-2020 14:05:00 15.9 C 8.53 g/m*3 15.9 C 3.2 km/h
1323 17-03-2020 14:10:00 15.8 C 8.35 g/m*3 15.8 C 6.4 km/h
1324 17-03-2020 14:15:00 15.7 C 8.56 g/m*3 15.7 C 0 km/h
1325 17-03-2020 14:20:00 15.6 C 8.38 g/m*3 15.6 C 0 km/h
Sensor: Nr:Datum:Temp:Abs-Feuchte:Windchill:Wind:
Aussen-T/F 1326 17-03-2020 14:25:00 15.7 C 8.43 g/m*3 15.7 C 4.8 km/h
1327 17-03-2020 14:30:00 15.7 C 8.43 g/m*3 15.7 C 8.1 km/h
1328 17-03-2020 14:35:00 15.5 C 8.2 g/m*3 15.5 C 8.1 km/h
1329 17-03-2020 14:40:00 15.4 C 8.28 g/m*3 15.4 C 8.1 km/h
1330 17-03-2020 14:45:00 15.4 C 8.41 g/m*3 15.4 C 3.2 km/h
1331 17-03-2020 14:50:00 15.4 C 8.28 g/m*3 15.4 C 6.4 km/h
1332 17-03-2020 14:55:00 15.4 C 8.28 g/m*3 15.4 C 6.4 km/h
1333 17-03-2020 15:00:00 15.6 C 8.38 g/m*3 15.6 C 3.2 km/h
1334 17-03-2020 15:05:00 15.7 C 8.3 g/m*3 15.7 C 6.4 km/h
1335 17-03-2020 15:10:00 15.8 C 8.21 g/m*3 15.8 C 6.4 km/h
1336 17-03-2020 15:15:00 15.8 C 8.08 g/m*3 15.8 C 8.1 km/h
1337 17-03-2020 15:20:00 15.8 C 7.94 g/m*3 15.8 C 6.4 km/h
1338 17-03-2020 15:25:00 15.9 C 7.99 g/m*3 15.9 C 3.2 km/h
1339 17-03-2020 15:30:00 16.1 C 7.95 g/m*3 16.1 C 4.8 km/h
1340 17-03-2020 15:35:00 16.3 C 7.91 g/m*3 16.3 C 4.8 km/h
1341 17-03-2020 15:40:00 16.5 C 7.72 g/m*3 16.5 C 4.8 km/h
1342 17-03-2020 15:45:00 16.6 C 7.77 g/m*3 16.6 C 4.8 km/h
1343 17-03-2020 15:50:00 16.8 C 7.86 g/m*3 16.8 C 4.8 km/h
1344 17-03-2020 15:55:00 16.8 C 8.01 g/m*3 16.8 C 3.2 km/h
1345 17-03-2020 16:00:00 16.9 C 7.91 g/m*3 16.9 C 4.8 km/h
1346 17-03-2020 16:05:00 17 C 7.81 g/m*3 17 C 3.2 km/h
1347 17-03-2020 16:10:00 17.1 C 8.01 g/m*3 17.1 C 6.4 km/h
1348 17-03-2020 16:15:00 17.2 C 7.91 g/m*3 17.2 C 8.1 km/h
1349 17-03-2020 16:20:00 17.3 C 8.1 g/m*3 17.3 C 4.8 km/h
1350 17-03-2020 16:25:00 17.4 C 8.45 g/m*3 17.4 C 3.2 km/h
Sensor: Nr:Datum:Temp:Abs-Feuchte:Windchill:Wind:
Aussen-T/F 1351 17-03-2020 16:30:00 17.6 C 8.1 g/m*3 17.6 C 8.1 km/h
1352 17-03-2020 16:35:00 17.7 C 8.15 g/m*3 17.7 C 1.6 km/h
1353 17-03-2020 16:40:00 17.8 C 8.04 g/m*3 17.8 C 4.8 km/h
1354 17-03-2020 16:45:00 17.8 C 7.89 g/m*3 17.8 C 6.4 km/h
1355 17-03-2020 16:50:00 18 C 8.14 g/m*3 18 C 4.8 km/h
1356 17-03-2020 16:55:00 18.2 C 8.08 g/m*3 18.2 C 8.1 km/h
1357 17-03-2020 17:00:00 18.2 C 8.08 g/m*3 18.2 C 4.8 km/h
1358 17-03-2020 17:05:00 18.2 C 7.93 g/m*3 18.2 C 4.8 km/h
1359 17-03-2020 17:10:00 18.2 C 8.24 g/m*3 18.2 C 0 km/h
1360 17-03-2020 17:15:00 18.3 C 8.44 g/m*3 18.3 C 0 km/h
1361 17-03-2020 17:20:00 18.4 C 8.49 g/m*3 18.4 C 0 km/h
1362 17-03-2020 17:25:00 18.4 C 8.18 g/m*3 18.4 C 1.6 km/h
1363 17-03-2020 17:30:00 18.2 C 8.24 g/m*3 18.2 C 3.2 km/h
1364 17-03-2020 17:35:00 18.1 C 8.03 g/m*3 18.1 C 1.6 km/h
1365 17-03-2020 17:40:00 17.9 C 7.94 g/m*3 17.9 C 1.6 km/h
1366 17-03-2020 17:45:00 17.8 C 8.5 g/m*3 17.8 C 0 km/h
1367 17-03-2020 17:50:00 17.7 C 8.45 g/m*3 17.7 C 0 km/h
1368 17-03-2020 17:55:00 17.3 C 8.84 g/m*3 17.3 C 0 km/h
1369 17-03-2020 18:00:00 17 C 8.68 g/m*3 17 C 0 km/h
1370 17-03-2020 18:05:00 16.6 C 8.76 g/m*3 16.6 C 3.2 km/h
1371 17-03-2020 18:10:00 16.2 C 8.69 g/m*3 16.2 C 3.2 km/h
1372 17-03-2020 18:15:00 15.7 C 8.7 g/m*3 15.7 C 4.8 km/h
1373 17-03-2020 18:20:00 15.2 C 8.57 g/m*3 15.2 C 4.8 km/h
1374 17-03-2020 18:25:00 14.7 C 8.56 g/m*3 14.7 C 4.8 km/h
1375 17-03-2020 18:30:00 14.2 C 8.43 g/m*3 14.2 C 4.8 km/h
Sensor: Nr:Datum:Temp:Abs-Feuchte:Windchill:Wind:
Aussen-T/F 1376 17-03-2020 18:35:00 13.7 C 8.41 g/m*3 13.7 C 4.8 km/h
1377 17-03-2020 18:40:00 13.3 C 8.32 g/m*3 13.3 C 4.8 km/h
1378 17-03-2020 18:45:00 13 C 8.28 g/m*3 13 C 4.8 km/h
1379 17-03-2020 18:50:00 12.7 C 8.24 g/m*3 12.7 C 4.8 km/h
1380 17-03-2020 18:55:00 12.4 C 8.3 g/m*3 12.4 C 4.8 km/h
1381 17-03-2020 19:00:00 12.2 C 8.2 g/m*3 12.2 C 4.8 km/h
1382 17-03-2020 19:05:00 12 C 8.21 g/m*3 12 C 4.8 km/h
1383 17-03-2020 19:10:00 11.8 C 8.21 g/m*3 11.8 C 4.8 km/h
1384 17-03-2020 19:15:00 11.7 C 8.16 g/m*3 11.7 C 4.8 km/h
1385 17-03-2020 19:20:00 11.5 C 8.16 g/m*3 11.5 C 6.4 km/h
1386 17-03-2020 19:25:00 11.4 C 8.11 g/m*3 11.4 C 4.8 km/h
1387 17-03-2020 19:30:00 11.3 C 8.06 g/m*3 11.3 C 4.8 km/h
1388 17-03-2020 19:35:00 11.2 C 8.01 g/m*3 11.2 C 0 km/h
1389 17-03-2020 19:40:00 11 C 8.01 g/m*3 11 C 4.8 km/h
1390 17-03-2020 19:45:00 10.8 C 8.01 g/m*3 10.8 C 4.8 km/h
1391 17-03-2020 19:50:00 10.7 C 7.96 g/m*3 10.7 C 4.8 km/h
1392 17-03-2020 19:55:00 10.6 C 7.91 g/m*3 10.6 C 4.8 km/h
1393 17-03-2020 20:00:00 10.4 C 7.9 g/m*3 10.4 C 0 km/h
1394 17-03-2020 20:05:00 10.3 C 7.95 g/m*3 10.3 C 0 km/h
1395 17-03-2020 20:10:00 10.2 C 7.9 g/m*3 10.2 C 0 km/h
1396 17-03-2020 20:15:00 10.1 C 7.85 g/m*3 10.1 C 4.8 km/h
1397 17-03-2020 20:20:00 10.1 C 7.94 g/m*3 9.48 C 6.4 km/h
1398 17-03-2020 20:25:00 10.1 C 7.94 g/m*3 9.48 C 6.4 km/h
1399 17-03-2020 20:30:00 10.1 C 7.94 g/m*3 8.8 C 9.7 km/h
1400 17-03-2020 20:35:00 10.3 C 7.95 g/m*3 9.04 C 9.7 km/h
Sensor: Nr:Datum:Temp:Abs-Feuchte:Windchill:Wind:
Aussen-T/F 1401 17-03-2020 20:40:00 10.3 C 7.95 g/m*3 10.3 C 3.2 km/h
1402 17-03-2020 20:45:00 10.3 C 7.85 g/m*3 10.3 C 1.6 km/h
1403 17-03-2020 20:50:00 10.2 C 7.9 g/m*3 10.2 C 1.6 km/h
1404 17-03-2020 20:55:00 10.1 C 7.85 g/m*3 10.1 C 0 km/h
1405 17-03-2020 21:00:00 10.1 C 7.85 g/m*3 10.1 C 3.2 km/h
1406 17-03-2020 21:05:00 9.9 C 7.75 g/m*3 9.9 C 1.6 km/h
1407 17-03-2020 21:10:00 9.8 C 7.79 g/m*3 9.8 C 1.6 km/h
1408 17-03-2020 21:15:00 9.7 C 7.74 g/m*3 9.7 C 0 km/h
1409 17-03-2020 21:20:00 9.6 C 7.79 g/m*3 9.6 C 0 km/h
1410 17-03-2020 21:25:00 9.5 C 7.74 g/m*3 9.5 C 0 km/h
1411 17-03-2020 21:30:00 9.4 C 7.69 g/m*3 9.4 C 0 km/h
1412 17-03-2020 21:35:00 9.3 C 7.64 g/m*3 9.3 C 0 km/h
1413 17-03-2020 21:40:00 9.2 C 7.68 g/m*3 9.2 C 0 km/h
1414 17-03-2020 21:45:00 9.1 C 7.63 g/m*3 9.1 C 0 km/h
1415 17-03-2020 21:50:00 8.9 C 7.53 g/m*3 8.9 C 0 km/h
1416 17-03-2020 21:55:00 8.8 C 7.49 g/m*3 8.8 C 0 km/h
1417 17-03-2020 22:00:00 8.7 C 7.44 g/m*3 8.7 C 0 km/h
1418 17-03-2020 22:05:00 8.6 C 7.39 g/m*3 8.6 C 0 km/h
1419 17-03-2020 22:10:00 8.3 C 7.25 g/m*3 8.3 C 0 km/h
1420 17-03-2020 22:15:00 8.2 C 7.29 g/m*3 8.2 C 0 km/h
1421 17-03-2020 22:20:00 8.1 C 7.24 g/m*3 8.1 C 0 km/h
1422 17-03-2020 22:25:00 8.1 C 7.32 g/m*3 8.1 C 0 km/h
1423 17-03-2020 22:30:00 7.9 C 7.23 g/m*3 7.9 C 0 km/h
1424 17-03-2020 22:35:00 7.8 C 7.18 g/m*3 7.8 C 0 km/h
1425 17-03-2020 22:40:00 7.7 C 7.14 g/m*3 7.7 C 0 km/h
Sensor: Nr:Datum:Temp:Abs-Feuchte:Windchill:Wind:
Aussen-T/F 1426 17-03-2020 22:45:00 7.6 C 7.09 g/m*3 7.6 C 0 km/h
1427 17-03-2020 22:50:00 7.4 C 7.08 g/m*3 7.4 C 0 km/h
1428 17-03-2020 22:55:00 7.4 C 7.08 g/m*3 7.4 C 0 km/h
1429 17-03-2020 23:00:00 7.3 C 7.03 g/m*3 7.3 C 0 km/h
1430 17-03-2020 23:05:00 7.3 C 7.11 g/m*3 7.3 C 0 km/h
1431 17-03-2020 23:10:00 7.2 C 7.06 g/m*3 7.2 C 0 km/h
1432 17-03-2020 23:15:00 7.2 C 7.06 g/m*3 7.2 C 0 km/h
1433 17-03-2020 23:20:00 7.1 C 7.02 g/m*3 7.1 C 0 km/h
1434 17-03-2020 23:25:00 7 C 6.97 g/m*3 7 C 0 km/h
1435 17-03-2020 23:30:00 7 C 7.05 g/m*3 7 C 0 km/h
1436 17-03-2020 23:35:00 6.9 C 7.01 g/m*3 6.9 C 0 km/h
1437 17-03-2020 23:40:00 6.8 C 6.88 g/m*3 6.8 C 0 km/h
1438 17-03-2020 23:45:00 6.8 C 6.96 g/m*3 6.8 C 0 km/h
1439 17-03-2020 23:50:00 6.7 C 6.91 g/m*3 6.7 C 0 km/h
1440 17-03-2020 23:55:00 6.8 C 7.04 g/m*3 6.8 C 0 km/h
1441 18-03-2020 00:00:00 6.8 C 7.04 g/m*3 6.8 C 0 km/h
1442 18-03-2020 00:05:00 6.8 C 6.96 g/m*3 6.8 C 0 km/h
1443 18-03-2020 00:10:00 6.7 C 6.91 g/m*3 6.7 C 0 km/h
1444 18-03-2020 00:15:00 6.7 C 6.99 g/m*3 6.7 C 0 km/h
1445 18-03-2020 00:20:00 6.6 C 6.95 g/m*3 6.6 C 0 km/h
1446 18-03-2020 00:25:00 6.6 C 6.95 g/m*3 6.6 C 0 km/h
1447 18-03-2020 00:30:00 6.6 C 6.95 g/m*3 6.6 C 0 km/h
1448 18-03-2020 00:35:00 6.6 C 6.95 g/m*3 6.6 C 0 km/h
1449 18-03-2020 00:40:00 6.5 C 6.9 g/m*3 6.5 C 0 km/h
1450 18-03-2020 00:45:00 6.5 C 6.9 g/m*3 6.5 C 0 km/h
Sensor: Nr:Datum:Temp:Abs-Feuchte:Windchill:Wind:
Aussen-T/F 1451 18-03-2020 00:50:00 6.5 C 6.9 g/m*3 6.5 C 0 km/h
1452 18-03-2020 00:55:00 6.6 C 7.02 g/m*3 6.6 C 0 km/h
1453 18-03-2020 01:00:00 6.6 C 7.02 g/m*3 6.6 C 0 km/h
1454 18-03-2020 01:05:00 6.6 C 7.02 g/m*3 6.6 C 0 km/h
1455 18-03-2020 01:10:00 6.6 C 6.95 g/m*3 6.6 C 0 km/h
1456 18-03-2020 01:15:00 6.6 C 7.02 g/m*3 6.6 C 0 km/h
1457 18-03-2020 01:20:00 6.5 C 6.9 g/m*3 6.5 C 0 km/h
1458 18-03-2020 01:25:00 6.3 C 6.81 g/m*3 6.3 C 0 km/h
1459 18-03-2020 01:30:00 6.2 C 6.77 g/m*3 6.2 C 0 km/h
1460 18-03-2020 01:35:00 6.3 C 6.88 g/m*3 6.3 C 0 km/h
1461 18-03-2020 01:40:00 6.2 C 6.84 g/m*3 6.2 C 0 km/h
1462 18-03-2020 01:45:00 6.2 C 6.84 g/m*3 6.2 C 0 km/h
1463 18-03-2020 01:50:00 6.2 C 6.84 g/m*3 6.2 C 0 km/h
1464 18-03-2020 01:55:00 6.3 C 6.88 g/m*3 6.3 C 1.6 km/h
1465 18-03-2020 02:00:00 6.3 C 6.88 g/m*3 6.3 C 1.6 km/h
1466 18-03-2020 02:05:00 6.3 C 6.88 g/m*3 6.3 C 0 km/h
1467 18-03-2020 02:10:00 6.2 C 6.84 g/m*3 6.2 C 0 km/h
1468 18-03-2020 02:15:00 6.1 C 6.79 g/m*3 6.1 C 1.6 km/h
1469 18-03-2020 02:20:00 6 C 6.75 g/m*3 6 C 0 km/h
1470 18-03-2020 02:25:00 5.8 C 6.66 g/m*3 5.8 C 0 km/h
1471 18-03-2020 02:30:00 5.7 C 6.62 g/m*3 5.7 C 0 km/h
1472 18-03-2020 02:35:00 5.6 C 6.57 g/m*3 5.6 C 0 km/h
1473 18-03-2020 02:40:00 5.5 C 6.53 g/m*3 5.5 C 1.6 km/h
1474 18-03-2020 02:45:00 5.4 C 6.49 g/m*3 5.4 C 0 km/h
1475 18-03-2020 02:50:00 5.3 C 6.45 g/m*3 5.3 C 0 km/h
Sensor: Nr:Datum:Temp:Abs-Feuchte:Windchill:Wind:
Aussen-T/F 1476 18-03-2020 02:55:00 5.3 C 6.45 g/m*3 5.3 C 0 km/h
1477 18-03-2020 03:00:00 5.2 C 6.4 g/m*3 5.2 C 0 km/h
1478 18-03-2020 03:05:00 5.2 C 6.4 g/m*3 5.2 C 0 km/h
1479 18-03-2020 03:10:00 5.1 C 6.43 g/m*3 5.1 C 0 km/h
1480 18-03-2020 03:15:00 5.1 C 6.43 g/m*3 5.1 C 0 km/h
1481 18-03-2020 03:20:00 5 C 6.39 g/m*3 5 C 0 km/h
1482 18-03-2020 03:25:00 5.1 C 6.43 g/m*3 5.1 C 0 km/h
1483 18-03-2020 03:30:00 5 C 6.39 g/m*3 5 C 0 km/h
1484 18-03-2020 03:35:00 4.9 C 6.35 g/m*3 4.9 C 0 km/h
1485 18-03-2020 03:40:00 4.8 C 6.3 g/m*3 4.8 C 0 km/h
1486 18-03-2020 03:45:00 4.8 C 6.3 g/m*3 4.8 C 0 km/h
1487 18-03-2020 03:50:00 4.8 C 6.3 g/m*3 4.8 C 0 km/h
1488 18-03-2020 03:55:00 4.7 C 6.26 g/m*3 4.7 C 0 km/h
1489 18-03-2020 04:00:00 4.7 C 6.26 g/m*3 4.7 C 0 km/h
1490 18-03-2020 04:05:00 4.6 C 6.22 g/m*3 4.6 C 0 km/h
1491 18-03-2020 04:10:00 4.6 C 6.22 g/m*3 4.6 C 0 km/h
1492 18-03-2020 04:15:00 4.5 C 6.24 g/m*3 4.5 C 0 km/h
1493 18-03-2020 04:20:00 4.5 C 6.24 g/m*3 4.5 C 0 km/h
1494 18-03-2020 04:25:00 4.4 C 6.2 g/m*3 4.4 C 0 km/h
1495 18-03-2020 04:30:00 4.4 C 6.2 g/m*3 4.4 C 0 km/h
1496 18-03-2020 04:35:00 4.5 C 6.24 g/m*3 4.5 C 0 km/h
1497 18-03-2020 04:40:00 4.6 C 6.29 g/m*3 4.6 C 0 km/h
1498 18-03-2020 04:45:00 4.6 C 6.29 g/m*3 4.6 C 0 km/h
1499 18-03-2020 04:50:00 4.4 C 6.2 g/m*3 4.4 C 0 km/h
1500 18-03-2020 04:55:00 4.3 C 6.16 g/m*3 4.3 C 0 km/h
Sensor: Nr:Datum:Temp:Abs-Feuchte:Windchill:Wind:
Aussen-T/F 1501 18-03-2020 05:00:00 4.3 C 6.16 g/m*3 4.3 C 0 km/h
1502 18-03-2020 05:05:00 4.2 C 6.12 g/m*3 4.2 C 0 km/h
1503 18-03-2020 05:10:00 4.2 C 6.12 g/m*3 4.2 C 0 km/h
1504 18-03-2020 05:15:00 4.2 C 6.12 g/m*3 4.2 C 0 km/h
1505 18-03-2020 05:20:00 4.3 C 6.16 g/m*3 4.3 C 3.2 km/h
1506 18-03-2020 05:25:00 4.3 C 6.16 g/m*3 4.3 C 0 km/h
1507 18-03-2020 05:30:00 4.2 C 6.12 g/m*3 4.2 C 0 km/h
1508 18-03-2020 05:35:00 4.1 C 6.08 g/m*3 4.1 C 0 km/h
1509 18-03-2020 05:40:00 4.1 C 6.08 g/m*3 4.1 C 0 km/h
1510 18-03-2020 05:45:00 4.1 C 6.08 g/m*3 4.1 C 0 km/h
1511 18-03-2020 05:50:00 4.1 C 6.08 g/m*3 4.1 C 0 km/h
1512 18-03-2020 05:55:00 4.2 C 6.19 g/m*3 4.2 C 0 km/h
1513 18-03-2020 06:00:00 4.2 C 6.19 g/m*3 4.2 C 0 km/h
1514 18-03-2020 06:05:00 4.1 C 6.14 g/m*3 4.1 C 0 km/h
1515 18-03-2020 06:10:00 3.9 C 6 g/m*3 3.9 C 0 km/h
1516 18-03-2020 06:15:00 3.9 C 6 g/m*3 3.9 C 1.6 km/h
1517 18-03-2020 06:20:00 3.9 C 6.06 g/m*3 3.9 C 0 km/h
1518 18-03-2020 06:25:00 3.9 C 6.06 g/m*3 3.9 C 0 km/h
1519 18-03-2020 06:30:00 3.8 C 6.02 g/m*3 3.8 C 0 km/h
1520 18-03-2020 06:35:00 3.8 C 6.02 g/m*3 3.8 C 0 km/h
1521 18-03-2020 06:40:00 3.8 C 6.02 g/m*3 3.8 C 0 km/h
1522 18-03-2020 06:45:00 3.9 C 6.06 g/m*3 3.9 C 0 km/h
1523 18-03-2020 06:50:00 3.9 C 6.06 g/m*3 3.9 C 0 km/h
1524 18-03-2020 06:55:00 3.9 C 6.06 g/m*3 3.9 C 0 km/h
1525 18-03-2020 07:00:00 4.1 C 6.14 g/m*3 4.1 C 3.2 km/h
Sensor: Nr:Datum:Temp:Abs-Feuchte:Windchill:Wind:
Aussen-T/F 1526 18-03-2020 07:05:00 4.2 C 6.19 g/m*3 4.2 C 0 km/h
1527 18-03-2020 07:10:00 4.3 C 6.23 g/m*3 4.3 C 4.8 km/h
1528 18-03-2020 07:15:00 4.3 C 6.23 g/m*3 4.3 C 0 km/h
1529 18-03-2020 07:20:00 4.2 C 6.19 g/m*3 4.2 C 0 km/h
1530 18-03-2020 07:25:00 4.1 C 6.14 g/m*3 4.1 C 0 km/h
1531 18-03-2020 07:30:00 4.1 C 6.14 g/m*3 4.1 C 0 km/h
1532 18-03-2020 07:35:00 4.2 C 6.19 g/m*3 4.2 C 1.6 km/h
1533 18-03-2020 07:40:00 4.4 C 6.27 g/m*3 4.4 C 3.2 km/h
1534 18-03-2020 07:45:00 4.6 C 6.35 g/m*3 4.6 C 1.6 km/h
1535 18-03-2020 07:50:00 4.6 C 6.35 g/m*3 4.6 C 0 km/h
1536 18-03-2020 07:55:00 4.6 C 6.35 g/m*3 4.6 C 3.2 km/h
1537 18-03-2020 08:00:00 4.8 C 6.44 g/m*3 4.8 C 4.8 km/h
1538 18-03-2020 08:05:00 4.9 C 6.48 g/m*3 4.9 C 0 km/h
1539 18-03-2020 08:10:00 5.1 C 6.63 g/m*3 5.1 C 3.2 km/h
1540 18-03-2020 08:15:00 5.1 C 6.63 g/m*3 5.1 C 1.6 km/h
1541 18-03-2020 08:20:00 5.2 C 6.68 g/m*3 5.2 C 0 km/h
1542 18-03-2020 08:25:00 5.2 C 6.61 g/m*3 5.2 C 3.2 km/h
1543 18-03-2020 08:30:00 5.3 C 6.65 g/m*3 5.3 C 1.6 km/h
1544 18-03-2020 08:35:00 5.3 C 6.65 g/m*3 5.3 C 0 km/h
1545 18-03-2020 08:40:00 5.4 C 6.77 g/m*3 5.4 C 0 km/h
1546 18-03-2020 08:45:00 5.6 C 6.86 g/m*3 5.6 C 0 km/h
1547 18-03-2020 08:50:00 5.7 C 6.9 g/m*3 5.7 C 0 km/h
1548 18-03-2020 08:55:00 5.7 C 6.9 g/m*3 5.7 C 0 km/h
1549 18-03-2020 09:00:00 5.9 C 6.99 g/m*3 5.9 C 0 km/h
1550 18-03-2020 09:05:00 6.2 C 7.13 g/m*3 6.2 C 1.6 km/h
Sensor: Nr:Datum:Temp:Abs-Feuchte:Windchill:Wind:
Aussen-T/F 1551 18-03-2020 09:10:00 6.5 C 7.27 g/m*3 5.33 C 6.4 km/h
1552 18-03-2020 09:15:00 6.8 C 7.42 g/m*3 6.8 C 1.6 km/h
1553 18-03-2020 09:20:00 7.1 C 7.57 g/m*3 7.1 C 0 km/h
1554 18-03-2020 09:25:00 7.4 C 7.71 g/m*3 7.4 C 3.2 km/h
1555 18-03-2020 09:30:00 7.9 C 7.97 g/m*3 6.94 C 6.4 km/h
1556 18-03-2020 09:35:00 8.5 C 8.28 g/m*3 7.64 C 6.4 km/h
1557 18-03-2020 09:40:00 8.8 C 8.44 g/m*3 8.8 C 4.8 km/h
1558 18-03-2020 09:45:00 9 C 8.64 g/m*3 8.21 C 6.4 km/h
1559 18-03-2020 09:50:00 9.3 C 8.72 g/m*3 9.3 C 4.8 km/h
1560 18-03-2020 09:55:00 9.5 C 8.74 g/m*3 9.5 C 4.8 km/h
1561 18-03-2020 10:00:00 9.7 C 8.76 g/m*3 9.02 C 6.4 km/h
1562 18-03-2020 10:05:00 9.9 C 8.68 g/m*3 9.9 C 4.8 km/h
1563 18-03-2020 10:10:00 10.2 C 8.76 g/m*3 10.2 C 4.8 km/h
1564 18-03-2020 10:15:00 10.4 C 8.77 g/m*3 10.4 C 4.8 km/h
1565 18-03-2020 10:20:00 10.6 C 8.88 g/m*3 10.6 C 3.2 km/h
1566 18-03-2020 10:25:00 10.8 C 8.8 g/m*3 10.8 C 3.2 km/h
1567 18-03-2020 10:30:00 11 C 8.81 g/m*3 11 C 4.8 km/h
1568 18-03-2020 10:35:00 11.2 C 8.82 g/m*3 11.2 C 4.8 km/h
1569 18-03-2020 10:40:00 11.3 C 8.87 g/m*3 11.3 C 3.2 km/h
1570 18-03-2020 10:45:00 11.4 C 8.93 g/m*3 11.4 C 6.4 km/h
1571 18-03-2020 10:50:00 11.6 C 8.94 g/m*3 11.6 C 6.4 km/h
1572 18-03-2020 10:55:00 11.8 C 8.95 g/m*3 11.8 C 8.1 km/h
1573 18-03-2020 11:00:00 11.9 C 9 g/m*3 11.9 C 8.1 km/h
1574 18-03-2020 11:05:00 12 C 8.95 g/m*3 12 C 6.4 km/h
1575 18-03-2020 11:10:00 12.1 C 8.9 g/m*3 12.1 C 6.4 km/h
Sensor: Nr:Datum:Temp:Abs-Feuchte:Windchill:Wind:
Aussen-T/F 1576 18-03-2020 11:15:00 12.2 C 8.96 g/m*3 12.2 C 4.8 km/h
1577 18-03-2020 11:20:00 12.3 C 9.01 g/m*3 12.3 C 6.4 km/h
1578 18-03-2020 11:25:00 12.4 C 8.96 g/m*3 12.4 C 6.4 km/h
1579 18-03-2020 11:30:00 12.6 C 9.07 g/m*3 12.6 C 4.8 km/h
1580 18-03-2020 11:35:00 12.7 C 9.02 g/m*3 12.7 C 8.1 km/h
1581 18-03-2020 11:40:00 12.8 C 9.07 g/m*3 12.8 C 6.4 km/h
1582 18-03-2020 11:45:00 13 C 9.19 g/m*3 13 C 6.4 km/h
1583 18-03-2020 11:50:00 13.2 C 9.3 g/m*3 13.2 C 3.2 km/h
1584 18-03-2020 11:55:00 13.3 C 9.13 g/m*3 13.3 C 3.2 km/h
1585 18-03-2020 12:00:00 13.4 C 9.18 g/m*3 13.4 C 6.4 km/h
1586 18-03-2020 12:05:00 13.6 C 9.3 g/m*3 13.6 C 6.4 km/h
1587 18-03-2020 12:10:00 13.8 C 9.41 g/m*3 13.8 C 4.8 km/h
1588 18-03-2020 12:15:00 13.9 C 9.35 g/m*3 13.9 C 8.1 km/h
1589 18-03-2020 12:20:00 14.2 C 9.52 g/m*3 14.2 C 1.6 km/h
1590 18-03-2020 12:25:00 14.3 C 9.34 g/m*3 14.3 C 1.6 km/h
1591 18-03-2020 12:30:00 14.6 C 9.51 g/m*3 14.6 C 0 km/h
1592 18-03-2020 12:35:00 14.7 C 9.57 g/m*3 14.7 C 0 km/h
1593 18-03-2020 12:40:00 14.8 C 9.5 g/m*3 14.8 C 0 km/h
1594 18-03-2020 12:45:00 15.1 C 9.55 g/m*3 15.1 C 3.2 km/h
1595 18-03-2020 12:50:00 15.2 C 9.48 g/m*3 15.2 C 4.8 km/h
1596 18-03-2020 12:55:00 15.3 C 9.4 g/m*3 15.3 C 1.6 km/h
1597 18-03-2020 13:00:00 15.7 C 9.23 g/m*3 15.7 C 4.8 km/h
1598 18-03-2020 13:05:00 16.2 C 9.38 g/m*3 16.2 C 8.1 km/h
1599 18-03-2020 13:10:00 16.5 C 9.27 g/m*3 16.5 C 12.9 km/h
1600 18-03-2020 13:15:00 16.8 C 9.29 g/m*3 16.8 C 9.7 km/h
Sensor: Nr:Datum:Temp:Abs-Feuchte:Windchill:Wind:
Aussen-T/F 1601 18-03-2020 13:20:00 17.1 C 9.03 g/m*3 17.1 C 9.7 km/h
1602 18-03-2020 13:25:00 17.1 C 9.17 g/m*3 17.1 C 9.7 km/h
1603 18-03-2020 13:30:00 17.2 C 9.08 g/m*3 17.2 C 9.7 km/h
1604 18-03-2020 13:35:00 17 C 8.83 g/m*3 17 C 9.7 km/h
1605 18-03-2020 13:40:00 16.9 C 8.77 g/m*3 16.9 C 4.8 km/h
1606 18-03-2020 13:45:00 16.7 C 8.81 g/m*3 16.7 C 8.1 km/h
1607 18-03-2020 13:50:00 16.6 C 8.9 g/m*3 16.6 C 4.8 km/h
1608 18-03-2020 13:55:00 16.4 C 8.79 g/m*3 16.4 C 6.4 km/h
1609 18-03-2020 14:00:00 16.3 C 8.6 g/m*3 16.3 C 6.4 km/h
1610 18-03-2020 14:05:00 16.2 C 8.69 g/m*3 16.2 C 6.4 km/h
1611 18-03-2020 14:10:00 16.4 C 8.93 g/m*3 16.4 C 8.1 km/h
1612 18-03-2020 14:15:00 16.6 C 8.48 g/m*3 16.6 C 6.4 km/h
1613 18-03-2020 14:20:00 16.6 C 8.48 g/m*3 16.6 C 8.1 km/h
1614 18-03-2020 14:25:00 16.6 C 8.62 g/m*3 16.6 C 8.1 km/h
1615 18-03-2020 14:30:00 16.7 C 8.38 g/m*3 16.7 C 12.9 km/h
1616 18-03-2020 14:35:00 16.7 C 8.38 g/m*3 16.7 C 8.1 km/h
1617 18-03-2020 14:40:00 16.8 C 8.44 g/m*3 16.8 C 6.4 km/h
1618 18-03-2020 14:45:00 16.8 C 8.44 g/m*3 16.8 C 9.7 km/h
1619 18-03-2020 14:50:00 16.6 C 8.48 g/m*3 16.6 C 8.1 km/h
1620 18-03-2020 14:55:00 16.5 C 8.57 g/m*3 16.5 C 4.8 km/h
1621 18-03-2020 15:00:00 16.6 C 8.62 g/m*3 16.6 C 4.8 km/h
1622 18-03-2020 15:05:00 16.7 C 8.67 g/m*3 16.7 C 9.7 km/h
1623 18-03-2020 15:10:00 16.9 C 8.63 g/m*3 16.9 C 4.8 km/h
1624 18-03-2020 15:15:00 17 C 8.68 g/m*3 17 C 8.1 km/h
1625 18-03-2020 15:20:00 17.1 C 8.88 g/m*3 17.1 C 4.8 km/h
Sensor: Nr:Datum:Temp:Abs-Feuchte:Windchill:Wind:
Aussen-T/F 1626 18-03-2020 15:25:00 17 C 8.83 g/m*3 17 C 4.8 km/h
1627 18-03-2020 15:30:00 17 C 8.68 g/m*3 17 C 3.2 km/h
1628 18-03-2020 15:35:00 17 C 8.83 g/m*3 17 C 4.8 km/h
1629 18-03-2020 15:40:00 16.9 C 8.63 g/m*3 16.9 C 8.1 km/h
1630 18-03-2020 15:45:00 16.9 C 8.92 g/m*3 16.9 C 4.8 km/h
1631 18-03-2020 15:50:00 16.8 C 8.58 g/m*3 16.8 C 8.1 km/h
1632 18-03-2020 15:55:00 16.7 C 8.53 g/m*3 16.7 C 9.7 km/h
1633 18-03-2020 16:00:00 16.6 C 8.62 g/m*3 16.6 C 6.4 km/h
1634 18-03-2020 16:05:00 16.6 C 8.62 g/m*3 16.6 C 9.7 km/h
1635 18-03-2020 16:10:00 16.5 C 8.71 g/m*3 16.5 C 4.8 km/h
1636 18-03-2020 16:15:00 16.4 C 8.65 g/m*3 16.4 C 9.7 km/h
1637 18-03-2020 16:20:00 16.3 C 8.6 g/m*3 16.3 C 8.1 km/h
1638 18-03-2020 16:25:00 16.3 C 8.46 g/m*3 16.3 C 14.5 km/h
1639 18-03-2020 16:30:00 16.3 C 8.46 g/m*3 16.3 C 9.7 km/h
1640 18-03-2020 16:35:00 16.3 C 8.32 g/m*3 16.3 C 11.3 km/h
1641 18-03-2020 16:40:00 16.2 C 8.27 g/m*3 16.2 C 9.7 km/h
1642 18-03-2020 16:45:00 16.2 C 8.27 g/m*3 16.2 C 12.9 km/h
1643 18-03-2020 16:50:00 16.2 C 8.41 g/m*3 16.2 C 8.1 km/h
1644 18-03-2020 16:55:00 16.1 C 8.36 g/m*3 16.1 C 9.7 km/h
1645 18-03-2020 17:00:00 16 C 8.31 g/m*3 16 C 9.7 km/h
1646 18-03-2020 17:05:00 15.9 C 8.26 g/m*3 15.9 C 9.7 km/h
1647 18-03-2020 17:10:00 15.9 C 8.26 g/m*3 15.9 C 11.3 km/h
1648 18-03-2020 17:15:00 15.8 C 8.35 g/m*3 15.8 C 4.8 km/h
1649 18-03-2020 17:20:00 15.8 C 8.35 g/m*3 15.8 C 4.8 km/h
1650 18-03-2020 17:25:00 15.8 C 8.48 g/m*3 15.8 C 8.1 km/h
Sensor: Nr:Datum:Temp:Abs-Feuchte:Windchill:Wind:
Aussen-T/F 1651 18-03-2020 17:30:00 15.7 C 8.16 g/m*3 15.7 C 8.1 km/h
1652 18-03-2020 17:35:00 15.7 C 8.16 g/m*3 15.7 C 9.7 km/h
1653 18-03-2020 17:40:00 15.8 C 8.21 g/m*3 15.8 C 6.4 km/h
1654 18-03-2020 17:45:00 16.2 C 8.27 g/m*3 16.2 C 8.1 km/h
1655 18-03-2020 17:50:00 16.6 C 8.33 g/m*3 16.6 C 6.4 km/h
1656 18-03-2020 17:55:00 16.7 C 8.24 g/m*3 16.7 C 6.4 km/h
1657 18-03-2020 18:00:00 16.7 C 8.38 g/m*3 16.7 C 6.4 km/h
1658 18-03-2020 18:05:00 16.6 C 8.62 g/m*3 16.6 C 6.4 km/h
1659 18-03-2020 18:10:00 16.4 C 8.23 g/m*3 16.4 C 6.4 km/h
1660 18-03-2020 18:15:00 16.3 C 8.6 g/m*3 16.3 C 3.2 km/h
1661 18-03-2020 18:20:00 16.2 C 8.69 g/m*3 16.2 C 4.8 km/h
1662 18-03-2020 18:25:00 15.8 C 8.35 g/m*3 15.8 C 3.2 km/h
1663 18-03-2020 18:30:00 15.6 C 8.51 g/m*3 15.6 C 4.8 km/h
1664 18-03-2020 18:35:00 15.2 C 8.44 g/m*3 15.2 C 4.8 km/h
1665 18-03-2020 18:40:00 14.7 C 8.31 g/m*3 14.7 C 3.2 km/h
1666 18-03-2020 18:45:00 14.3 C 8.35 g/m*3 14.3 C 0 km/h
1667 18-03-2020 18:50:00 13.9 C 8.27 g/m*3 13.9 C 0 km/h
1668 18-03-2020 18:55:00 13.6 C 8.36 g/m*3 13.6 C 0 km/h
1669 18-03-2020 19:00:00 13.2 C 8.15 g/m*3 13.2 C 4.8 km/h
1670 18-03-2020 19:05:00 12.8 C 8.18 g/m*3 12.8 C 6.4 km/h
1671 18-03-2020 19:10:00 12.4 C 7.98 g/m*3 12.4 C 6.4 km/h
1672 18-03-2020 19:15:00 12.2 C 8.09 g/m*3 12.2 C 6.4 km/h
1673 18-03-2020 19:20:00 11.9 C 7.94 g/m*3 11.9 C 6.4 km/h
1674 18-03-2020 19:25:00 11.7 C 7.95 g/m*3 11.7 C 4.8 km/h
1675 18-03-2020 19:30:00 11.4 C 7.9 g/m*3 11.4 C 4.8 km/h
Sensor: Nr:Datum:Temp:Abs-Feuchte:Windchill:Wind:
Aussen-T/F 1676 18-03-2020 19:35:00 11.2 C 7.91 g/m*3 11.2 C 4.8 km/h
1677 18-03-2020 19:40:00 11.1 C 7.96 g/m*3 11.1 C 4.8 km/h
1678 18-03-2020 19:45:00 10.9 C 7.96 g/m*3 10.9 C 0 km/h
1679 18-03-2020 19:50:00 10.9 C 7.96 g/m*3 10.9 C 0 km/h
1680 18-03-2020 19:55:00 10.9 C 7.96 g/m*3 10.9 C 0 km/h
1681 18-03-2020 20:00:00 10.9 C 7.96 g/m*3 10.9 C 0 km/h
1682 18-03-2020 20:05:00 10.9 C 7.96 g/m*3 10.9 C 0 km/h
1683 18-03-2020 20:10:00 10.9 C 7.96 g/m*3 10.9 C 0 km/h
1684 18-03-2020 20:15:00 10.9 C 7.96 g/m*3 10.9 C 0 km/h
1685 18-03-2020 20:20:00 10.9 C 8.06 g/m*3 10.9 C 0 km/h
1686 18-03-2020 20:25:00 10.8 C 8.01 g/m*3 10.8 C 0 km/h
1687 18-03-2020 20:30:00 10.8 C 8.01 g/m*3 10.8 C 0 km/h
1688 18-03-2020 20:35:00 10.7 C 8.05 g/m*3 10.7 C 0 km/h
1689 18-03-2020 20:40:00 10.7 C 8.05 g/m*3 10.7 C 0 km/h
1690 18-03-2020 20:45:00 10.6 C 8 g/m*3 10.6 C 0 km/h
1691 18-03-2020 20:50:00 10.6 C 8 g/m*3 10.6 C 0 km/h
1692 18-03-2020 20:55:00 10.6 C 8 g/m*3 10.6 C 0 km/h
1693 18-03-2020 21:00:00 10.5 C 8.05 g/m*3 10.5 C 0 km/h
1694 18-03-2020 21:05:00 10.4 C 8 g/m*3 10.4 C 0 km/h
1695 18-03-2020 21:10:00 10.3 C 7.95 g/m*3 10.3 C 0 km/h
1696 18-03-2020 21:15:00 10.3 C 7.85 g/m*3 10.3 C 0 km/h
1697 18-03-2020 21:20:00 10.2 C 7.8 g/m*3 10.2 C 0 km/h
1698 18-03-2020 21:25:00 10.2 C 7.9 g/m*3 10.2 C 0 km/h
1699 18-03-2020 21:30:00 10.1 C 7.75 g/m*3 10.1 C 0 km/h
1700 18-03-2020 21:35:00 10 C 7.8 g/m*3 10 C 0 km/h
Sensor: Nr:Datum:Temp:Abs-Feuchte:Windchill:Wind:
Aussen-T/F 1701 18-03-2020 21:40:00 9.8 C 7.7 g/m*3 9.8 C 0 km/h
1702 18-03-2020 21:45:00 9.7 C 7.65 g/m*3 9.7 C 0 km/h
1703 18-03-2020 21:50:00 9.6 C 7.69 g/m*3 9.6 C 0 km/h
1704 18-03-2020 21:55:00 9.4 C 7.6 g/m*3 9.4 C 0 km/h
1705 18-03-2020 22:00:00 9.3 C 7.55 g/m*3 9.3 C 0 km/h
1706 18-03-2020 22:05:00 9.2 C 7.59 g/m*3 9.2 C 0 km/h
1707 18-03-2020 22:10:00 9.1 C 7.54 g/m*3 9.1 C 0 km/h
1708 18-03-2020 22:15:00 8.9 C 7.53 g/m*3 8.9 C 0 km/h
1709 18-03-2020 22:20:00 8.8 C 7.49 g/m*3 8.8 C 0 km/h
1710 18-03-2020 22:25:00 8.7 C 7.52 g/m*3 8.7 C 0 km/h
1711 18-03-2020 22:30:00 8.7 C 7.52 g/m*3 8.7 C 0 km/h
1712 18-03-2020 22:35:00 8.6 C 7.48 g/m*3 8.6 C 0 km/h
1713 18-03-2020 22:40:00 8.6 C 7.56 g/m*3 8.6 C 0 km/h
1714 18-03-2020 22:45:00 8.5 C 7.51 g/m*3 8.5 C 0 km/h
1715 18-03-2020 22:50:00 8.5 C 7.6 g/m*3 8.5 C 0 km/h
1716 18-03-2020 22:55:00 8.5 C 7.6 g/m*3 8.5 C 0 km/h
1717 18-03-2020 23:00:00 8.5 C 7.6 g/m*3 8.5 C 0 km/h
1718 18-03-2020 23:05:00 8.5 C 7.6 g/m*3 8.5 C 0 km/h
1719 18-03-2020 23:10:00 8.5 C 7.6 g/m*3 8.5 C 0 km/h
1720 18-03-2020 23:15:00 8.5 C 7.6 g/m*3 8.5 C 0 km/h
1721 18-03-2020 23:20:00 8.5 C 7.6 g/m*3 8.5 C 0 km/h
1722 18-03-2020 23:25:00 8.5 C 7.6 g/m*3 8.5 C 0 km/h
1723 18-03-2020 23:30:00 8.4 C 7.55 g/m*3 8.4 C 0 km/h
1724 18-03-2020 23:35:00 8.4 C 7.55 g/m*3 8.4 C 0 km/h
1725 18-03-2020 23:40:00 8.4 C 7.55 g/m*3 8.4 C 0 km/h
Sensor: Nr:Datum:Temp:Abs-Feuchte:Windchill:Wind:
Aussen-T/F 1726 18-03-2020 23:45:00 8.4 C 7.55 g/m*3 8.4 C 0 km/h
1727 18-03-2020 23:50:00 8.4 C 7.55 g/m*3 8.4 C 0 km/h
1728 18-03-2020 23:55:00 8.4 C 7.72 g/m*3 8.4 C 0 km/h
1729 19-03-2020 00:00:00 8.6 C 7.73 g/m*3 7.75 C 6.4 km/h
1730 19-03-2020 00:05:00 8.8 C 7.66 g/m*3 8.8 C 4.8 km/h
1731 19-03-2020 00:10:00 8.9 C 7.71 g/m*3 8.1 C 6.4 km/h
1732 19-03-2020 00:15:00 9 C 7.67 g/m*3 9 C 4.8 km/h
1733 19-03-2020 00:20:00 9.1 C 7.72 g/m*3 9.1 C 1.6 km/h
1734 19-03-2020 00:25:00 9.1 C 7.72 g/m*3 9.1 C 3.2 km/h
1735 19-03-2020 00:30:00 9.1 C 7.63 g/m*3 9.1 C 0 km/h
1736 19-03-2020 00:35:00 9.2 C 7.68 g/m*3 9.2 C 4.8 km/h
1737 19-03-2020 00:40:00 9.2 C 7.68 g/m*3 9.2 C 3.2 km/h
1738 19-03-2020 00:45:00 9.2 C 7.68 g/m*3 9.2 C 1.6 km/h
1739 19-03-2020 00:50:00 9.3 C 7.73 g/m*3 9.3 C 4.8 km/h
1740 19-03-2020 00:55:00 9.3 C 7.73 g/m*3 9.3 C 3.2 km/h
1741 19-03-2020 01:00:00 9.3 C 7.64 g/m*3 9.3 C 1.6 km/h
1742 19-03-2020 01:05:00 9.3 C 7.64 g/m*3 9.3 C 3.2 km/h
1743 19-03-2020 01:10:00 9.3 C 7.64 g/m*3 9.3 C 1.6 km/h
1744 19-03-2020 01:15:00 9.3 C 7.64 g/m*3 9.3 C 0 km/h
1745 19-03-2020 01:20:00 9.4 C 7.69 g/m*3 9.4 C 1.6 km/h
1746 19-03-2020 01:25:00 9.4 C 7.69 g/m*3 9.4 C 0 km/h
1747 19-03-2020 01:30:00 9.4 C 7.69 g/m*3 9.4 C 1.6 km/h
1748 19-03-2020 01:35:00 9.4 C 7.69 g/m*3 9.4 C 3.2 km/h
1749 19-03-2020 01:40:00 9.4 C 7.69 g/m*3 9.4 C 4.8 km/h
1750 19-03-2020 01:45:00 9.3 C 7.64 g/m*3 9.3 C 0 km/h
Sensor: Nr:Datum:Temp:Abs-Feuchte:Windchill:Wind:
Aussen-T/F 1751 19-03-2020 01:50:00 9.3 C 7.64 g/m*3 9.3 C 0 km/h
1752 19-03-2020 01:55:00 9.3 C 7.64 g/m*3 9.3 C 0 km/h
1753 19-03-2020 02:00:00 9.3 C 7.64 g/m*3 9.3 C 0 km/h
1754 19-03-2020 02:05:00 9.3 C 7.64 g/m*3 9.3 C 0 km/h
1755 19-03-2020 02:10:00 9.2 C 7.68 g/m*3 9.2 C 0 km/h
1756 19-03-2020 02:15:00 9.2 C 7.68 g/m*3 9.2 C 0 km/h
1757 19-03-2020 02:20:00 9.2 C 7.68 g/m*3 9.2 C 0 km/h
1758 19-03-2020 02:25:00 9.1 C 7.63 g/m*3 9.1 C 0 km/h
1759 19-03-2020 02:30:00 9.1 C 7.63 g/m*3 9.1 C 0 km/h
1760 19-03-2020 02:35:00 9.1 C 7.72 g/m*3 9.1 C 0 km/h
1761 19-03-2020 02:40:00 9 C 7.67 g/m*3 9 C 0 km/h
1762 19-03-2020 02:45:00 8.9 C 7.62 g/m*3 8.9 C 0 km/h
1763 19-03-2020 02:50:00 8.9 C 7.62 g/m*3 8.9 C 0 km/h
1764 19-03-2020 02:55:00 8.9 C 7.62 g/m*3 8.9 C 0 km/h
1765 19-03-2020 03:00:00 8.8 C 7.57 g/m*3 8.8 C 0 km/h
1766 19-03-2020 03:05:00 8.8 C 7.57 g/m*3 8.8 C 0 km/h
1767 19-03-2020 03:10:00 8.8 C 7.57 g/m*3 8.8 C 0 km/h
1768 19-03-2020 03:15:00 8.8 C 7.57 g/m*3 8.8 C 0 km/h
1769 19-03-2020 03:20:00 8.8 C 7.57 g/m*3 8.8 C 3.2 km/h
1770 19-03-2020 03:25:00 8.8 C 7.57 g/m*3 8.8 C 0 km/h
1771 19-03-2020 03:30:00 8.8 C 7.57 g/m*3 8.8 C 0 km/h
1772 19-03-2020 03:35:00 8.8 C 7.57 g/m*3 8.8 C 0 km/h
1773 19-03-2020 03:40:00 8.8 C 7.66 g/m*3 8.8 C 0 km/h
1774 19-03-2020 03:45:00 8.8 C 7.66 g/m*3 8.8 C 0 km/h
1775 19-03-2020 03:50:00 8.8 C 7.66 g/m*3 8.8 C 0 km/h
Sensor: Nr:Datum:Temp:Abs-Feuchte:Windchill:Wind:
Aussen-T/F 1776 19-03-2020 03:55:00 8.8 C 7.66 g/m*3 8.8 C 0 km/h
1777 19-03-2020 04:00:00 8.8 C 7.66 g/m*3 8.8 C 0 km/h
1778 19-03-2020 04:05:00 8.8 C 7.66 g/m*3 8.8 C 0 km/h
1779 19-03-2020 04:10:00 8.7 C 7.61 g/m*3 8.7 C 0 km/h
1780 19-03-2020 04:15:00 8.8 C 7.75 g/m*3 8.8 C 0 km/h
1781 19-03-2020 04:20:00 8.8 C 7.75 g/m*3 8.8 C 0 km/h
1782 19-03-2020 04:25:00 8.8 C 7.75 g/m*3 8.8 C 0 km/h
1783 19-03-2020 04:30:00 8.7 C 7.61 g/m*3 8.7 C 0 km/h
1784 19-03-2020 04:35:00 8.8 C 7.66 g/m*3 8.8 C 0 km/h
1785 19-03-2020 04:40:00 8.7 C 7.7 g/m*3 8.7 C 0 km/h
1786 19-03-2020 04:45:00 8.7 C 7.61 g/m*3 8.7 C 0 km/h
1787 19-03-2020 04:50:00 8.7 C 7.61 g/m*3 8.7 C 0 km/h
1788 19-03-2020 04:55:00 8.8 C 7.66 g/m*3 8.8 C 0 km/h
1789 19-03-2020 05:00:00 8.8 C 7.66 g/m*3 8.8 C 0 km/h
1790 19-03-2020 05:05:00 8.8 C 7.66 g/m*3 8.8 C 0 km/h
1791 19-03-2020 05:10:00 8.8 C 7.66 g/m*3 8.8 C 1.6 km/h
1792 19-03-2020 05:15:00 8.8 C 7.57 g/m*3 7.98 C 6.4 km/h
1793 19-03-2020 05:20:00 9 C 7.58 g/m*3 9 C 1.6 km/h
1794 19-03-2020 05:25:00 9.1 C 7.72 g/m*3 9.1 C 0 km/h
1795 19-03-2020 05:30:00 9.1 C 7.72 g/m*3 9.1 C 0 km/h
1796 19-03-2020 05:35:00 9.1 C 7.72 g/m*3 9.1 C 0 km/h
1797 19-03-2020 05:40:00 9 C 7.58 g/m*3 9 C 0 km/h
1798 19-03-2020 05:45:00 9 C 7.58 g/m*3 9 C 0 km/h
1799 19-03-2020 05:50:00 8.9 C 7.53 g/m*3 8.9 C 0 km/h
1800 19-03-2020 05:55:00 8.9 C 7.62 g/m*3 8.9 C 0 km/h
Sensor: Nr:Datum:Temp:Abs-Feuchte:Windchill:Wind:
Aussen-T/F 1801 19-03-2020 06:00:00 8.9 C 7.62 g/m*3 8.9 C 0 km/h
1802 19-03-2020 06:05:00 8.9 C 7.62 g/m*3 8.9 C 1.6 km/h
1803 19-03-2020 06:10:00 8.8 C 7.57 g/m*3 8.8 C 0 km/h
1804 19-03-2020 06:15:00 8.8 C 7.57 g/m*3 8.8 C 0 km/h
1805 19-03-2020 06:20:00 8.8 C 7.57 g/m*3 8.8 C 0 km/h
1806 19-03-2020 06:25:00 8.8 C 7.57 g/m*3 8.8 C 3.2 km/h
1807 19-03-2020 06:30:00 8.7 C 7.52 g/m*3 8.7 C 0 km/h
1808 19-03-2020 06:35:00 8.7 C 7.61 g/m*3 8.7 C 0 km/h
1809 19-03-2020 06:40:00 8.7 C 7.61 g/m*3 8.7 C 0 km/h
1810 19-03-2020 06:45:00 8.6 C 7.56 g/m*3 8.6 C 0 km/h
1811 19-03-2020 06:50:00 8.6 C 7.56 g/m*3 8.6 C 0 km/h
1812 19-03-2020 06:55:00 8.6 C 7.56 g/m*3 8.6 C 0 km/h
1813 19-03-2020 07:00:00 8.6 C 7.56 g/m*3 8.6 C 1.6 km/h
1814 19-03-2020 07:05:00 8.6 C 7.56 g/m*3 8.6 C 0 km/h
1815 19-03-2020 07:10:00 8.6 C 7.65 g/m*3 8.6 C 0 km/h
1816 19-03-2020 07:15:00 8.6 C 7.65 g/m*3 8.6 C 0 km/h
1817 19-03-2020 07:20:00 8.6 C 7.65 g/m*3 8.6 C 0 km/h
1818 19-03-2020 07:25:00 8.6 C 7.65 g/m*3 8.6 C 0 km/h
1819 19-03-2020 07:30:00 8.7 C 7.61 g/m*3 8.7 C 0 km/h
1820 19-03-2020 07:35:00 8.7 C 7.7 g/m*3 8.7 C 0 km/h
1821 19-03-2020 07:40:00 8.7 C 7.7 g/m*3 8.7 C 0 km/h
1822 19-03-2020 07:45:00 8.8 C 7.75 g/m*3 8.8 C 0 km/h
1823 19-03-2020 07:50:00 8.9 C 7.8 g/m*3 8.9 C 0 km/h
1824 19-03-2020 07:55:00 8.9 C 7.8 g/m*3 8.9 C 0 km/h
1825 19-03-2020 08:00:00 9.1 C 7.81 g/m*3 9.1 C 0 km/h
Sensor: Nr:Datum:Temp:Abs-Feuchte:Windchill:Wind:
Aussen-T/F 1826 19-03-2020 08:05:00 9.1 C 7.81 g/m*3 9.1 C 0 km/h
1827 19-03-2020 08:10:00 9.2 C 7.77 g/m*3 9.2 C 3.2 km/h
1828 19-03-2020 08:15:00 9.3 C 7.82 g/m*3 9.3 C 4.8 km/h
1829 19-03-2020 08:20:00 9.4 C 7.78 g/m*3 9.4 C 4.8 km/h
1830 19-03-2020 08:25:00 9.6 C 7.88 g/m*3 9.6 C 3.2 km/h
1831 19-03-2020 08:30:00 9.7 C 7.93 g/m*3 9.7 C 0 km/h
1832 19-03-2020 08:35:00 9.8 C 7.89 g/m*3 9.8 C 3.2 km/h
1833 19-03-2020 08:40:00 9.9 C 7.94 g/m*3 9.9 C 0 km/h
1834 19-03-2020 08:45:00 10 C 7.99 g/m*3 9.37 C 6.4 km/h
1835 19-03-2020 08:50:00 10.1 C 7.94 g/m*3 9.48 C 6.4 km/h
1836 19-03-2020 08:55:00 10.2 C 7.99 g/m*3 9.6 C 6.4 km/h
1837 19-03-2020 09:00:00 10.2 C 7.99 g/m*3 10.2 C 3.2 km/h
1838 19-03-2020 09:05:00 10.3 C 7.95 g/m*3 10.3 C 3.2 km/h
1839 19-03-2020 09:10:00 10.4 C 7.9 g/m*3 10.4 C 0 km/h
1840 19-03-2020 09:15:00 10.6 C 8 g/m*3 10.6 C 3.2 km/h
1841 19-03-2020 09:20:00 10.7 C 8.05 g/m*3 10.7 C 4.8 km/h
1842 19-03-2020 09:25:00 10.7 C 8.05 g/m*3 10.7 C 4.8 km/h
1843 19-03-2020 09:30:00 10.8 C 8.11 g/m*3 10.8 C 3.2 km/h
1844 19-03-2020 09:35:00 10.9 C 8.16 g/m*3 10.9 C 0 km/h
1845 19-03-2020 09:40:00 11 C 8.11 g/m*3 11 C 4.8 km/h
1846 19-03-2020 09:45:00 11 C 8.21 g/m*3 11 C 4.8 km/h
1847 19-03-2020 09:50:00 11.1 C 8.16 g/m*3 11.1 C 6.4 km/h
1848 19-03-2020 09:55:00 11.2 C 8.21 g/m*3 11.2 C 3.2 km/h
1849 19-03-2020 10:00:00 11.3 C 8.16 g/m*3 11.3 C 0 km/h
1850 19-03-2020 10:05:00 11.4 C 8.21 g/m*3 11.4 C 0 km/h
Sensor: Nr:Datum:Temp:Abs-Feuchte:Windchill:Wind:
Aussen-T/F 1851 19-03-2020 10:10:00 11.6 C 8.21 g/m*3 11.6 C 0 km/h
1852 19-03-2020 10:15:00 11.8 C 8.21 g/m*3 11.8 C 0 km/h
1853 19-03-2020 10:20:00 12 C 8.31 g/m*3 12 C 0 km/h
1854 19-03-2020 10:25:00 12.2 C 8.31 g/m*3 12.2 C 0 km/h
1855 19-03-2020 10:30:00 12.3 C 8.25 g/m*3 12.3 C 0 km/h
1856 19-03-2020 10:35:00 12.6 C 8.52 g/m*3 12.6 C 0 km/h
1857 19-03-2020 10:40:00 12.7 C 8.46 g/m*3 12.7 C 0 km/h
1858 19-03-2020 10:45:00 12.8 C 8.51 g/m*3 12.8 C 0 km/h
1859 19-03-2020 10:50:00 12.8 C 8.4 g/m*3 12.8 C 0 km/h
1860 19-03-2020 10:55:00 12.9 C 8.45 g/m*3 12.9 C 0 km/h
1861 19-03-2020 11:00:00 13.2 C 8.73 g/m*3 13.2 C 0 km/h
1862 19-03-2020 11:05:00 13.3 C 8.55 g/m*3 13.3 C 0 km/h
1863 19-03-2020 11:10:00 13.5 C 8.66 g/m*3 13.5 C 0 km/h
1864 19-03-2020 11:15:00 13.7 C 8.64 g/m*3 13.7 C 0 km/h
1865 19-03-2020 11:20:00 13.9 C 8.51 g/m*3 13.9 C 0 km/h
1866 19-03-2020 11:25:00 14.2 C 8.67 g/m*3 14.2 C 0 km/h
1867 19-03-2020 11:30:00 14.4 C 8.65 g/m*3 14.4 C 0 km/h
1868 19-03-2020 11:35:00 14.7 C 8.81 g/m*3 14.7 C 0 km/h
1869 19-03-2020 11:40:00 14.9 C 8.67 g/m*3 14.9 C 0 km/h
1870 19-03-2020 11:45:00 15.1 C 8.9 g/m*3 15.1 C 0 km/h
1871 19-03-2020 11:50:00 15.1 C 8.9 g/m*3 15.1 C 0 km/h
1872 19-03-2020 11:55:00 15.1 C 9.16 g/m*3 15.1 C 0 km/h
1873 19-03-2020 12:00:00 15.1 C 9.29 g/m*3 15.1 C 0 km/h
1874 19-03-2020 12:05:00 15.1 C 9.29 g/m*3 15.1 C 0 km/h
1875 19-03-2020 12:10:00 15.1 C 9.29 g/m*3 15.1 C 0 km/h
Sensor: Nr:Datum:Temp:Abs-Feuchte:Windchill:Wind:
Aussen-T/F 1876 19-03-2020 12:15:00 15.1 C 9.42 g/m*3 15.1 C 0 km/h
1877 19-03-2020 12:20:00 15.2 C 9.35 g/m*3 15.2 C 0 km/h
1878 19-03-2020 12:25:00 15.3 C 9.4 g/m*3 15.3 C 0 km/h
1879 19-03-2020 12:30:00 15.6 C 9.04 g/m*3 15.6 C 0 km/h
1880 19-03-2020 12:35:00 15.9 C 8.8 g/m*3 15.9 C 0 km/h
1881 19-03-2020 12:40:00 16.2 C 8.41 g/m*3 16.2 C 6.4 km/h
1882 19-03-2020 12:45:00 16.4 C 8.37 g/m*3 16.4 C 3.2 km/h
1883 19-03-2020 12:50:00 16.6 C 8.05 g/m*3 16.6 C 4.8 km/h
1884 19-03-2020 12:55:00 16.8 C 8.15 g/m*3 16.8 C 3.2 km/h
1885 19-03-2020 13:00:00 16.8 C 8.29 g/m*3 16.8 C 3.2 km/h
1886 19-03-2020 13:05:00 17.1 C 8.15 g/m*3 17.1 C 6.4 km/h
1887 19-03-2020 13:10:00 17.3 C 8.25 g/m*3 17.3 C 6.4 km/h
1888 19-03-2020 13:15:00 17.6 C 8.4 g/m*3 17.6 C 3.2 km/h
1889 19-03-2020 13:20:00 17.8 C 8.2 g/m*3 17.8 C 6.4 km/h
1890 19-03-2020 13:25:00 17.9 C 8.4 g/m*3 17.9 C 4.8 km/h
1891 19-03-2020 13:30:00 18.1 C 8.34 g/m*3 18.1 C 8.1 km/h
1892 19-03-2020 13:35:00 17.9 C 8.09 g/m*3 17.9 C 3.2 km/h
1893 19-03-2020 13:40:00 17.7 C 8.15 g/m*3 17.7 C 3.2 km/h
1894 19-03-2020 13:45:00 17.5 C 8.35 g/m*3 17.5 C 4.8 km/h
1895 19-03-2020 13:50:00 17.3 C 8.25 g/m*3 17.3 C 6.4 km/h
1896 19-03-2020 13:55:00 17.2 C 8.2 g/m*3 17.2 C 9.7 km/h
1897 19-03-2020 14:00:00 17.1 C 8.15 g/m*3 17.1 C 6.4 km/h
1898 19-03-2020 14:05:00 17.1 C 8.44 g/m*3 17.1 C 1.6 km/h
1899 19-03-2020 14:10:00 17.1 C 8.3 g/m*3 17.1 C 1.6 km/h
1900 19-03-2020 14:15:00 17.1 C 8.3 g/m*3 17.1 C 4.8 km/h
Sensor: Nr:Datum:Temp:Abs-Feuchte:Windchill:Wind:
Aussen-T/F 1901 19-03-2020 14:20:00 17.1 C 8.44 g/m*3 17.1 C 4.8 km/h
1902 19-03-2020 14:25:00 17.1 C 8.15 g/m*3 17.1 C 4.8 km/h
1903 19-03-2020 14:30:00 17.1 C 8.15 g/m*3 17.1 C 3.2 km/h
1904 19-03-2020 14:35:00 17.1 C 8.01 g/m*3 17.1 C 4.8 km/h
1905 19-03-2020 14:40:00 17.2 C 8.05 g/m*3 17.2 C 6.4 km/h
1906 19-03-2020 14:45:00 17.2 C 8.05 g/m*3 17.2 C 4.8 km/h
1907 19-03-2020 14:50:00 17.3 C 7.96 g/m*3 17.3 C 4.8 km/h
1908 19-03-2020 14:55:00 17.3 C 7.96 g/m*3 17.3 C 4.8 km/h
1909 19-03-2020 15:00:00 17.3 C 8.4 g/m*3 17.3 C 4.8 km/h
1910 19-03-2020 15:05:00 17.4 C 8.15 g/m*3 17.4 C 1.6 km/h
1911 19-03-2020 15:10:00 17.4 C 7.85 g/m*3 17.4 C 4.8 km/h
1912 19-03-2020 15:15:00 17.3 C 7.96 g/m*3 17.3 C 0 km/h
1913 19-03-2020 15:20:00 17.4 C 8.15 g/m*3 17.4 C 6.4 km/h
1914 19-03-2020 15:25:00 17.4 C 8.15 g/m*3 17.4 C 6.4 km/h
1915 19-03-2020 15:30:00 17.4 C 8 g/m*3 17.4 C 1.6 km/h
1916 19-03-2020 15:35:00 17.4 C 8 g/m*3 17.4 C 3.2 km/h
1917 19-03-2020 15:40:00 17.4 C 8.15 g/m*3 17.4 C 6.4 km/h
1918 19-03-2020 15:45:00 17.5 C 8.2 g/m*3 17.5 C 4.8 km/h
1919 19-03-2020 15:50:00 17.6 C 8.1 g/m*3 17.6 C 6.4 km/h
1920 19-03-2020 15:55:00 17.7 C 8.3 g/m*3 17.7 C 6.4 km/h
1921 19-03-2020 16:00:00 17.6 C 8.1 g/m*3 17.6 C 6.4 km/h
1922 19-03-2020 16:05:00 17.5 C 7.9 g/m*3 17.5 C 4.8 km/h
1923 19-03-2020 16:10:00 17.5 C 7.9 g/m*3 17.5 C 4.8 km/h
1924 19-03-2020 16:15:00 17.4 C 7.85 g/m*3 17.4 C 4.8 km/h
1925 19-03-2020 16:20:00 17.4 C 7.85 g/m*3 17.4 C 6.4 km/h
Sensor: Nr:Datum:Temp:Abs-Feuchte:Windchill:Wind:
Aussen-T/F 1926 19-03-2020 16:25:00 17.4 C 8 g/m*3 17.4 C 0 km/h
1927 19-03-2020 16:30:00 17.4 C 8 g/m*3 17.4 C 3.2 km/h
1928 19-03-2020 16:35:00 17.4 C 7.85 g/m*3 17.4 C 3.2 km/h
1929 19-03-2020 16:40:00 17.4 C 7.71 g/m*3 17.4 C 1.6 km/h
1930 19-03-2020 16:45:00 17.5 C 7.9 g/m*3 17.5 C 0 km/h
1931 19-03-2020 16:50:00 17.5 C 7.9 g/m*3 17.5 C 4.8 km/h
1932 19-03-2020 16:55:00 17.6 C 7.95 g/m*3 17.6 C 3.2 km/h
1933 19-03-2020 17:00:00 17.6 C 7.95 g/m*3 17.6 C 6.4 km/h
1934 19-03-2020 17:05:00 17.4 C 7.71 g/m*3 17.4 C 8.1 km/h
1935 19-03-2020 17:10:00 17.3 C 7.66 g/m*3 17.3 C 8.1 km/h
1936 19-03-2020 17:15:00 17.2 C 7.61 g/m*3 17.2 C 8.1 km/h
1937 19-03-2020 17:20:00 17.2 C 7.76 g/m*3 17.2 C 3.2 km/h
1938 19-03-2020 17:25:00 17.1 C 7.71 g/m*3 17.1 C 3.2 km/h
1939 19-03-2020 17:30:00 17 C 7.81 g/m*3 17 C 6.4 km/h
1940 19-03-2020 17:35:00 16.9 C 7.91 g/m*3 16.9 C 4.8 km/h
1941 19-03-2020 17:40:00 16.8 C 8.01 g/m*3 16.8 C 6.4 km/h
1942 19-03-2020 17:45:00 16.8 C 8.29 g/m*3 16.8 C 4.8 km/h
1943 19-03-2020 17:50:00 17 C 8.25 g/m*3 17 C 9.7 km/h
1944 19-03-2020 17:55:00 17.1 C 8.3 g/m*3 17.1 C 8.1 km/h
1945 19-03-2020 18:00:00 17.1 C 8.44 g/m*3 17.1 C 6.4 km/h
1946 19-03-2020 18:05:00 17.1 C 8.44 g/m*3 17.1 C 3.2 km/h
1947 19-03-2020 18:10:00 17.1 C 8.44 g/m*3 17.1 C 8.1 km/h
1948 19-03-2020 18:15:00 16.9 C 8.34 g/m*3 16.9 C 6.4 km/h
1949 19-03-2020 18:20:00 16.7 C 8.53 g/m*3 16.7 C 4.8 km/h
1950 19-03-2020 18:25:00 16.3 C 8.88 g/m*3 16.3 C 0 km/h
Sensor: Nr:Datum:Temp:Abs-Feuchte:Windchill:Wind:
Aussen-T/F 1951 19-03-2020 18:30:00 15.8 C 8.75 g/m*3 15.8 C 0 km/h
1952 19-03-2020 18:35:00 15.3 C 8.62 g/m*3 15.3 C 0 km/h
1953 19-03-2020 18:40:00 14.8 C 8.49 g/m*3 14.8 C 0 km/h
1954 19-03-2020 18:45:00 14.4 C 8.53 g/m*3 14.4 C 0 km/h
1955 19-03-2020 18:50:00 13.9 C 8.39 g/m*3 13.9 C 3.2 km/h
1956 19-03-2020 18:55:00 13.6 C 8.36 g/m*3 13.6 C 3.2 km/h
1957 19-03-2020 19:00:00 13.3 C 8.32 g/m*3 13.3 C 1.6 km/h
1958 19-03-2020 19:05:00 13 C 8.28 g/m*3 13 C 1.6 km/h
1959 19-03-2020 19:10:00 12.8 C 8.18 g/m*3 12.8 C 0 km/h
1960 19-03-2020 19:15:00 12.6 C 8.19 g/m*3 12.6 C 0 km/h
1961 19-03-2020 19:20:00 12.4 C 8.19 g/m*3 12.4 C 0 km/h
1962 19-03-2020 19:25:00 12.2 C 8.09 g/m*3 12.2 C 0 km/h
1963 19-03-2020 19:30:00 12.1 C 8.15 g/m*3 12.1 C 0 km/h
1964 19-03-2020 19:35:00 11.9 C 8.05 g/m*3 11.9 C 0 km/h
1965 19-03-2020 19:40:00 11.8 C 8.1 g/m*3 11.8 C 0 km/h
1966 19-03-2020 19:45:00 11.7 C 8.05 g/m*3 11.7 C 0 km/h
1967 19-03-2020 19:50:00 11.6 C 8.11 g/m*3 11.6 C 0 km/h
1968 19-03-2020 19:55:00 11.6 C 8.11 g/m*3 11.6 C 0 km/h
1969 19-03-2020 20:00:00 11.4 C 8.11 g/m*3 11.4 C 0 km/h
1970 19-03-2020 20:05:00 11.3 C 8.06 g/m*3 11.3 C 0 km/h
1971 19-03-2020 20:10:00 11.3 C 8.06 g/m*3 11.3 C 0 km/h
1972 19-03-2020 20:15:00 11.2 C 8.11 g/m*3 11.2 C 0 km/h
1973 19-03-2020 20:20:00 11.2 C 8.21 g/m*3 11.2 C 0 km/h
1974 19-03-2020 20:25:00 11.1 C 8.16 g/m*3 11.1 C 0 km/h
1975 19-03-2020 20:30:00 11.1 C 8.26 g/m*3 11.1 C 0 km/h
Sensor: Nr:Datum:Temp:Abs-Feuchte:Windchill:Wind:
Aussen-T/F 1976 19-03-2020 20:35:00 11.1 C 8.26 g/m*3 11.1 C 0 km/h
1977 19-03-2020 20:40:00 11.1 C 8.36 g/m*3 11.1 C 0 km/h
1978 19-03-2020 20:45:00 11.1 C 8.36 g/m*3 11.1 C 0 km/h
1979 19-03-2020 20:50:00 11.2 C 8.41 g/m*3 11.2 C 0 km/h
1980 19-03-2020 20:55:00 11.2 C 8.31 g/m*3 11.2 C 0 km/h
1981 19-03-2020 21:00:00 11.3 C 8.47 g/m*3 11.3 C 0 km/h
1982 19-03-2020 21:05:00 11.3 C 8.36 g/m*3 11.3 C 0 km/h
1983 19-03-2020 21:10:00 11.4 C 8.42 g/m*3 11.4 C 0 km/h
1984 19-03-2020 21:15:00 11.4 C 8.42 g/m*3 11.4 C 0 km/h
1985 19-03-2020 21:20:00 11.4 C 8.42 g/m*3 11.4 C 0 km/h
1986 19-03-2020 21:25:00 11.4 C 8.42 g/m*3 11.4 C 0 km/h
1987 19-03-2020 21:30:00 11.4 C 8.31 g/m*3 11.4 C 0 km/h
1988 19-03-2020 21:35:00 11.3 C 8.36 g/m*3 11.3 C 0 km/h
1989 19-03-2020 21:40:00 11.2 C 8.31 g/m*3 11.2 C 0 km/h
1990 19-03-2020 21:45:00 11.1 C 8.26 g/m*3 11.1 C 0 km/h
1991 19-03-2020 21:50:00 10.9 C 8.16 g/m*3 10.9 C 0 km/h
1992 19-03-2020 21:55:00 10.8 C 8.11 g/m*3 10.8 C 0 km/h
1993 19-03-2020 22:00:00 10.8 C 8.2 g/m*3 10.8 C 0 km/h
1994 19-03-2020 22:05:00 10.7 C 8.15 g/m*3 10.7 C 0 km/h
1995 19-03-2020 22:10:00 10.6 C 8.1 g/m*3 10.6 C 0 km/h
1996 19-03-2020 22:15:00 10.6 C 8.2 g/m*3 10.6 C 0 km/h
1997 19-03-2020 22:20:00 10.4 C 8.19 g/m*3 10.4 C 0 km/h
1998 19-03-2020 22:25:00 10.4 C 8.19 g/m*3 10.4 C 0 km/h
1999 19-03-2020 22:30:00 10.3 C 8.14 g/m*3 10.3 C 0 km/h
2000 19-03-2020 22:35:00 10.2 C 8.09 g/m*3 10.2 C 0 km/h
Sensor: Nr:Datum:Temp:Abs-Feuchte:Windchill:Wind:
Aussen-T/F 2001 19-03-2020 22:40:00 10.2 C 8.18 g/m*3 10.2 C 0 km/h
2002 19-03-2020 22:45:00 10.1 C 8.13 g/m*3 10.1 C 0 km/h
2003 19-03-2020 22:50:00 10.1 C 8.13 g/m*3 10.1 C 0 km/h
2004 19-03-2020 22:55:00 10 C 8.08 g/m*3 10 C 0 km/h
2005 19-03-2020 23:00:00 10 C 8.08 g/m*3 10 C 0 km/h
2006 19-03-2020 23:05:00 9.9 C 8.03 g/m*3 9.9 C 0 km/h
2007 19-03-2020 23:10:00 9.9 C 8.03 g/m*3 9.9 C 0 km/h
2008 19-03-2020 23:15:00 9.9 C 8.03 g/m*3 9.9 C 0 km/h
2009 19-03-2020 23:20:00 9.9 C 8.03 g/m*3 9.9 C 0 km/h
2010 19-03-2020 23:25:00 9.9 C 8.03 g/m*3 9.9 C 0 km/h
2011 19-03-2020 23:30:00 9.8 C 7.98 g/m*3 9.8 C 0 km/h
2012 19-03-2020 23:35:00 9.8 C 7.98 g/m*3 9.8 C 0 km/h
2013 19-03-2020 23:40:00 9.8 C 7.98 g/m*3 9.8 C 0 km/h
2014 19-03-2020 23:45:00 9.7 C 7.93 g/m*3 9.7 C 0 km/h
2015 19-03-2020 23:50:00 9.7 C 7.93 g/m*3 9.7 C 0 km/h
2016 19-03-2020 23:55:00 9.7 C 7.93 g/m*3 9.7 C 0 km/h

Legende:
   Min
   Max


Maximal/Minimal-Werte vom 13.03.2020 - 19.03.2020

Sensor Min Max Avg
Temp
(Aussen-T/F)
1.4 °C
14-03-2020  06:35:00
19.1 °C
16-03-2020  16:50:00
9.31 °C
Abs-Feuchte
(Aussen-T/F)
5.05 g/m*3
14-03-2020  06:15:00
9.57 g/m*3
18-03-2020  12:35:00
7.04 g/m*3
Windchill
(Aussen-T/F)
1.05 C
13-03-2020  03:45:00
19.1 C
16-03-2020  16:50:00
9.01 C

Die Daten stammen von einer Davis Vantage Pro 2 Wetter-Station und werden unter Linux mit der Software wview2wettercgi und aufbereitet. Alle Angaben erfolgen ohne Gewähr für ihre Vollständigkeit oder Richtigkeit.
Kontakt: Rainer Krienke krienke@uni-koblenz.de . Meine Webseiten an der Uni Koblenz oder privat.
Version: $Revision: 0.78 $